<?xml version="1.0" encoding="UTF-8" standalone="no" ?>
<gpx xmlns="http://www.topografix.com/GPX/1/1" xmlns:xsi="http://www.w3.org/2001/XMLSchema-instance" xsi:schemaLocation="http://www.topografix.com/GPX/1/1 http://www.topografix.com/GPX/1/1/gpx.xsd" version="1.1" creator="VisuGPX - https://www.visugpx.com">
  <metadata>
    <name>Randonnée au Pic d\'Arrès le Vendredi 9 mars 2012</name>
    <desc><![CDATA[Randonnée au Pic d\'Arrès via le Tuc du plan de la serre.
Conditions parfaites!!!]]></desc>
  </metadata>
  <trk>
    <name><![CDATA[MAR-09-12 15:55:55]]></name>
    <trkseg>
      <trkpt lat="42.76779" lon="0.65932">
        <ele>1290.71</ele>
        <time>2012-03-09T07:18:11Z</time>
      </trkpt>
      <trkpt lat="42.76777" lon="0.6593">
        <ele>1288.3</ele>
        <time>2012-03-09T07:21:08Z</time>
      </trkpt>
      <trkpt lat="42.76778" lon="0.65931">
        <ele>1286.86</ele>
        <time>2012-03-09T07:24:39Z</time>
      </trkpt>
      <trkpt lat="42.76778" lon="0.65929">
        <ele>1285.9</ele>
        <time>2012-03-09T07:26:42Z</time>
      </trkpt>
      <trkpt lat="42.76775" lon="0.65928">
        <ele>1285.42</ele>
        <time>2012-03-09T07:26:45Z</time>
      </trkpt>
      <trkpt lat="42.76767" lon="0.65923">
        <ele>1285.42</ele>
        <time>2012-03-09T07:26:51Z</time>
      </trkpt>
      <trkpt lat="42.76742" lon="0.65929">
        <ele>1283.02</ele>
        <time>2012-03-09T07:27:08Z</time>
      </trkpt>
      <trkpt lat="42.76733" lon="0.65939">
        <ele>1280.13</ele>
        <time>2012-03-09T07:27:16Z</time>
      </trkpt>
      <trkpt lat="42.76712" lon="0.6596">
        <ele>1272.92</ele>
        <time>2012-03-09T07:27:36Z</time>
      </trkpt>
      <trkpt lat="42.76694" lon="0.65977">
        <ele>1270.52</ele>
        <time>2012-03-09T07:27:52Z</time>
      </trkpt>
      <trkpt lat="42.76685" lon="0.65978">
        <ele>1269.08</ele>
        <time>2012-03-09T07:28:07Z</time>
      </trkpt>
      <trkpt lat="42.76685" lon="0.65978">
        <ele>1269.08</ele>
        <time>2012-03-09T07:28:29Z</time>
      </trkpt>
      <trkpt lat="42.7668" lon="0.65978">
        <ele>1268.6</ele>
        <time>2012-03-09T07:29:12Z</time>
      </trkpt>
      <trkpt lat="42.76669" lon="0.65985">
        <ele>1267.16</ele>
        <time>2012-03-09T07:29:25Z</time>
      </trkpt>
      <trkpt lat="42.76654" lon="0.65995">
        <ele>1265.71</ele>
        <time>2012-03-09T07:29:41Z</time>
      </trkpt>
      <trkpt lat="42.7665" lon="0.65999">
        <ele>1265.23</ele>
        <time>2012-03-09T07:29:47Z</time>
      </trkpt>
      <trkpt lat="42.76646" lon="0.66007">
        <ele>1265.23</ele>
        <time>2012-03-09T07:29:52Z</time>
      </trkpt>
      <trkpt lat="42.76641" lon="0.66016">
        <ele>1266.67</ele>
        <time>2012-03-09T07:30:01Z</time>
      </trkpt>
      <trkpt lat="42.76636" lon="0.66013">
        <ele>1265.71</ele>
        <time>2012-03-09T07:30:06Z</time>
      </trkpt>
      <trkpt lat="42.76625" lon="0.65997">
        <ele>1266.19</ele>
        <time>2012-03-09T07:30:21Z</time>
      </trkpt>
      <trkpt lat="42.76624" lon="0.65994">
        <ele>1266.19</ele>
        <time>2012-03-09T07:30:24Z</time>
      </trkpt>
      <trkpt lat="42.7662" lon="0.65982">
        <ele>1267.64</ele>
        <time>2012-03-09T07:30:47Z</time>
      </trkpt>
      <trkpt lat="42.7661" lon="0.65964">
        <ele>1270.04</ele>
        <time>2012-03-09T07:31:01Z</time>
      </trkpt>
      <trkpt lat="42.76604" lon="0.65958">
        <ele>1270.04</ele>
        <time>2012-03-09T07:31:07Z</time>
      </trkpt>
      <trkpt lat="42.76596" lon="0.65946">
        <ele>1271</ele>
        <time>2012-03-09T07:31:18Z</time>
      </trkpt>
      <trkpt lat="42.76591" lon="0.65945">
        <ele>1271.96</ele>
        <time>2012-03-09T07:31:22Z</time>
      </trkpt>
      <trkpt lat="42.76577" lon="0.65918">
        <ele>1275.33</ele>
        <time>2012-03-09T07:31:41Z</time>
      </trkpt>
      <trkpt lat="42.76562" lon="0.65898">
        <ele>1277.25</ele>
        <time>2012-03-09T07:31:57Z</time>
      </trkpt>
      <trkpt lat="42.76549" lon="0.65885">
        <ele>1280.13</ele>
        <time>2012-03-09T07:32:13Z</time>
      </trkpt>
      <trkpt lat="42.76547" lon="0.6588">
        <ele>1280.61</ele>
        <time>2012-03-09T07:32:17Z</time>
      </trkpt>
      <trkpt lat="42.76545" lon="0.65875">
        <ele>1281.09</ele>
        <time>2012-03-09T07:32:20Z</time>
      </trkpt>
      <trkpt lat="42.76534" lon="0.65859">
        <ele>1280.61</ele>
        <time>2012-03-09T07:32:37Z</time>
      </trkpt>
      <trkpt lat="42.76534" lon="0.65859">
        <ele>1280.61</ele>
        <time>2012-03-09T07:33:24Z</time>
      </trkpt>
      <trkpt lat="42.76534" lon="0.65836">
        <ele>1278.69</ele>
        <time>2012-03-09T07:33:34Z</time>
      </trkpt>
      <trkpt lat="42.76521" lon="0.65806">
        <ele>1281.57</ele>
        <time>2012-03-09T07:33:50Z</time>
      </trkpt>
      <trkpt lat="42.76505" lon="0.65788">
        <ele>1283.5</ele>
        <time>2012-03-09T07:34:07Z</time>
      </trkpt>
      <trkpt lat="42.76491" lon="0.65768">
        <ele>1285.9</ele>
        <time>2012-03-09T07:34:24Z</time>
      </trkpt>
      <trkpt lat="42.7648" lon="0.65745">
        <ele>1287.82</ele>
        <time>2012-03-09T07:34:39Z</time>
      </trkpt>
      <trkpt lat="42.76467" lon="0.65732">
        <ele>1290.71</ele>
        <time>2012-03-09T07:34:57Z</time>
      </trkpt>
      <trkpt lat="42.76461" lon="0.65736">
        <ele>1292.15</ele>
        <time>2012-03-09T07:35:05Z</time>
      </trkpt>
      <trkpt lat="42.76446" lon="0.65729">
        <ele>1297.44</ele>
        <time>2012-03-09T07:35:23Z</time>
      </trkpt>
      <trkpt lat="42.76436" lon="0.65719">
        <ele>1298.88</ele>
        <time>2012-03-09T07:35:42Z</time>
      </trkpt>
      <trkpt lat="42.76415" lon="0.65704">
        <ele>1298.4</ele>
        <time>2012-03-09T07:36:00Z</time>
      </trkpt>
      <trkpt lat="42.76397" lon="0.65694">
        <ele>1301.28</ele>
        <time>2012-03-09T07:36:20Z</time>
      </trkpt>
      <trkpt lat="42.76378" lon="0.65696">
        <ele>1306.57</ele>
        <time>2012-03-09T07:36:40Z</time>
      </trkpt>
      <trkpt lat="42.7636" lon="0.657">
        <ele>1309.45</ele>
        <time>2012-03-09T07:36:58Z</time>
      </trkpt>
      <trkpt lat="42.76356" lon="0.65694">
        <ele>1309.93</ele>
        <time>2012-03-09T07:37:18Z</time>
      </trkpt>
      <trkpt lat="42.76355" lon="0.65691">
        <ele>1309.93</ele>
        <time>2012-03-09T07:37:21Z</time>
      </trkpt>
      <trkpt lat="42.76353" lon="0.65686">
        <ele>1309.93</ele>
        <time>2012-03-09T07:37:24Z</time>
      </trkpt>
      <trkpt lat="42.76345" lon="0.65679">
        <ele>1308.97</ele>
        <time>2012-03-09T07:37:40Z</time>
      </trkpt>
      <trkpt lat="42.76342" lon="0.65682">
        <ele>1311.38</ele>
        <time>2012-03-09T07:37:50Z</time>
      </trkpt>
      <trkpt lat="42.76339" lon="0.65673">
        <ele>1310.9</ele>
        <time>2012-03-09T07:37:58Z</time>
      </trkpt>
      <trkpt lat="42.76333" lon="0.65658">
        <ele>1317.14</ele>
        <time>2012-03-09T07:38:18Z</time>
      </trkpt>
      <trkpt lat="42.76331" lon="0.65658">
        <ele>1317.62</ele>
        <time>2012-03-09T07:38:24Z</time>
      </trkpt>
      <trkpt lat="42.76315" lon="0.65663">
        <ele>1318.59</ele>
        <time>2012-03-09T07:38:41Z</time>
      </trkpt>
      <trkpt lat="42.763" lon="0.65664">
        <ele>1320.99</ele>
        <time>2012-03-09T07:38:57Z</time>
      </trkpt>
      <trkpt lat="42.76295" lon="0.65664">
        <ele>1323.87</ele>
        <time>2012-03-09T07:39:04Z</time>
      </trkpt>
      <trkpt lat="42.76293" lon="0.65667">
        <ele>1326.28</ele>
        <time>2012-03-09T07:39:26Z</time>
      </trkpt>
      <trkpt lat="42.76288" lon="0.65675">
        <ele>1330.6</ele>
        <time>2012-03-09T07:39:37Z</time>
      </trkpt>
      <trkpt lat="42.76282" lon="0.65678">
        <ele>1333.01</ele>
        <time>2012-03-09T07:39:48Z</time>
      </trkpt>
      <trkpt lat="42.76275" lon="0.6567">
        <ele>1332.52</ele>
        <time>2012-03-09T07:40:10Z</time>
      </trkpt>
      <trkpt lat="42.76253" lon="0.65649">
        <ele>1336.37</ele>
        <time>2012-03-09T07:40:29Z</time>
      </trkpt>
      <trkpt lat="42.76238" lon="0.65633">
        <ele>1339.73</ele>
        <time>2012-03-09T07:40:47Z</time>
      </trkpt>
      <trkpt lat="42.76234" lon="0.65628">
        <ele>1340.7</ele>
        <time>2012-03-09T07:40:54Z</time>
      </trkpt>
      <trkpt lat="42.76215" lon="0.65615">
        <ele>1345.5</ele>
        <time>2012-03-09T07:41:15Z</time>
      </trkpt>
      <trkpt lat="42.76198" lon="0.65594">
        <ele>1347.91</ele>
        <time>2012-03-09T07:41:35Z</time>
      </trkpt>
      <trkpt lat="42.76195" lon="0.65598">
        <ele>1351.27</ele>
        <time>2012-03-09T07:41:56Z</time>
      </trkpt>
      <trkpt lat="42.76199" lon="0.65612">
        <ele>1350.79</ele>
        <time>2012-03-09T07:42:07Z</time>
      </trkpt>
      <trkpt lat="42.76205" lon="0.65632">
        <ele>1348.87</ele>
        <time>2012-03-09T07:42:24Z</time>
      </trkpt>
      <trkpt lat="42.76206" lon="0.65633">
        <ele>1348.87</ele>
        <time>2012-03-09T07:42:26Z</time>
      </trkpt>
      <trkpt lat="42.76217" lon="0.65649">
        <ele>1347.91</ele>
        <time>2012-03-09T07:42:44Z</time>
      </trkpt>
      <trkpt lat="42.7622" lon="0.65652">
        <ele>1347.91</ele>
        <time>2012-03-09T07:42:47Z</time>
      </trkpt>
      <trkpt lat="42.76235" lon="0.65669">
        <ele>1351.75</ele>
        <time>2012-03-09T07:43:06Z</time>
      </trkpt>
      <trkpt lat="42.76235" lon="0.65671">
        <ele>1351.75</ele>
        <time>2012-03-09T07:43:08Z</time>
      </trkpt>
      <trkpt lat="42.7624" lon="0.65683">
        <ele>1353.67</ele>
        <time>2012-03-09T07:43:15Z</time>
      </trkpt>
      <trkpt lat="42.76242" lon="0.65711">
        <ele>1357.04</ele>
        <time>2012-03-09T07:43:33Z</time>
      </trkpt>
      <trkpt lat="42.76243" lon="0.65738">
        <ele>1359.92</ele>
        <time>2012-03-09T07:43:51Z</time>
      </trkpt>
      <trkpt lat="42.76246" lon="0.65762">
        <ele>1363.29</ele>
        <time>2012-03-09T07:44:08Z</time>
      </trkpt>
      <trkpt lat="42.76248" lon="0.65776">
        <ele>1364.73</ele>
        <time>2012-03-09T07:44:19Z</time>
      </trkpt>
      <trkpt lat="42.7624" lon="0.65807">
        <ele>1365.21</ele>
        <time>2012-03-09T07:44:38Z</time>
      </trkpt>
      <trkpt lat="42.76248" lon="0.65832">
        <ele>1368.09</ele>
        <time>2012-03-09T07:44:55Z</time>
      </trkpt>
      <trkpt lat="42.76247" lon="0.65854">
        <ele>1370.02</ele>
        <time>2012-03-09T07:45:08Z</time>
      </trkpt>
      <trkpt lat="42.76241" lon="0.65865">
        <ele>1370.5</ele>
        <time>2012-03-09T07:45:17Z</time>
      </trkpt>
      <trkpt lat="42.76236" lon="0.65867">
        <ele>1370.5</ele>
        <time>2012-03-09T07:45:21Z</time>
      </trkpt>
      <trkpt lat="42.76222" lon="0.65874">
        <ele>1371.94</ele>
        <time>2012-03-09T07:45:29Z</time>
      </trkpt>
      <trkpt lat="42.76217" lon="0.65872">
        <ele>1372.42</ele>
        <time>2012-03-09T07:45:33Z</time>
      </trkpt>
      <trkpt lat="42.76208" lon="0.65842">
        <ele>1372.42</ele>
        <time>2012-03-09T07:45:52Z</time>
      </trkpt>
      <trkpt lat="42.76207" lon="0.65841">
        <ele>1371.94</ele>
        <time>2012-03-09T07:45:53Z</time>
      </trkpt>
      <trkpt lat="42.76205" lon="0.65837">
        <ele>1371.46</ele>
        <time>2012-03-09T07:45:57Z</time>
      </trkpt>
      <trkpt lat="42.76193" lon="0.65816">
        <ele>1370.02</ele>
        <time>2012-03-09T07:46:16Z</time>
      </trkpt>
      <trkpt lat="42.76189" lon="0.65794">
        <ele>1375.3</ele>
        <time>2012-03-09T07:46:33Z</time>
      </trkpt>
      <trkpt lat="42.76179" lon="0.65773">
        <ele>1376.75</ele>
        <time>2012-03-09T07:46:51Z</time>
      </trkpt>
      <trkpt lat="42.76173" lon="0.65767">
        <ele>1378.19</ele>
        <time>2012-03-09T07:47:11Z</time>
      </trkpt>
      <trkpt lat="42.76174" lon="0.65767">
        <ele>1378.67</ele>
        <time>2012-03-09T07:48:27Z</time>
      </trkpt>
      <trkpt lat="42.76179" lon="0.65761">
        <ele>1380.59</ele>
        <time>2012-03-09T07:48:57Z</time>
      </trkpt>
      <trkpt lat="42.76179" lon="0.65761">
        <ele>1380.59</ele>
        <time>2012-03-09T07:49:10Z</time>
      </trkpt>
      <trkpt lat="42.76186" lon="0.65775">
        <ele>1380.11</ele>
        <time>2012-03-09T07:49:28Z</time>
      </trkpt>
      <trkpt lat="42.7619" lon="0.65792">
        <ele>1383.96</ele>
        <time>2012-03-09T07:49:48Z</time>
      </trkpt>
      <trkpt lat="42.76184" lon="0.65809">
        <ele>1382.51</ele>
        <time>2012-03-09T07:50:06Z</time>
      </trkpt>
      <trkpt lat="42.76182" lon="0.65808">
        <ele>1383.47</ele>
        <time>2012-03-09T07:50:40Z</time>
      </trkpt>
      <trkpt lat="42.76183" lon="0.65801">
        <ele>1384.44</ele>
        <time>2012-03-09T07:51:16Z</time>
      </trkpt>
      <trkpt lat="42.76183" lon="0.65801">
        <ele>1384.44</ele>
        <time>2012-03-09T07:51:27Z</time>
      </trkpt>
      <trkpt lat="42.76183" lon="0.65764">
        <ele>1383.96</ele>
        <time>2012-03-09T07:51:43Z</time>
      </trkpt>
      <trkpt lat="42.76179" lon="0.65739">
        <ele>1381.55</ele>
        <time>2012-03-09T07:51:58Z</time>
      </trkpt>
      <trkpt lat="42.76165" lon="0.65742">
        <ele>1383.96</ele>
        <time>2012-03-09T07:52:18Z</time>
      </trkpt>
      <trkpt lat="42.76159" lon="0.65738">
        <ele>1384.44</ele>
        <time>2012-03-09T07:52:23Z</time>
      </trkpt>
      <trkpt lat="42.76153" lon="0.65729">
        <ele>1384.44</ele>
        <time>2012-03-09T07:52:32Z</time>
      </trkpt>
      <trkpt lat="42.7614" lon="0.65719">
        <ele>1387.32</ele>
        <time>2012-03-09T07:52:46Z</time>
      </trkpt>
      <trkpt lat="42.76123" lon="0.65693">
        <ele>1388.76</ele>
        <time>2012-03-09T07:53:06Z</time>
      </trkpt>
      <trkpt lat="42.76121" lon="0.65689">
        <ele>1388.76</ele>
        <time>2012-03-09T07:53:09Z</time>
      </trkpt>
      <trkpt lat="42.76107" lon="0.65663">
        <ele>1391.17</ele>
        <time>2012-03-09T07:53:31Z</time>
      </trkpt>
      <trkpt lat="42.76094" lon="0.65642">
        <ele>1391.17</ele>
        <time>2012-03-09T07:53:47Z</time>
      </trkpt>
      <trkpt lat="42.76088" lon="0.65606">
        <ele>1393.09</ele>
        <time>2012-03-09T07:54:07Z</time>
      </trkpt>
      <trkpt lat="42.76082" lon="0.65584">
        <ele>1393.57</ele>
        <time>2012-03-09T07:54:23Z</time>
      </trkpt>
      <trkpt lat="42.76075" lon="0.65583">
        <ele>1394.05</ele>
        <time>2012-03-09T07:54:38Z</time>
      </trkpt>
      <trkpt lat="42.76073" lon="0.65585">
        <ele>1395.97</ele>
        <time>2012-03-09T07:54:45Z</time>
      </trkpt>
      <trkpt lat="42.76081" lon="0.65604">
        <ele>1400.78</ele>
        <time>2012-03-09T07:55:02Z</time>
      </trkpt>
      <trkpt lat="42.76091" lon="0.65622">
        <ele>1401.74</ele>
        <time>2012-03-09T07:55:16Z</time>
      </trkpt>
      <trkpt lat="42.76094" lon="0.65646">
        <ele>1406.55</ele>
        <time>2012-03-09T07:55:32Z</time>
      </trkpt>
      <trkpt lat="42.76101" lon="0.65672">
        <ele>1408.47</ele>
        <time>2012-03-09T07:55:49Z</time>
      </trkpt>
      <trkpt lat="42.7611" lon="0.65696">
        <ele>1412.31</ele>
        <time>2012-03-09T07:56:05Z</time>
      </trkpt>
      <trkpt lat="42.76109" lon="0.65725">
        <ele>1413.28</ele>
        <time>2012-03-09T07:56:23Z</time>
      </trkpt>
      <trkpt lat="42.76116" lon="0.65751">
        <ele>1415.2</ele>
        <time>2012-03-09T07:56:44Z</time>
      </trkpt>
      <trkpt lat="42.7612" lon="0.65758">
        <ele>1414.72</ele>
        <time>2012-03-09T07:56:52Z</time>
      </trkpt>
      <trkpt lat="42.76129" lon="0.65777">
        <ele>1415.2</ele>
        <time>2012-03-09T07:57:08Z</time>
      </trkpt>
      <trkpt lat="42.76136" lon="0.65798">
        <ele>1417.6</ele>
        <time>2012-03-09T07:57:25Z</time>
      </trkpt>
      <trkpt lat="42.76138" lon="0.65803">
        <ele>1418.08</ele>
        <time>2012-03-09T07:57:28Z</time>
      </trkpt>
      <trkpt lat="42.7614" lon="0.65838">
        <ele>1421.45</ele>
        <time>2012-03-09T07:57:47Z</time>
      </trkpt>
      <trkpt lat="42.76146" lon="0.65857">
        <ele>1421.93</ele>
        <time>2012-03-09T07:58:04Z</time>
      </trkpt>
      <trkpt lat="42.76155" lon="0.65878">
        <ele>1424.33</ele>
        <time>2012-03-09T07:58:20Z</time>
      </trkpt>
      <trkpt lat="42.76146" lon="0.65906">
        <ele>1427.21</ele>
        <time>2012-03-09T07:58:38Z</time>
      </trkpt>
      <trkpt lat="42.76148" lon="0.6592">
        <ele>1428.18</ele>
        <time>2012-03-09T07:58:50Z</time>
      </trkpt>
      <trkpt lat="42.76148" lon="0.65946">
        <ele>1430.1</ele>
        <time>2012-03-09T07:59:09Z</time>
      </trkpt>
      <trkpt lat="42.76148" lon="0.65959">
        <ele>1431.54</ele>
        <time>2012-03-09T07:59:20Z</time>
      </trkpt>
      <trkpt lat="42.76153" lon="0.65987">
        <ele>1432.98</ele>
        <time>2012-03-09T07:59:40Z</time>
      </trkpt>
      <trkpt lat="42.7615" lon="0.66004">
        <ele>1436.35</ele>
        <time>2012-03-09T08:00:00Z</time>
      </trkpt>
      <trkpt lat="42.76148" lon="0.66003">
        <ele>1436.35</ele>
        <time>2012-03-09T08:01:03Z</time>
      </trkpt>
      <trkpt lat="42.76144" lon="0.66002">
        <ele>1436.35</ele>
        <time>2012-03-09T08:01:06Z</time>
      </trkpt>
      <trkpt lat="42.76138" lon="0.65993">
        <ele>1438.27</ele>
        <time>2012-03-09T08:01:23Z</time>
      </trkpt>
      <trkpt lat="42.76132" lon="0.65985">
        <ele>1439.23</ele>
        <time>2012-03-09T08:01:40Z</time>
      </trkpt>
      <trkpt lat="42.76126" lon="0.65979">
        <ele>1442.11</ele>
        <time>2012-03-09T08:01:56Z</time>
      </trkpt>
      <trkpt lat="42.76113" lon="0.65971">
        <ele>1447.4</ele>
        <time>2012-03-09T08:02:18Z</time>
      </trkpt>
      <trkpt lat="42.7611" lon="0.65959">
        <ele>1452.21</ele>
        <time>2012-03-09T08:02:46Z</time>
      </trkpt>
      <trkpt lat="42.76103" lon="0.65953">
        <ele>1456.53</ele>
        <time>2012-03-09T08:02:59Z</time>
      </trkpt>
      <trkpt lat="42.76101" lon="0.65947">
        <ele>1460.38</ele>
        <time>2012-03-09T08:03:11Z</time>
      </trkpt>
      <trkpt lat="42.76095" lon="0.65935">
        <ele>1465.67</ele>
        <time>2012-03-09T08:03:30Z</time>
      </trkpt>
      <trkpt lat="42.76087" lon="0.65931">
        <ele>1468.07</ele>
        <time>2012-03-09T08:03:47Z</time>
      </trkpt>
      <trkpt lat="42.76079" lon="0.65919">
        <ele>1473.36</ele>
        <time>2012-03-09T08:04:11Z</time>
      </trkpt>
      <trkpt lat="42.76071" lon="0.65918">
        <ele>1478.65</ele>
        <time>2012-03-09T08:04:24Z</time>
      </trkpt>
      <trkpt lat="42.76067" lon="0.65915">
        <ele>1479.61</ele>
        <time>2012-03-09T08:04:31Z</time>
      </trkpt>
      <trkpt lat="42.76064" lon="0.65909">
        <ele>1480.09</ele>
        <time>2012-03-09T08:04:36Z</time>
      </trkpt>
      <trkpt lat="42.76056" lon="0.65895">
        <ele>1481.53</ele>
        <time>2012-03-09T08:04:48Z</time>
      </trkpt>
      <trkpt lat="42.76039" lon="0.65884">
        <ele>1484.89</ele>
        <time>2012-03-09T08:05:07Z</time>
      </trkpt>
      <trkpt lat="42.76036" lon="0.6588">
        <ele>1485.85</ele>
        <time>2012-03-09T08:05:11Z</time>
      </trkpt>
      <trkpt lat="42.76032" lon="0.65873">
        <ele>1487.3</ele>
        <time>2012-03-09T08:05:18Z</time>
      </trkpt>
      <trkpt lat="42.76014" lon="0.65858">
        <ele>1490.66</ele>
        <time>2012-03-09T08:05:41Z</time>
      </trkpt>
      <trkpt lat="42.76008" lon="0.65853">
        <ele>1493.55</ele>
        <time>2012-03-09T08:05:57Z</time>
      </trkpt>
      <trkpt lat="42.75997" lon="0.65844">
        <ele>1495.47</ele>
        <time>2012-03-09T08:06:21Z</time>
      </trkpt>
      <trkpt lat="42.75987" lon="0.65831">
        <ele>1496.91</ele>
        <time>2012-03-09T08:06:41Z</time>
      </trkpt>
      <trkpt lat="42.75985" lon="0.65822">
        <ele>1497.39</ele>
        <time>2012-03-09T08:06:51Z</time>
      </trkpt>
      <trkpt lat="42.75983" lon="0.65807">
        <ele>1496.91</ele>
        <time>2012-03-09T08:07:01Z</time>
      </trkpt>
      <trkpt lat="42.75981" lon="0.65781">
        <ele>1498.35</ele>
        <time>2012-03-09T08:07:19Z</time>
      </trkpt>
      <trkpt lat="42.75982" lon="0.65778">
        <ele>1497.87</ele>
        <time>2012-03-09T08:07:21Z</time>
      </trkpt>
      <trkpt lat="42.75977" lon="0.65764">
        <ele>1496.43</ele>
        <time>2012-03-09T08:07:39Z</time>
      </trkpt>
      <trkpt lat="42.75978" lon="0.65756">
        <ele>1500.27</ele>
        <time>2012-03-09T08:07:54Z</time>
      </trkpt>
      <trkpt lat="42.75979" lon="0.65754">
        <ele>1500.27</ele>
        <time>2012-03-09T08:08:24Z</time>
      </trkpt>
      <trkpt lat="42.7598" lon="0.65751">
        <ele>1500.27</ele>
        <time>2012-03-09T08:08:31Z</time>
      </trkpt>
      <trkpt lat="42.75982" lon="0.65733">
        <ele>1499.79</ele>
        <time>2012-03-09T08:08:49Z</time>
      </trkpt>
      <trkpt lat="42.7598" lon="0.6573">
        <ele>1500.76</ele>
        <time>2012-03-09T08:09:09Z</time>
      </trkpt>
      <trkpt lat="42.75978" lon="0.65696">
        <ele>1503.64</ele>
        <time>2012-03-09T08:09:30Z</time>
      </trkpt>
      <trkpt lat="42.7598" lon="0.65674">
        <ele>1504.12</ele>
        <time>2012-03-09T08:09:48Z</time>
      </trkpt>
      <trkpt lat="42.7598" lon="0.65674">
        <ele>1504.12</ele>
        <time>2012-03-09T08:09:56Z</time>
      </trkpt>
      <trkpt lat="42.75974" lon="0.65665">
        <ele>1505.08</ele>
        <time>2012-03-09T08:10:05Z</time>
      </trkpt>
      <trkpt lat="42.75965" lon="0.65636">
        <ele>1505.56</ele>
        <time>2012-03-09T08:10:26Z</time>
      </trkpt>
      <trkpt lat="42.75962" lon="0.65631">
        <ele>1507</ele>
        <time>2012-03-09T08:10:29Z</time>
      </trkpt>
      <trkpt lat="42.75961" lon="0.65624">
        <ele>1507.48</ele>
        <time>2012-03-09T08:10:41Z</time>
      </trkpt>
      <trkpt lat="42.75959" lon="0.65621">
        <ele>1507.97</ele>
        <time>2012-03-09T08:10:44Z</time>
      </trkpt>
      <trkpt lat="42.75958" lon="0.65604">
        <ele>1511.33</ele>
        <time>2012-03-09T08:11:05Z</time>
      </trkpt>
      <trkpt lat="42.75952" lon="0.65599">
        <ele>1510.37</ele>
        <time>2012-03-09T08:11:43Z</time>
      </trkpt>
      <trkpt lat="42.75952" lon="0.65596">
        <ele>1510.37</ele>
        <time>2012-03-09T08:11:47Z</time>
      </trkpt>
      <trkpt lat="42.7595" lon="0.65585">
        <ele>1509.89</ele>
        <time>2012-03-09T08:12:06Z</time>
      </trkpt>
      <trkpt lat="42.7595" lon="0.65581">
        <ele>1510.37</ele>
        <time>2012-03-09T08:12:20Z</time>
      </trkpt>
      <trkpt lat="42.75949" lon="0.65571">
        <ele>1514.21</ele>
        <time>2012-03-09T08:12:29Z</time>
      </trkpt>
      <trkpt lat="42.75948" lon="0.65564">
        <ele>1515.66</ele>
        <time>2012-03-09T08:12:33Z</time>
      </trkpt>
      <trkpt lat="42.75943" lon="0.65555">
        <ele>1517.58</ele>
        <time>2012-03-09T08:12:50Z</time>
      </trkpt>
      <trkpt lat="42.75937" lon="0.65563">
        <ele>1519.02</ele>
        <time>2012-03-09T08:13:20Z</time>
      </trkpt>
      <trkpt lat="42.75938" lon="0.6556">
        <ele>1519.5</ele>
        <time>2012-03-09T08:13:23Z</time>
      </trkpt>
      <trkpt lat="42.75932" lon="0.65554">
        <ele>1521.42</ele>
        <time>2012-03-09T08:13:44Z</time>
      </trkpt>
      <trkpt lat="42.75932" lon="0.65553">
        <ele>1521.42</ele>
        <time>2012-03-09T08:13:45Z</time>
      </trkpt>
      <trkpt lat="42.75927" lon="0.65532">
        <ele>1520.46</ele>
        <time>2012-03-09T08:14:04Z</time>
      </trkpt>
      <trkpt lat="42.75932" lon="0.65515">
        <ele>1523.35</ele>
        <time>2012-03-09T08:14:25Z</time>
      </trkpt>
      <trkpt lat="42.75932" lon="0.65515">
        <ele>1523.35</ele>
        <time>2012-03-09T08:14:52Z</time>
      </trkpt>
      <trkpt lat="42.75929" lon="0.65514">
        <ele>1522.87</ele>
        <time>2012-03-09T08:15:11Z</time>
      </trkpt>
      <trkpt lat="42.75929" lon="0.655">
        <ele>1527.19</ele>
        <time>2012-03-09T08:15:29Z</time>
      </trkpt>
      <trkpt lat="42.75927" lon="0.65478">
        <ele>1525.27</ele>
        <time>2012-03-09T08:15:56Z</time>
      </trkpt>
      <trkpt lat="42.75926" lon="0.65477">
        <ele>1524.79</ele>
        <time>2012-03-09T08:15:57Z</time>
      </trkpt>
      <trkpt lat="42.75917" lon="0.65457">
        <ele>1525.27</ele>
        <time>2012-03-09T08:16:16Z</time>
      </trkpt>
      <trkpt lat="42.75913" lon="0.65446">
        <ele>1529.59</ele>
        <time>2012-03-09T08:16:35Z</time>
      </trkpt>
      <trkpt lat="42.75913" lon="0.65441">
        <ele>1531.52</ele>
        <time>2012-03-09T08:17:15Z</time>
      </trkpt>
      <trkpt lat="42.75911" lon="0.65435">
        <ele>1532.48</ele>
        <time>2012-03-09T08:17:41Z</time>
      </trkpt>
      <trkpt lat="42.75907" lon="0.65429">
        <ele>1534.88</ele>
        <time>2012-03-09T08:18:03Z</time>
      </trkpt>
      <trkpt lat="42.75902" lon="0.65419">
        <ele>1538.25</ele>
        <time>2012-03-09T08:18:22Z</time>
      </trkpt>
      <trkpt lat="42.75901" lon="0.65416">
        <ele>1538.25</ele>
        <time>2012-03-09T08:20:40Z</time>
      </trkpt>
      <trkpt lat="42.75901" lon="0.65416">
        <ele>1538.25</ele>
        <time>2012-03-09T08:20:54Z</time>
      </trkpt>
      <trkpt lat="42.75901" lon="0.65411">
        <ele>1539.21</ele>
        <time>2012-03-09T08:20:59Z</time>
      </trkpt>
      <trkpt lat="42.75898" lon="0.65401">
        <ele>1540.17</ele>
        <time>2012-03-09T08:21:06Z</time>
      </trkpt>
      <trkpt lat="42.75893" lon="0.65394">
        <ele>1544.01</ele>
        <time>2012-03-09T08:21:24Z</time>
      </trkpt>
      <trkpt lat="42.75883" lon="0.65376">
        <ele>1545.46</ele>
        <time>2012-03-09T08:21:44Z</time>
      </trkpt>
      <trkpt lat="42.75872" lon="0.6536">
        <ele>1548.82</ele>
        <time>2012-03-09T08:22:01Z</time>
      </trkpt>
      <trkpt lat="42.75865" lon="0.65342">
        <ele>1550.74</ele>
        <time>2012-03-09T08:22:19Z</time>
      </trkpt>
      <trkpt lat="42.75859" lon="0.65337">
        <ele>1553.63</ele>
        <time>2012-03-09T08:22:37Z</time>
      </trkpt>
      <trkpt lat="42.75855" lon="0.65337">
        <ele>1552.67</ele>
        <time>2012-03-09T08:22:53Z</time>
      </trkpt>
      <trkpt lat="42.75853" lon="0.65336">
        <ele>1553.15</ele>
        <time>2012-03-09T08:23:37Z</time>
      </trkpt>
      <trkpt lat="42.75842" lon="0.65332">
        <ele>1556.51</ele>
        <time>2012-03-09T08:23:50Z</time>
      </trkpt>
      <trkpt lat="42.75834" lon="0.65321">
        <ele>1562.28</ele>
        <time>2012-03-09T08:24:09Z</time>
      </trkpt>
      <trkpt lat="42.7583" lon="0.65317">
        <ele>1563.24</ele>
        <time>2012-03-09T08:24:18Z</time>
      </trkpt>
      <trkpt lat="42.7582" lon="0.65314">
        <ele>1567.09</ele>
        <time>2012-03-09T08:24:38Z</time>
      </trkpt>
      <trkpt lat="42.75818" lon="0.65309">
        <ele>1567.57</ele>
        <time>2012-03-09T08:24:44Z</time>
      </trkpt>
      <trkpt lat="42.7581" lon="0.65299">
        <ele>1569.97</ele>
        <time>2012-03-09T08:25:03Z</time>
      </trkpt>
      <trkpt lat="42.75801" lon="0.65291">
        <ele>1574.3</ele>
        <time>2012-03-09T08:25:22Z</time>
      </trkpt>
      <trkpt lat="42.75795" lon="0.65278">
        <ele>1576.7</ele>
        <time>2012-03-09T08:25:40Z</time>
      </trkpt>
      <trkpt lat="42.75794" lon="0.65274">
        <ele>1577.18</ele>
        <time>2012-03-09T08:25:45Z</time>
      </trkpt>
      <trkpt lat="42.75786" lon="0.65258">
        <ele>1581.51</ele>
        <time>2012-03-09T08:26:06Z</time>
      </trkpt>
      <trkpt lat="42.75785" lon="0.65254">
        <ele>1582.47</ele>
        <time>2012-03-09T08:26:25Z</time>
      </trkpt>
      <trkpt lat="42.75777" lon="0.65245">
        <ele>1588.24</ele>
        <time>2012-03-09T08:26:40Z</time>
      </trkpt>
      <trkpt lat="42.75766" lon="0.65226">
        <ele>1592.08</ele>
        <time>2012-03-09T08:27:01Z</time>
      </trkpt>
      <trkpt lat="42.75764" lon="0.65215">
        <ele>1594</ele>
        <time>2012-03-09T08:27:08Z</time>
      </trkpt>
      <trkpt lat="42.75764" lon="0.65211">
        <ele>1593.52</ele>
        <time>2012-03-09T08:27:10Z</time>
      </trkpt>
      <trkpt lat="42.75766" lon="0.65206">
        <ele>1593.52</ele>
        <time>2012-03-09T08:27:13Z</time>
      </trkpt>
      <trkpt lat="42.75769" lon="0.65193">
        <ele>1594</ele>
        <time>2012-03-09T08:27:28Z</time>
      </trkpt>
      <trkpt lat="42.75768" lon="0.65188">
        <ele>1594.48</ele>
        <time>2012-03-09T08:27:48Z</time>
      </trkpt>
      <trkpt lat="42.75766" lon="0.65186">
        <ele>1595.45</ele>
        <time>2012-03-09T08:27:52Z</time>
      </trkpt>
      <trkpt lat="42.75759" lon="0.65184">
        <ele>1598.81</ele>
        <time>2012-03-09T08:28:05Z</time>
      </trkpt>
      <trkpt lat="42.75754" lon="0.65183">
        <ele>1600.25</ele>
        <time>2012-03-09T08:28:12Z</time>
      </trkpt>
      <trkpt lat="42.75748" lon="0.65168">
        <ele>1601.21</ele>
        <time>2012-03-09T08:28:27Z</time>
      </trkpt>
      <trkpt lat="42.75738" lon="0.65158">
        <ele>1591.6</ele>
        <time>2012-03-09T08:28:39Z</time>
      </trkpt>
      <trkpt lat="42.75728" lon="0.65145">
        <ele>1589.68</ele>
        <time>2012-03-09T08:28:56Z</time>
      </trkpt>
      <trkpt lat="42.75719" lon="0.65134">
        <ele>1592.08</ele>
        <time>2012-03-09T08:29:13Z</time>
      </trkpt>
      <trkpt lat="42.75712" lon="0.65134">
        <ele>1594</ele>
        <time>2012-03-09T08:29:25Z</time>
      </trkpt>
      <trkpt lat="42.75711" lon="0.65136">
        <ele>1599.77</ele>
        <time>2012-03-09T08:29:43Z</time>
      </trkpt>
      <trkpt lat="42.75707" lon="0.65141">
        <ele>1605.54</ele>
        <time>2012-03-09T08:30:52Z</time>
      </trkpt>
      <trkpt lat="42.75704" lon="0.65147">
        <ele>1609.86</ele>
        <time>2012-03-09T08:31:01Z</time>
      </trkpt>
      <trkpt lat="42.757" lon="0.65158">
        <ele>1616.59</ele>
        <time>2012-03-09T08:31:18Z</time>
      </trkpt>
      <trkpt lat="42.7569" lon="0.65151">
        <ele>1619</ele>
        <time>2012-03-09T08:31:32Z</time>
      </trkpt>
      <trkpt lat="42.75684" lon="0.65142">
        <ele>1620.44</ele>
        <time>2012-03-09T08:31:45Z</time>
      </trkpt>
      <trkpt lat="42.75676" lon="0.65146">
        <ele>1622.36</ele>
        <time>2012-03-09T08:32:00Z</time>
      </trkpt>
      <trkpt lat="42.75676" lon="0.65152">
        <ele>1623.32</ele>
        <time>2012-03-09T08:32:15Z</time>
      </trkpt>
      <trkpt lat="42.75675" lon="0.6516">
        <ele>1626.69</ele>
        <time>2012-03-09T08:32:27Z</time>
      </trkpt>
      <trkpt lat="42.75675" lon="0.65163">
        <ele>1627.65</ele>
        <time>2012-03-09T08:32:29Z</time>
      </trkpt>
      <trkpt lat="42.75672" lon="0.65164">
        <ele>1626.69</ele>
        <time>2012-03-09T08:32:32Z</time>
      </trkpt>
      <trkpt lat="42.75662" lon="0.6516">
        <ele>1630.53</ele>
        <time>2012-03-09T08:32:47Z</time>
      </trkpt>
      <trkpt lat="42.7566" lon="0.65162">
        <ele>1632.46</ele>
        <time>2012-03-09T08:33:01Z</time>
      </trkpt>
      <trkpt lat="42.75662" lon="0.65169">
        <ele>1634.86</ele>
        <time>2012-03-09T08:33:13Z</time>
      </trkpt>
      <trkpt lat="42.75659" lon="0.65179">
        <ele>1640.63</ele>
        <time>2012-03-09T08:33:29Z</time>
      </trkpt>
      <trkpt lat="42.75657" lon="0.65194">
        <ele>1645.43</ele>
        <time>2012-03-09T08:33:44Z</time>
      </trkpt>
      <trkpt lat="42.75657" lon="0.65207">
        <ele>1648.32</ele>
        <time>2012-03-09T08:34:02Z</time>
      </trkpt>
      <trkpt lat="42.75656" lon="0.65207">
        <ele>1648.8</ele>
        <time>2012-03-09T08:34:03Z</time>
      </trkpt>
      <trkpt lat="42.75641" lon="0.65207">
        <ele>1646.4</ele>
        <time>2012-03-09T08:34:18Z</time>
      </trkpt>
      <trkpt lat="42.7564" lon="0.6521">
        <ele>1645.91</ele>
        <time>2012-03-09T08:34:31Z</time>
      </trkpt>
      <trkpt lat="42.75643" lon="0.65218">
        <ele>1647.84</ele>
        <time>2012-03-09T08:34:44Z</time>
      </trkpt>
      <trkpt lat="42.75636" lon="0.65221">
        <ele>1647.36</ele>
        <time>2012-03-09T08:34:52Z</time>
      </trkpt>
      <trkpt lat="42.75625" lon="0.65217">
        <ele>1649.76</ele>
        <time>2012-03-09T08:35:10Z</time>
      </trkpt>
      <trkpt lat="42.75627" lon="0.65224">
        <ele>1651.68</ele>
        <time>2012-03-09T08:35:24Z</time>
      </trkpt>
      <trkpt lat="42.75619" lon="0.65221">
        <ele>1654.09</ele>
        <time>2012-03-09T08:35:37Z</time>
      </trkpt>
      <trkpt lat="42.75611" lon="0.65214">
        <ele>1656.01</ele>
        <time>2012-03-09T08:35:51Z</time>
      </trkpt>
      <trkpt lat="42.75613" lon="0.6522">
        <ele>1656.97</ele>
        <time>2012-03-09T08:36:08Z</time>
      </trkpt>
      <trkpt lat="42.75605" lon="0.65217">
        <ele>1658.89</ele>
        <time>2012-03-09T08:36:24Z</time>
      </trkpt>
      <trkpt lat="42.75598" lon="0.65208">
        <ele>1662.26</ele>
        <time>2012-03-09T08:36:37Z</time>
      </trkpt>
      <trkpt lat="42.75594" lon="0.65204">
        <ele>1666.1</ele>
        <time>2012-03-09T08:36:51Z</time>
      </trkpt>
      <trkpt lat="42.75588" lon="0.65197">
        <ele>1669.47</ele>
        <time>2012-03-09T08:37:06Z</time>
      </trkpt>
      <trkpt lat="42.75579" lon="0.6519">
        <ele>1671.87</ele>
        <time>2012-03-09T08:37:21Z</time>
      </trkpt>
      <trkpt lat="42.75579" lon="0.65193">
        <ele>1672.35</ele>
        <time>2012-03-09T08:37:35Z</time>
      </trkpt>
      <trkpt lat="42.75582" lon="0.65204">
        <ele>1675.23</ele>
        <time>2012-03-09T08:37:49Z</time>
      </trkpt>
      <trkpt lat="42.75571" lon="0.65216">
        <ele>1676.68</ele>
        <time>2012-03-09T08:38:05Z</time>
      </trkpt>
      <trkpt lat="42.75561" lon="0.65211">
        <ele>1678.6</ele>
        <time>2012-03-09T08:38:19Z</time>
      </trkpt>
      <trkpt lat="42.75555" lon="0.65207">
        <ele>1680.52</ele>
        <time>2012-03-09T08:38:30Z</time>
      </trkpt>
      <trkpt lat="42.75548" lon="0.65196">
        <ele>1683.41</ele>
        <time>2012-03-09T08:38:44Z</time>
      </trkpt>
      <trkpt lat="42.7554" lon="0.65184">
        <ele>1684.85</ele>
        <time>2012-03-09T08:38:58Z</time>
      </trkpt>
      <trkpt lat="42.7554" lon="0.65185">
        <ele>1685.33</ele>
        <time>2012-03-09T08:39:05Z</time>
      </trkpt>
      <trkpt lat="42.7554" lon="0.65203">
        <ele>1689.17</ele>
        <time>2012-03-09T08:39:22Z</time>
      </trkpt>
      <trkpt lat="42.75535" lon="0.65215">
        <ele>1690.62</ele>
        <time>2012-03-09T08:39:40Z</time>
      </trkpt>
      <trkpt lat="42.75532" lon="0.65225">
        <ele>1693.02</ele>
        <time>2012-03-09T08:39:52Z</time>
      </trkpt>
      <trkpt lat="42.75521" lon="0.65218">
        <ele>1694.94</ele>
        <time>2012-03-09T08:40:08Z</time>
      </trkpt>
      <trkpt lat="42.75515" lon="0.65207">
        <ele>1696.86</ele>
        <time>2012-03-09T08:40:22Z</time>
      </trkpt>
      <trkpt lat="42.75506" lon="0.65194">
        <ele>1700.71</ele>
        <time>2012-03-09T08:40:39Z</time>
      </trkpt>
      <trkpt lat="42.75499" lon="0.65183">
        <ele>1702.63</ele>
        <time>2012-03-09T08:40:53Z</time>
      </trkpt>
      <trkpt lat="42.75498" lon="0.65177">
        <ele>1703.59</ele>
        <time>2012-03-09T08:40:59Z</time>
      </trkpt>
      <trkpt lat="42.75495" lon="0.65167">
        <ele>1705.52</ele>
        <time>2012-03-09T08:41:27Z</time>
      </trkpt>
      <trkpt lat="42.75494" lon="0.65163">
        <ele>1705.52</ele>
        <time>2012-03-09T08:41:30Z</time>
      </trkpt>
      <trkpt lat="42.75487" lon="0.65155">
        <ele>1708.4</ele>
        <time>2012-03-09T08:41:46Z</time>
      </trkpt>
      <trkpt lat="42.7548" lon="0.65141">
        <ele>1710.32</ele>
        <time>2012-03-09T08:41:59Z</time>
      </trkpt>
      <trkpt lat="42.75471" lon="0.65122">
        <ele>1712.73</ele>
        <time>2012-03-09T08:42:14Z</time>
      </trkpt>
      <trkpt lat="42.75465" lon="0.65111">
        <ele>1712.25</ele>
        <time>2012-03-09T08:42:28Z</time>
      </trkpt>
      <trkpt lat="42.75461" lon="0.65093">
        <ele>1712.73</ele>
        <time>2012-03-09T08:42:41Z</time>
      </trkpt>
      <trkpt lat="42.75453" lon="0.65078">
        <ele>1712.25</ele>
        <time>2012-03-09T08:42:56Z</time>
      </trkpt>
      <trkpt lat="42.75447" lon="0.65059">
        <ele>1714.17</ele>
        <time>2012-03-09T08:43:10Z</time>
      </trkpt>
      <trkpt lat="42.75442" lon="0.65045">
        <ele>1715.13</ele>
        <time>2012-03-09T08:43:23Z</time>
      </trkpt>
      <trkpt lat="42.75439" lon="0.65035">
        <ele>1717.05</ele>
        <time>2012-03-09T08:43:36Z</time>
      </trkpt>
      <trkpt lat="42.75435" lon="0.65024">
        <ele>1718.97</ele>
        <time>2012-03-09T08:43:50Z</time>
      </trkpt>
      <trkpt lat="42.75434" lon="0.65009">
        <ele>1722.82</ele>
        <time>2012-03-09T08:44:06Z</time>
      </trkpt>
      <trkpt lat="42.7543" lon="0.64994">
        <ele>1725.7</ele>
        <time>2012-03-09T08:44:19Z</time>
      </trkpt>
      <trkpt lat="42.75429" lon="0.64992">
        <ele>1726.18</ele>
        <time>2012-03-09T08:44:21Z</time>
      </trkpt>
      <trkpt lat="42.75421" lon="0.64978">
        <ele>1728.11</ele>
        <time>2012-03-09T08:44:38Z</time>
      </trkpt>
      <trkpt lat="42.75415" lon="0.64963">
        <ele>1730.03</ele>
        <time>2012-03-09T08:44:51Z</time>
      </trkpt>
      <trkpt lat="42.75408" lon="0.64952">
        <ele>1730.99</ele>
        <time>2012-03-09T08:45:04Z</time>
      </trkpt>
      <trkpt lat="42.75404" lon="0.64945">
        <ele>1730.51</ele>
        <time>2012-03-09T08:45:11Z</time>
      </trkpt>
      <trkpt lat="42.75402" lon="0.64943">
        <ele>1730.51</ele>
        <time>2012-03-09T08:45:13Z</time>
      </trkpt>
      <trkpt lat="42.75392" lon="0.64937">
        <ele>1731.47</ele>
        <time>2012-03-09T08:45:27Z</time>
      </trkpt>
      <trkpt lat="42.75383" lon="0.64932">
        <ele>1732.91</ele>
        <time>2012-03-09T08:45:39Z</time>
      </trkpt>
      <trkpt lat="42.75374" lon="0.64926">
        <ele>1735.32</ele>
        <time>2012-03-09T08:45:50Z</time>
      </trkpt>
      <trkpt lat="42.75364" lon="0.64919">
        <ele>1737.24</ele>
        <time>2012-03-09T08:46:04Z</time>
      </trkpt>
      <trkpt lat="42.75356" lon="0.64918">
        <ele>1738.2</ele>
        <time>2012-03-09T08:46:14Z</time>
      </trkpt>
      <trkpt lat="42.75343" lon="0.6492">
        <ele>1740.6</ele>
        <time>2012-03-09T08:46:27Z</time>
      </trkpt>
      <trkpt lat="42.75342" lon="0.64921">
        <ele>1741.57</ele>
        <time>2012-03-09T08:48:04Z</time>
      </trkpt>
      <trkpt lat="42.75341" lon="0.64917">
        <ele>1740.12</ele>
        <time>2012-03-09T08:50:41Z</time>
      </trkpt>
      <trkpt lat="42.75341" lon="0.64916">
        <ele>1739.64</ele>
        <time>2012-03-09T08:53:53Z</time>
      </trkpt>
      <trkpt lat="42.75341" lon="0.64916">
        <ele>1739.64</ele>
        <time>2012-03-09T08:55:50Z</time>
      </trkpt>
      <trkpt lat="42.75339" lon="0.6491">
        <ele>1740.6</ele>
        <time>2012-03-09T08:55:58Z</time>
      </trkpt>
      <trkpt lat="42.75337" lon="0.64888">
        <ele>1741.08</ele>
        <time>2012-03-09T08:56:12Z</time>
      </trkpt>
      <trkpt lat="42.75339" lon="0.64866">
        <ele>1741.57</ele>
        <time>2012-03-09T08:56:26Z</time>
      </trkpt>
      <trkpt lat="42.75342" lon="0.64846">
        <ele>1742.53</ele>
        <time>2012-03-09T08:56:40Z</time>
      </trkpt>
      <trkpt lat="42.75344" lon="0.64825">
        <ele>1743.49</ele>
        <time>2012-03-09T08:56:54Z</time>
      </trkpt>
      <trkpt lat="42.75347" lon="0.64809">
        <ele>1745.89</ele>
        <time>2012-03-09T08:57:07Z</time>
      </trkpt>
      <trkpt lat="42.75349" lon="0.64796">
        <ele>1747.81</ele>
        <time>2012-03-09T08:57:18Z</time>
      </trkpt>
      <trkpt lat="42.7535" lon="0.64785">
        <ele>1748.78</ele>
        <time>2012-03-09T08:57:30Z</time>
      </trkpt>
      <trkpt lat="42.7535" lon="0.64785">
        <ele>1748.78</ele>
        <time>2012-03-09T08:57:43Z</time>
      </trkpt>
      <trkpt lat="42.75349" lon="0.6477">
        <ele>1750.22</ele>
        <time>2012-03-09T08:57:55Z</time>
      </trkpt>
      <trkpt lat="42.75348" lon="0.64752">
        <ele>1753.1</ele>
        <time>2012-03-09T08:58:10Z</time>
      </trkpt>
      <trkpt lat="42.75348" lon="0.64747">
        <ele>1755.5</ele>
        <time>2012-03-09T08:58:24Z</time>
      </trkpt>
      <trkpt lat="42.75348" lon="0.6474">
        <ele>1755.5</ele>
        <time>2012-03-09T08:58:50Z</time>
      </trkpt>
      <trkpt lat="42.75346" lon="0.64728">
        <ele>1757.43</ele>
        <time>2012-03-09T08:59:02Z</time>
      </trkpt>
      <trkpt lat="42.75342" lon="0.64715">
        <ele>1758.87</ele>
        <time>2012-03-09T08:59:14Z</time>
      </trkpt>
      <trkpt lat="42.7534" lon="0.64706">
        <ele>1760.31</ele>
        <time>2012-03-09T08:59:24Z</time>
      </trkpt>
      <trkpt lat="42.75339" lon="0.647">
        <ele>1761.27</ele>
        <time>2012-03-09T08:59:29Z</time>
      </trkpt>
      <trkpt lat="42.75336" lon="0.64686">
        <ele>1762.71</ele>
        <time>2012-03-09T08:59:41Z</time>
      </trkpt>
      <trkpt lat="42.75334" lon="0.64672">
        <ele>1766.08</ele>
        <time>2012-03-09T08:59:54Z</time>
      </trkpt>
      <trkpt lat="42.75332" lon="0.6466">
        <ele>1769.92</ele>
        <time>2012-03-09T09:00:05Z</time>
      </trkpt>
      <trkpt lat="42.75328" lon="0.64648">
        <ele>1772.33</ele>
        <time>2012-03-09T09:00:17Z</time>
      </trkpt>
      <trkpt lat="42.75326" lon="0.64643">
        <ele>1773.29</ele>
        <time>2012-03-09T09:00:23Z</time>
      </trkpt>
      <trkpt lat="42.75323" lon="0.64631">
        <ele>1775.21</ele>
        <time>2012-03-09T09:00:36Z</time>
      </trkpt>
      <trkpt lat="42.75321" lon="0.6462">
        <ele>1777.13</ele>
        <time>2012-03-09T09:00:47Z</time>
      </trkpt>
      <trkpt lat="42.7532" lon="0.64608">
        <ele>1777.61</ele>
        <time>2012-03-09T09:00:58Z</time>
      </trkpt>
      <trkpt lat="42.75318" lon="0.64596">
        <ele>1779.06</ele>
        <time>2012-03-09T09:01:09Z</time>
      </trkpt>
      <trkpt lat="42.75315" lon="0.64586">
        <ele>1782.42</ele>
        <time>2012-03-09T09:01:20Z</time>
      </trkpt>
      <trkpt lat="42.75311" lon="0.64576">
        <ele>1784.82</ele>
        <time>2012-03-09T09:01:31Z</time>
      </trkpt>
      <trkpt lat="42.75315" lon="0.64572">
        <ele>1786.27</ele>
        <time>2012-03-09T09:01:41Z</time>
      </trkpt>
      <trkpt lat="42.7532" lon="0.6457">
        <ele>1787.71</ele>
        <time>2012-03-09T09:01:48Z</time>
      </trkpt>
      <trkpt lat="42.75331" lon="0.64566">
        <ele>1789.15</ele>
        <time>2012-03-09T09:02:02Z</time>
      </trkpt>
      <trkpt lat="42.75339" lon="0.64563">
        <ele>1791.07</ele>
        <time>2012-03-09T09:02:15Z</time>
      </trkpt>
      <trkpt lat="42.7534" lon="0.64559">
        <ele>1793.96</ele>
        <time>2012-03-09T09:02:27Z</time>
      </trkpt>
      <trkpt lat="42.75337" lon="0.64554">
        <ele>1795.88</ele>
        <time>2012-03-09T09:02:33Z</time>
      </trkpt>
      <trkpt lat="42.75333" lon="0.64544">
        <ele>1798.76</ele>
        <time>2012-03-09T09:02:45Z</time>
      </trkpt>
      <trkpt lat="42.7533" lon="0.64533">
        <ele>1801.17</ele>
        <time>2012-03-09T09:02:56Z</time>
      </trkpt>
      <trkpt lat="42.75326" lon="0.64525">
        <ele>1803.09</ele>
        <time>2012-03-09T09:03:06Z</time>
      </trkpt>
      <trkpt lat="42.75323" lon="0.64513">
        <ele>1805.49</ele>
        <time>2012-03-09T09:03:18Z</time>
      </trkpt>
      <trkpt lat="42.7532" lon="0.64503">
        <ele>1807.42</ele>
        <time>2012-03-09T09:03:29Z</time>
      </trkpt>
      <trkpt lat="42.75317" lon="0.64491">
        <ele>1810.3</ele>
        <time>2012-03-09T09:03:42Z</time>
      </trkpt>
      <trkpt lat="42.75315" lon="0.64483">
        <ele>1812.22</ele>
        <time>2012-03-09T09:03:55Z</time>
      </trkpt>
      <trkpt lat="42.75313" lon="0.6447">
        <ele>1815.11</ele>
        <time>2012-03-09T09:04:08Z</time>
      </trkpt>
      <trkpt lat="42.7531" lon="0.64459">
        <ele>1818.95</ele>
        <time>2012-03-09T09:04:22Z</time>
      </trkpt>
      <trkpt lat="42.75309" lon="0.64448">
        <ele>1821.84</ele>
        <time>2012-03-09T09:04:34Z</time>
      </trkpt>
      <trkpt lat="42.75315" lon="0.64448">
        <ele>1823.76</ele>
        <time>2012-03-09T09:04:50Z</time>
      </trkpt>
      <trkpt lat="42.75323" lon="0.64446">
        <ele>1825.68</ele>
        <time>2012-03-09T09:05:03Z</time>
      </trkpt>
      <trkpt lat="42.75332" lon="0.64445">
        <ele>1829.05</ele>
        <time>2012-03-09T09:05:18Z</time>
      </trkpt>
      <trkpt lat="42.75338" lon="0.64444">
        <ele>1831.93</ele>
        <time>2012-03-09T09:05:31Z</time>
      </trkpt>
      <trkpt lat="42.75346" lon="0.64444">
        <ele>1833.85</ele>
        <time>2012-03-09T09:05:47Z</time>
      </trkpt>
      <trkpt lat="42.75347" lon="0.64444">
        <ele>1834.33</ele>
        <time>2012-03-09T09:05:49Z</time>
      </trkpt>
      <trkpt lat="42.75357" lon="0.64444">
        <ele>1837.7</ele>
        <time>2012-03-09T09:06:03Z</time>
      </trkpt>
      <trkpt lat="42.75366" lon="0.64442">
        <ele>1840.1</ele>
        <time>2012-03-09T09:06:16Z</time>
      </trkpt>
      <trkpt lat="42.75368" lon="0.64441">
        <ele>1841.54</ele>
        <time>2012-03-09T09:06:29Z</time>
      </trkpt>
      <trkpt lat="42.75365" lon="0.64432">
        <ele>1843.47</ele>
        <time>2012-03-09T09:08:23Z</time>
      </trkpt>
      <trkpt lat="42.7536" lon="0.64421">
        <ele>1846.35</ele>
        <time>2012-03-09T09:08:36Z</time>
      </trkpt>
      <trkpt lat="42.75358" lon="0.64411">
        <ele>1848.27</ele>
        <time>2012-03-09T09:08:48Z</time>
      </trkpt>
      <trkpt lat="42.75355" lon="0.64402">
        <ele>1850.68</ele>
        <time>2012-03-09T09:09:00Z</time>
      </trkpt>
      <trkpt lat="42.75353" lon="0.64397">
        <ele>1852.12</ele>
        <time>2012-03-09T09:09:11Z</time>
      </trkpt>
      <trkpt lat="42.75357" lon="0.64396">
        <ele>1853.08</ele>
        <time>2012-03-09T09:09:22Z</time>
      </trkpt>
      <trkpt lat="42.75368" lon="0.64397">
        <ele>1856.92</ele>
        <time>2012-03-09T09:09:36Z</time>
      </trkpt>
      <trkpt lat="42.75378" lon="0.64397">
        <ele>1860.29</ele>
        <time>2012-03-09T09:09:49Z</time>
      </trkpt>
      <trkpt lat="42.75387" lon="0.64396">
        <ele>1863.65</ele>
        <time>2012-03-09T09:10:02Z</time>
      </trkpt>
      <trkpt lat="42.75397" lon="0.64397">
        <ele>1867.02</ele>
        <time>2012-03-09T09:10:15Z</time>
      </trkpt>
      <trkpt lat="42.75406" lon="0.64395">
        <ele>1870.38</ele>
        <time>2012-03-09T09:10:29Z</time>
      </trkpt>
      <trkpt lat="42.75404" lon="0.6439">
        <ele>1871.34</ele>
        <time>2012-03-09T09:10:39Z</time>
      </trkpt>
      <trkpt lat="42.75401" lon="0.6438">
        <ele>1871.82</ele>
        <time>2012-03-09T09:10:51Z</time>
      </trkpt>
      <trkpt lat="42.75396" lon="0.64372">
        <ele>1872.79</ele>
        <time>2012-03-09T09:11:03Z</time>
      </trkpt>
      <trkpt lat="42.75396" lon="0.64371">
        <ele>1872.79</ele>
        <time>2012-03-09T09:11:08Z</time>
      </trkpt>
      <trkpt lat="42.75388" lon="0.64363">
        <ele>1873.27</ele>
        <time>2012-03-09T09:11:20Z</time>
      </trkpt>
      <trkpt lat="42.75383" lon="0.64352">
        <ele>1874.71</ele>
        <time>2012-03-09T09:11:31Z</time>
      </trkpt>
      <trkpt lat="42.75379" lon="0.64345">
        <ele>1876.63</ele>
        <time>2012-03-09T09:11:42Z</time>
      </trkpt>
      <trkpt lat="42.75374" lon="0.64331">
        <ele>1880</ele>
        <time>2012-03-09T09:11:54Z</time>
      </trkpt>
      <trkpt lat="42.75374" lon="0.64323">
        <ele>1882.4</ele>
        <time>2012-03-09T09:12:05Z</time>
      </trkpt>
      <trkpt lat="42.75385" lon="0.64325">
        <ele>1884.32</ele>
        <time>2012-03-09T09:12:20Z</time>
      </trkpt>
      <trkpt lat="42.75394" lon="0.64326">
        <ele>1885.76</ele>
        <time>2012-03-09T09:12:33Z</time>
      </trkpt>
      <trkpt lat="42.75404" lon="0.64329">
        <ele>1886.72</ele>
        <time>2012-03-09T09:12:47Z</time>
      </trkpt>
      <trkpt lat="42.75414" lon="0.64331">
        <ele>1890.09</ele>
        <time>2012-03-09T09:13:01Z</time>
      </trkpt>
      <trkpt lat="42.75426" lon="0.6433">
        <ele>1892.01</ele>
        <time>2012-03-09T09:13:16Z</time>
      </trkpt>
      <trkpt lat="42.75432" lon="0.64331">
        <ele>1892.97</ele>
        <time>2012-03-09T09:13:28Z</time>
      </trkpt>
      <trkpt lat="42.75429" lon="0.64322">
        <ele>1894.9</ele>
        <time>2012-03-09T09:13:36Z</time>
      </trkpt>
      <trkpt lat="42.75424" lon="0.64316">
        <ele>1899.7</ele>
        <time>2012-03-09T09:13:48Z</time>
      </trkpt>
      <trkpt lat="42.75419" lon="0.64307">
        <ele>1902.59</ele>
        <time>2012-03-09T09:14:00Z</time>
      </trkpt>
      <trkpt lat="42.75415" lon="0.64297">
        <ele>1904.51</ele>
        <time>2012-03-09T09:14:12Z</time>
      </trkpt>
      <trkpt lat="42.75411" lon="0.64287">
        <ele>1906.43</ele>
        <time>2012-03-09T09:14:22Z</time>
      </trkpt>
      <trkpt lat="42.75407" lon="0.6428">
        <ele>1907.87</ele>
        <time>2012-03-09T09:14:32Z</time>
      </trkpt>
      <trkpt lat="42.75404" lon="0.64271">
        <ele>1910.76</ele>
        <time>2012-03-09T09:14:43Z</time>
      </trkpt>
      <trkpt lat="42.75403" lon="0.6426">
        <ele>1913.16</ele>
        <time>2012-03-09T09:14:54Z</time>
      </trkpt>
      <trkpt lat="42.75401" lon="0.64248">
        <ele>1915.56</ele>
        <time>2012-03-09T09:15:07Z</time>
      </trkpt>
      <trkpt lat="42.75399" lon="0.64238">
        <ele>1917.97</ele>
        <time>2012-03-09T09:15:19Z</time>
      </trkpt>
      <trkpt lat="42.75397" lon="0.64225">
        <ele>1920.85</ele>
        <time>2012-03-09T09:15:32Z</time>
      </trkpt>
      <trkpt lat="42.75398" lon="0.64221">
        <ele>1922.77</ele>
        <time>2012-03-09T09:15:43Z</time>
      </trkpt>
      <trkpt lat="42.75408" lon="0.64227">
        <ele>1925.66</ele>
        <time>2012-03-09T09:15:58Z</time>
      </trkpt>
      <trkpt lat="42.75416" lon="0.64231">
        <ele>1927.58</ele>
        <time>2012-03-09T09:16:11Z</time>
      </trkpt>
      <trkpt lat="42.75424" lon="0.64233">
        <ele>1929.98</ele>
        <time>2012-03-09T09:16:24Z</time>
      </trkpt>
      <trkpt lat="42.75425" lon="0.64233">
        <ele>1929.98</ele>
        <time>2012-03-09T09:16:25Z</time>
      </trkpt>
      <trkpt lat="42.75434" lon="0.64237">
        <ele>1931.91</ele>
        <time>2012-03-09T09:16:38Z</time>
      </trkpt>
      <trkpt lat="42.75447" lon="0.64239">
        <ele>1934.31</ele>
        <time>2012-03-09T09:16:54Z</time>
      </trkpt>
      <trkpt lat="42.75454" lon="0.64241">
        <ele>1934.31</ele>
        <time>2012-03-09T09:17:08Z</time>
      </trkpt>
      <trkpt lat="42.75453" lon="0.64238">
        <ele>1936.23</ele>
        <time>2012-03-09T09:17:52Z</time>
      </trkpt>
      <trkpt lat="42.7545" lon="0.64229">
        <ele>1938.16</ele>
        <time>2012-03-09T09:18:02Z</time>
      </trkpt>
      <trkpt lat="42.75448" lon="0.64219">
        <ele>1940.56</ele>
        <time>2012-03-09T09:18:14Z</time>
      </trkpt>
      <trkpt lat="42.75444" lon="0.64208">
        <ele>1943.44</ele>
        <time>2012-03-09T09:18:26Z</time>
      </trkpt>
      <trkpt lat="42.75439" lon="0.64198">
        <ele>1946.33</ele>
        <time>2012-03-09T09:18:38Z</time>
      </trkpt>
      <trkpt lat="42.75437" lon="0.64187">
        <ele>1947.77</ele>
        <time>2012-03-09T09:18:49Z</time>
      </trkpt>
      <trkpt lat="42.75434" lon="0.64176">
        <ele>1949.21</ele>
        <time>2012-03-09T09:19:00Z</time>
      </trkpt>
      <trkpt lat="42.75434" lon="0.64164">
        <ele>1951.61</ele>
        <time>2012-03-09T09:19:14Z</time>
      </trkpt>
      <trkpt lat="42.75436" lon="0.64152">
        <ele>1955.46</ele>
        <time>2012-03-09T09:19:26Z</time>
      </trkpt>
      <trkpt lat="42.75438" lon="0.6415">
        <ele>1957.38</ele>
        <time>2012-03-09T09:19:41Z</time>
      </trkpt>
      <trkpt lat="42.75439" lon="0.64151">
        <ele>1957.38</ele>
        <time>2012-03-09T09:19:42Z</time>
      </trkpt>
      <trkpt lat="42.7545" lon="0.64163">
        <ele>1958.82</ele>
        <time>2012-03-09T09:19:57Z</time>
      </trkpt>
      <trkpt lat="42.7545" lon="0.64164">
        <ele>1958.82</ele>
        <time>2012-03-09T09:20:17Z</time>
      </trkpt>
      <trkpt lat="42.75464" lon="0.64192">
        <ele>1955.46</ele>
        <time>2012-03-09T09:20:30Z</time>
      </trkpt>
      <trkpt lat="42.7547" lon="0.64211">
        <ele>1952.57</ele>
        <time>2012-03-09T09:20:42Z</time>
      </trkpt>
      <trkpt lat="42.7547" lon="0.64211">
        <ele>1952.09</ele>
        <time>2012-03-09T09:21:05Z</time>
      </trkpt>
      <trkpt lat="42.7547" lon="0.64208">
        <ele>1951.61</ele>
        <time>2012-03-09T09:21:46Z</time>
      </trkpt>
      <trkpt lat="42.75472" lon="0.64199">
        <ele>1950.17</ele>
        <time>2012-03-09T09:22:02Z</time>
      </trkpt>
      <trkpt lat="42.75472" lon="0.64203">
        <ele>1950.65</ele>
        <time>2012-03-09T09:23:08Z</time>
      </trkpt>
      <trkpt lat="42.75472" lon="0.64205">
        <ele>1950.65</ele>
        <time>2012-03-09T09:23:39Z</time>
      </trkpt>
      <trkpt lat="42.75471" lon="0.6421">
        <ele>1950.65</ele>
        <time>2012-03-09T09:23:44Z</time>
      </trkpt>
      <trkpt lat="42.75468" lon="0.64206">
        <ele>1950.17</ele>
        <time>2012-03-09T09:23:51Z</time>
      </trkpt>
      <trkpt lat="42.75466" lon="0.64197">
        <ele>1950.17</ele>
        <time>2012-03-09T09:24:05Z</time>
      </trkpt>
      <trkpt lat="42.75464" lon="0.64188">
        <ele>1950.65</ele>
        <time>2012-03-09T09:24:45Z</time>
      </trkpt>
      <trkpt lat="42.75459" lon="0.64176">
        <ele>1951.61</ele>
        <time>2012-03-09T09:25:13Z</time>
      </trkpt>
      <trkpt lat="42.75453" lon="0.64164">
        <ele>1953.06</ele>
        <time>2012-03-09T09:25:24Z</time>
      </trkpt>
      <trkpt lat="42.75452" lon="0.64151">
        <ele>1955.46</ele>
        <time>2012-03-09T09:25:36Z</time>
      </trkpt>
      <trkpt lat="42.7545" lon="0.64139">
        <ele>1957.86</ele>
        <time>2012-03-09T09:25:48Z</time>
      </trkpt>
      <trkpt lat="42.75449" lon="0.64128">
        <ele>1959.3</ele>
        <time>2012-03-09T09:26:00Z</time>
      </trkpt>
      <trkpt lat="42.75448" lon="0.64115">
        <ele>1958.82</ele>
        <time>2012-03-09T09:26:51Z</time>
      </trkpt>
      <trkpt lat="42.7545" lon="0.64099">
        <ele>1958.82</ele>
        <time>2012-03-09T09:27:02Z</time>
      </trkpt>
      <trkpt lat="42.75453" lon="0.64087">
        <ele>1959.3</ele>
        <time>2012-03-09T09:27:16Z</time>
      </trkpt>
      <trkpt lat="42.75457" lon="0.64073">
        <ele>1961.71</ele>
        <time>2012-03-09T09:27:30Z</time>
      </trkpt>
      <trkpt lat="42.7546" lon="0.64063">
        <ele>1963.63</ele>
        <time>2012-03-09T09:27:43Z</time>
      </trkpt>
      <trkpt lat="42.75462" lon="0.64049">
        <ele>1965.55</ele>
        <time>2012-03-09T09:29:02Z</time>
      </trkpt>
      <trkpt lat="42.75464" lon="0.64033">
        <ele>1967.48</ele>
        <time>2012-03-09T09:29:15Z</time>
      </trkpt>
      <trkpt lat="42.75467" lon="0.64014">
        <ele>1968.44</ele>
        <time>2012-03-09T09:29:27Z</time>
      </trkpt>
      <trkpt lat="42.75474" lon="0.63994">
        <ele>1966.99</ele>
        <time>2012-03-09T09:29:39Z</time>
      </trkpt>
      <trkpt lat="42.75481" lon="0.63979">
        <ele>1967.48</ele>
        <time>2012-03-09T09:29:53Z</time>
      </trkpt>
      <trkpt lat="42.75486" lon="0.63965">
        <ele>1970.36</ele>
        <time>2012-03-09T09:30:06Z</time>
      </trkpt>
      <trkpt lat="42.75491" lon="0.63943">
        <ele>1972.28</ele>
        <time>2012-03-09T09:30:20Z</time>
      </trkpt>
      <trkpt lat="42.75496" lon="0.63924">
        <ele>1973.24</ele>
        <time>2012-03-09T09:30:32Z</time>
      </trkpt>
      <trkpt lat="42.75498" lon="0.63917">
        <ele>1974.69</ele>
        <time>2012-03-09T09:30:46Z</time>
      </trkpt>
      <trkpt lat="42.75496" lon="0.63916">
        <ele>1973.72</ele>
        <time>2012-03-09T09:35:34Z</time>
      </trkpt>
      <trkpt lat="42.75494" lon="0.63917">
        <ele>1974.2</ele>
        <time>2012-03-09T09:37:29Z</time>
      </trkpt>
      <trkpt lat="42.75485" lon="0.63921">
        <ele>1972.28</ele>
        <time>2012-03-09T09:37:36Z</time>
      </trkpt>
      <trkpt lat="42.75485" lon="0.63923">
        <ele>1971.32</ele>
        <time>2012-03-09T09:37:59Z</time>
      </trkpt>
      <trkpt lat="42.75485" lon="0.63922">
        <ele>1970.84</ele>
        <time>2012-03-09T09:42:50Z</time>
      </trkpt>
      <trkpt lat="42.75484" lon="0.63923">
        <ele>1971.8</ele>
        <time>2012-03-09T09:45:51Z</time>
      </trkpt>
      <trkpt lat="42.75484" lon="0.63922">
        <ele>1971.8</ele>
        <time>2012-03-09T09:51:52Z</time>
      </trkpt>
      <trkpt lat="42.75484" lon="0.63921">
        <ele>1971.8</ele>
        <time>2012-03-09T09:58:38Z</time>
      </trkpt>
      <trkpt lat="42.75484" lon="0.63921">
        <ele>1971.8</ele>
        <time>2012-03-09T09:59:03Z</time>
      </trkpt>
      <trkpt lat="42.75484" lon="0.6392">
        <ele>1972.28</ele>
        <time>2012-03-09T10:00:18Z</time>
      </trkpt>
      <trkpt lat="42.75484" lon="0.6392">
        <ele>1972.28</ele>
        <time>2012-03-09T10:00:28Z</time>
      </trkpt>
      <trkpt lat="42.75481" lon="0.63921">
        <ele>1971.32</ele>
        <time>2012-03-09T10:00:31Z</time>
      </trkpt>
      <trkpt lat="42.75467" lon="0.63937">
        <ele>1968.92</ele>
        <time>2012-03-09T10:00:38Z</time>
      </trkpt>
      <trkpt lat="42.75462" lon="0.63937">
        <ele>1967.96</ele>
        <time>2012-03-09T10:00:51Z</time>
      </trkpt>
      <trkpt lat="42.75461" lon="0.63937">
        <ele>1967.96</ele>
        <time>2012-03-09T10:01:17Z</time>
      </trkpt>
      <trkpt lat="42.75439" lon="0.63934">
        <ele>1965.55</ele>
        <time>2012-03-09T10:01:23Z</time>
      </trkpt>
      <trkpt lat="42.75375" lon="0.63942">
        <ele>1958.34</ele>
        <time>2012-03-09T10:01:36Z</time>
      </trkpt>
      <trkpt lat="42.75368" lon="0.63942">
        <ele>1957.38</ele>
        <time>2012-03-09T10:01:37Z</time>
      </trkpt>
      <trkpt lat="42.75338" lon="0.63954">
        <ele>1953.54</ele>
        <time>2012-03-09T10:01:40Z</time>
      </trkpt>
      <trkpt lat="42.75329" lon="0.63958">
        <ele>1952.09</ele>
        <time>2012-03-09T10:01:41Z</time>
      </trkpt>
      <trkpt lat="42.75311" lon="0.63965">
        <ele>1949.21</ele>
        <time>2012-03-09T10:01:43Z</time>
      </trkpt>
      <trkpt lat="42.75302" lon="0.63969">
        <ele>1947.77</ele>
        <time>2012-03-09T10:01:44Z</time>
      </trkpt>
      <trkpt lat="42.75291" lon="0.63975">
        <ele>1944.88</ele>
        <time>2012-03-09T10:01:45Z</time>
      </trkpt>
      <trkpt lat="42.75274" lon="0.63986">
        <ele>1940.56</ele>
        <time>2012-03-09T10:01:47Z</time>
      </trkpt>
      <trkpt lat="42.75239" lon="0.63997">
        <ele>1928.06</ele>
        <time>2012-03-09T10:01:52Z</time>
      </trkpt>
      <trkpt lat="42.75216" lon="0.64008">
        <ele>1919.89</ele>
        <time>2012-03-09T10:01:55Z</time>
      </trkpt>
      <trkpt lat="42.75172" lon="0.64041">
        <ele>1898.74</ele>
        <time>2012-03-09T10:02:02Z</time>
      </trkpt>
      <trkpt lat="42.75114" lon="0.64072">
        <ele>1869.9</ele>
        <time>2012-03-09T10:02:10Z</time>
      </trkpt>
      <trkpt lat="42.75072" lon="0.64101">
        <ele>1848.27</ele>
        <time>2012-03-09T10:02:16Z</time>
      </trkpt>
      <trkpt lat="42.75049" lon="0.64114">
        <ele>1837.7</ele>
        <time>2012-03-09T10:02:19Z</time>
      </trkpt>
      <trkpt lat="42.75029" lon="0.64124">
        <ele>1828.08</ele>
        <time>2012-03-09T10:02:22Z</time>
      </trkpt>
      <trkpt lat="42.75004" lon="0.64148">
        <ele>1809.34</ele>
        <time>2012-03-09T10:02:28Z</time>
      </trkpt>
      <trkpt lat="42.75012" lon="0.64148">
        <ele>1786.75</ele>
        <time>2012-03-09T10:02:42Z</time>
      </trkpt>
      <trkpt lat="42.75012" lon="0.64148">
        <ele>1785.79</ele>
        <time>2012-03-09T10:03:07Z</time>
      </trkpt>
      <trkpt lat="42.75012" lon="0.64147">
        <ele>1785.79</ele>
        <time>2012-03-09T10:05:12Z</time>
      </trkpt>
      <trkpt lat="42.74998" lon="0.64117">
        <ele>1782.9</ele>
        <time>2012-03-09T10:05:20Z</time>
      </trkpt>
      <trkpt lat="42.74995" lon="0.64112">
        <ele>1782.42</ele>
        <time>2012-03-09T10:05:21Z</time>
      </trkpt>
      <trkpt lat="42.74993" lon="0.64106">
        <ele>1781.94</ele>
        <time>2012-03-09T10:05:22Z</time>
      </trkpt>
      <trkpt lat="42.7499" lon="0.641">
        <ele>1781.46</ele>
        <time>2012-03-09T10:05:23Z</time>
      </trkpt>
      <trkpt lat="42.74988" lon="0.64095">
        <ele>1780.98</ele>
        <time>2012-03-09T10:05:24Z</time>
      </trkpt>
      <trkpt lat="42.74985" lon="0.64089">
        <ele>1780.5</ele>
        <time>2012-03-09T10:05:25Z</time>
      </trkpt>
      <trkpt lat="42.7498" lon="0.64078">
        <ele>1779.06</ele>
        <time>2012-03-09T10:05:27Z</time>
      </trkpt>
      <trkpt lat="42.74973" lon="0.64061">
        <ele>1776.65</ele>
        <time>2012-03-09T10:05:30Z</time>
      </trkpt>
      <trkpt lat="42.74968" lon="0.64058">
        <ele>1776.17</ele>
        <time>2012-03-09T10:05:31Z</time>
      </trkpt>
      <trkpt lat="42.74963" lon="0.64055">
        <ele>1774.73</ele>
        <time>2012-03-09T10:05:32Z</time>
      </trkpt>
      <trkpt lat="42.74937" lon="0.64051">
        <ele>1770.41</ele>
        <time>2012-03-09T10:05:36Z</time>
      </trkpt>
      <trkpt lat="42.749" lon="0.64062">
        <ele>1760.79</ele>
        <time>2012-03-09T10:05:42Z</time>
      </trkpt>
      <trkpt lat="42.74871" lon="0.64079">
        <ele>1749.26</ele>
        <time>2012-03-09T10:05:47Z</time>
      </trkpt>
      <trkpt lat="42.74842" lon="0.64121">
        <ele>1731.95</ele>
        <time>2012-03-09T10:05:54Z</time>
      </trkpt>
      <trkpt lat="42.74806" lon="0.64184">
        <ele>1712.25</ele>
        <time>2012-03-09T10:06:02Z</time>
      </trkpt>
      <trkpt lat="42.74801" lon="0.64201">
        <ele>1707.44</ele>
        <time>2012-03-09T10:06:04Z</time>
      </trkpt>
      <trkpt lat="42.74794" lon="0.64214">
        <ele>1702.15</ele>
        <time>2012-03-09T10:06:06Z</time>
      </trkpt>
      <trkpt lat="42.74791" lon="0.64269">
        <ele>1683.89</ele>
        <time>2012-03-09T10:06:12Z</time>
      </trkpt>
      <trkpt lat="42.74781" lon="0.64301">
        <ele>1671.39</ele>
        <time>2012-03-09T10:06:16Z</time>
      </trkpt>
      <trkpt lat="42.74775" lon="0.64337">
        <ele>1656.97</ele>
        <time>2012-03-09T10:06:21Z</time>
      </trkpt>
      <trkpt lat="42.74759" lon="0.64365">
        <ele>1646.88</ele>
        <time>2012-03-09T10:06:25Z</time>
      </trkpt>
      <trkpt lat="42.74729" lon="0.64391">
        <ele>1631.01</ele>
        <time>2012-03-09T10:06:32Z</time>
      </trkpt>
      <trkpt lat="42.74721" lon="0.64407">
        <ele>1625.25</ele>
        <time>2012-03-09T10:06:35Z</time>
      </trkpt>
      <trkpt lat="42.74718" lon="0.64428">
        <ele>1620.44</ele>
        <time>2012-03-09T10:06:38Z</time>
      </trkpt>
      <trkpt lat="42.74718" lon="0.64455">
        <ele>1607.46</ele>
        <time>2012-03-09T10:06:45Z</time>
      </trkpt>
      <trkpt lat="42.74721" lon="0.64455">
        <ele>1600.25</ele>
        <time>2012-03-09T10:07:00Z</time>
      </trkpt>
      <trkpt lat="42.74721" lon="0.64456">
        <ele>1600.25</ele>
        <time>2012-03-09T10:08:08Z</time>
      </trkpt>
      <trkpt lat="42.74726" lon="0.64454">
        <ele>1599.77</ele>
        <time>2012-03-09T10:08:21Z</time>
      </trkpt>
      <trkpt lat="42.74726" lon="0.64455">
        <ele>1599.77</ele>
        <time>2012-03-09T10:08:22Z</time>
      </trkpt>
      <trkpt lat="42.74717" lon="0.6446">
        <ele>1595.93</ele>
        <time>2012-03-09T10:08:32Z</time>
      </trkpt>
      <trkpt lat="42.74716" lon="0.6446">
        <ele>1595.45</ele>
        <time>2012-03-09T10:09:16Z</time>
      </trkpt>
      <trkpt lat="42.74716" lon="0.6446">
        <ele>1595.45</ele>
        <time>2012-03-09T10:09:51Z</time>
      </trkpt>
      <trkpt lat="42.74718" lon="0.6446">
        <ele>1595.45</ele>
        <time>2012-03-09T10:10:42Z</time>
      </trkpt>
      <trkpt lat="42.74724" lon="0.64461">
        <ele>1594.96</ele>
        <time>2012-03-09T10:10:53Z</time>
      </trkpt>
      <trkpt lat="42.74724" lon="0.64463">
        <ele>1594</ele>
        <time>2012-03-09T10:11:16Z</time>
      </trkpt>
      <trkpt lat="42.74724" lon="0.64465">
        <ele>1594</ele>
        <time>2012-03-09T10:11:27Z</time>
      </trkpt>
      <trkpt lat="42.74723" lon="0.64466">
        <ele>1594</ele>
        <time>2012-03-09T10:11:53Z</time>
      </trkpt>
      <trkpt lat="42.74723" lon="0.6447">
        <ele>1593.52</ele>
        <time>2012-03-09T10:12:03Z</time>
      </trkpt>
      <trkpt lat="42.74721" lon="0.64476">
        <ele>1593.04</ele>
        <time>2012-03-09T10:12:15Z</time>
      </trkpt>
      <trkpt lat="42.74721" lon="0.6448">
        <ele>1593.04</ele>
        <time>2012-03-09T10:12:17Z</time>
      </trkpt>
      <trkpt lat="42.7472" lon="0.64515">
        <ele>1591.6</ele>
        <time>2012-03-09T10:12:33Z</time>
      </trkpt>
      <trkpt lat="42.74721" lon="0.6452">
        <ele>1591.6</ele>
        <time>2012-03-09T10:12:48Z</time>
      </trkpt>
      <trkpt lat="42.74721" lon="0.64521">
        <ele>1591.6</ele>
        <time>2012-03-09T10:13:48Z</time>
      </trkpt>
      <trkpt lat="42.7472" lon="0.64522">
        <ele>1591.6</ele>
        <time>2012-03-09T10:15:03Z</time>
      </trkpt>
      <trkpt lat="42.7472" lon="0.64522">
        <ele>1591.12</ele>
        <time>2012-03-09T10:15:53Z</time>
      </trkpt>
      <trkpt lat="42.74721" lon="0.64522">
        <ele>1591.12</ele>
        <time>2012-03-09T10:17:36Z</time>
      </trkpt>
      <trkpt lat="42.7472" lon="0.64521">
        <ele>1591.6</ele>
        <time>2012-03-09T10:20:30Z</time>
      </trkpt>
      <trkpt lat="42.7472" lon="0.64522">
        <ele>1591.12</ele>
        <time>2012-03-09T10:21:07Z</time>
      </trkpt>
      <trkpt lat="42.7472" lon="0.64522">
        <ele>1591.12</ele>
        <time>2012-03-09T10:22:54Z</time>
      </trkpt>
      <trkpt lat="42.74721" lon="0.64522">
        <ele>1590.64</ele>
        <time>2012-03-09T10:27:30Z</time>
      </trkpt>
      <trkpt lat="42.74721" lon="0.64523">
        <ele>1590.16</ele>
        <time>2012-03-09T10:28:12Z</time>
      </trkpt>
      <trkpt lat="42.74725" lon="0.64514">
        <ele>1587.75</ele>
        <time>2012-03-09T10:30:36Z</time>
      </trkpt>
      <trkpt lat="42.7473" lon="0.64523">
        <ele>1588.24</ele>
        <time>2012-03-09T10:30:46Z</time>
      </trkpt>
      <trkpt lat="42.74737" lon="0.64532">
        <ele>1590.64</ele>
        <time>2012-03-09T10:31:01Z</time>
      </trkpt>
      <trkpt lat="42.7474" lon="0.64532">
        <ele>1593.04</ele>
        <time>2012-03-09T10:31:14Z</time>
      </trkpt>
      <trkpt lat="42.7474" lon="0.64526">
        <ele>1594.96</ele>
        <time>2012-03-09T10:31:25Z</time>
      </trkpt>
      <trkpt lat="42.74743" lon="0.64523">
        <ele>1597.85</ele>
        <time>2012-03-09T10:31:42Z</time>
      </trkpt>
      <trkpt lat="42.74745" lon="0.6452">
        <ele>1597.85</ele>
        <time>2012-03-09T10:32:01Z</time>
      </trkpt>
      <trkpt lat="42.74746" lon="0.64518">
        <ele>1597.85</ele>
        <time>2012-03-09T10:32:10Z</time>
      </trkpt>
      <trkpt lat="42.74746" lon="0.64518">
        <ele>1597.85</ele>
        <time>2012-03-09T10:32:14Z</time>
      </trkpt>
      <trkpt lat="42.74748" lon="0.64513">
        <ele>1598.81</ele>
        <time>2012-03-09T10:32:34Z</time>
      </trkpt>
      <trkpt lat="42.74749" lon="0.64514">
        <ele>1598.81</ele>
        <time>2012-03-09T10:32:58Z</time>
      </trkpt>
      <trkpt lat="42.74749" lon="0.64514">
        <ele>1599.29</ele>
        <time>2012-03-09T10:34:04Z</time>
      </trkpt>
      <trkpt lat="42.74758" lon="0.6452">
        <ele>1600.73</ele>
        <time>2012-03-09T10:34:17Z</time>
      </trkpt>
      <trkpt lat="42.74765" lon="0.6453">
        <ele>1606.02</ele>
        <time>2012-03-09T10:34:31Z</time>
      </trkpt>
      <trkpt lat="42.7477" lon="0.64533">
        <ele>1609.38</ele>
        <time>2012-03-09T10:34:43Z</time>
      </trkpt>
      <trkpt lat="42.74771" lon="0.64526">
        <ele>1612.27</ele>
        <time>2012-03-09T10:34:55Z</time>
      </trkpt>
      <trkpt lat="42.74772" lon="0.64524">
        <ele>1612.75</ele>
        <time>2012-03-09T10:35:05Z</time>
      </trkpt>
      <trkpt lat="42.74772" lon="0.64524">
        <ele>1612.75</ele>
        <time>2012-03-09T10:35:09Z</time>
      </trkpt>
      <trkpt lat="42.74773" lon="0.6452">
        <ele>1613.23</ele>
        <time>2012-03-09T10:35:13Z</time>
      </trkpt>
      <trkpt lat="42.74781" lon="0.64521">
        <ele>1617.56</ele>
        <time>2012-03-09T10:35:28Z</time>
      </trkpt>
      <trkpt lat="42.74788" lon="0.64524">
        <ele>1619.48</ele>
        <time>2012-03-09T10:35:40Z</time>
      </trkpt>
      <trkpt lat="42.74788" lon="0.64523">
        <ele>1619.48</ele>
        <time>2012-03-09T10:35:43Z</time>
      </trkpt>
      <trkpt lat="42.74787" lon="0.6451">
        <ele>1620.44</ele>
        <time>2012-03-09T10:35:56Z</time>
      </trkpt>
      <trkpt lat="42.74787" lon="0.64508">
        <ele>1620.44</ele>
        <time>2012-03-09T10:36:00Z</time>
      </trkpt>
      <trkpt lat="42.74797" lon="0.64518">
        <ele>1623.8</ele>
        <time>2012-03-09T10:36:15Z</time>
      </trkpt>
      <trkpt lat="42.74802" lon="0.6452">
        <ele>1625.25</ele>
        <time>2012-03-09T10:36:28Z</time>
      </trkpt>
      <trkpt lat="42.74801" lon="0.6451">
        <ele>1627.17</ele>
        <time>2012-03-09T10:36:41Z</time>
      </trkpt>
      <trkpt lat="42.74802" lon="0.64498">
        <ele>1628.13</ele>
        <time>2012-03-09T10:36:54Z</time>
      </trkpt>
      <trkpt lat="42.74801" lon="0.64493">
        <ele>1629.09</ele>
        <time>2012-03-09T10:37:11Z</time>
      </trkpt>
      <trkpt lat="42.74801" lon="0.64493">
        <ele>1629.09</ele>
        <time>2012-03-09T10:37:57Z</time>
      </trkpt>
      <trkpt lat="42.74803" lon="0.64496">
        <ele>1629.57</ele>
        <time>2012-03-09T10:38:00Z</time>
      </trkpt>
      <trkpt lat="42.74812" lon="0.64505">
        <ele>1630.53</ele>
        <time>2012-03-09T10:38:16Z</time>
      </trkpt>
      <trkpt lat="42.74819" lon="0.64513">
        <ele>1633.42</ele>
        <time>2012-03-09T10:38:29Z</time>
      </trkpt>
      <trkpt lat="42.74825" lon="0.64518">
        <ele>1634.86</ele>
        <time>2012-03-09T10:38:40Z</time>
      </trkpt>
      <trkpt lat="42.74825" lon="0.6451">
        <ele>1635.34</ele>
        <time>2012-03-09T10:38:53Z</time>
      </trkpt>
      <trkpt lat="42.74828" lon="0.64505">
        <ele>1636.78</ele>
        <time>2012-03-09T10:39:06Z</time>
      </trkpt>
      <trkpt lat="42.74832" lon="0.6451">
        <ele>1638.7</ele>
        <time>2012-03-09T10:39:23Z</time>
      </trkpt>
      <trkpt lat="42.74838" lon="0.64517">
        <ele>1641.59</ele>
        <time>2012-03-09T10:39:36Z</time>
      </trkpt>
      <trkpt lat="42.74842" lon="0.64523">
        <ele>1643.03</ele>
        <time>2012-03-09T10:40:31Z</time>
      </trkpt>
      <trkpt lat="42.74847" lon="0.64527">
        <ele>1643.99</ele>
        <time>2012-03-09T10:40:36Z</time>
      </trkpt>
      <trkpt lat="42.7486" lon="0.64533">
        <ele>1644.95</ele>
        <time>2012-03-09T10:40:49Z</time>
      </trkpt>
      <trkpt lat="42.74868" lon="0.64535">
        <ele>1645.91</ele>
        <time>2012-03-09T10:40:59Z</time>
      </trkpt>
      <trkpt lat="42.74872" lon="0.6454">
        <ele>1647.84</ele>
        <time>2012-03-09T10:41:11Z</time>
      </trkpt>
      <trkpt lat="42.74873" lon="0.6455">
        <ele>1646.88</ele>
        <time>2012-03-09T10:41:25Z</time>
      </trkpt>
      <trkpt lat="42.7488" lon="0.64554">
        <ele>1647.36</ele>
        <time>2012-03-09T10:41:34Z</time>
      </trkpt>
      <trkpt lat="42.74883" lon="0.64554">
        <ele>1648.32</ele>
        <time>2012-03-09T10:41:38Z</time>
      </trkpt>
      <trkpt lat="42.74895" lon="0.64553">
        <ele>1650.24</ele>
        <time>2012-03-09T10:41:53Z</time>
      </trkpt>
      <trkpt lat="42.74903" lon="0.64546">
        <ele>1653.6</ele>
        <time>2012-03-09T10:42:07Z</time>
      </trkpt>
      <trkpt lat="42.74907" lon="0.64558">
        <ele>1655.53</ele>
        <time>2012-03-09T10:42:21Z</time>
      </trkpt>
      <trkpt lat="42.74909" lon="0.64563">
        <ele>1655.53</ele>
        <time>2012-03-09T10:42:28Z</time>
      </trkpt>
      <trkpt lat="42.74909" lon="0.64571">
        <ele>1655.53</ele>
        <time>2012-03-09T10:42:32Z</time>
      </trkpt>
      <trkpt lat="42.74915" lon="0.64588">
        <ele>1654.57</ele>
        <time>2012-03-09T10:42:44Z</time>
      </trkpt>
      <trkpt lat="42.74916" lon="0.64595">
        <ele>1654.09</ele>
        <time>2012-03-09T10:42:59Z</time>
      </trkpt>
      <trkpt lat="42.74922" lon="0.64605">
        <ele>1654.57</ele>
        <time>2012-03-09T10:43:13Z</time>
      </trkpt>
      <trkpt lat="42.74925" lon="0.64611">
        <ele>1656.49</ele>
        <time>2012-03-09T10:43:25Z</time>
      </trkpt>
      <trkpt lat="42.74929" lon="0.64618">
        <ele>1658.41</ele>
        <time>2012-03-09T10:43:36Z</time>
      </trkpt>
      <trkpt lat="42.74934" lon="0.64624">
        <ele>1660.33</ele>
        <time>2012-03-09T10:43:48Z</time>
      </trkpt>
      <trkpt lat="42.7494" lon="0.64624">
        <ele>1663.22</ele>
        <time>2012-03-09T10:44:00Z</time>
      </trkpt>
      <trkpt lat="42.74943" lon="0.64629">
        <ele>1663.22</ele>
        <time>2012-03-09T10:44:05Z</time>
      </trkpt>
      <trkpt lat="42.74945" lon="0.64641">
        <ele>1664.18</ele>
        <time>2012-03-09T10:44:20Z</time>
      </trkpt>
      <trkpt lat="42.74949" lon="0.64651">
        <ele>1666.58</ele>
        <time>2012-03-09T10:44:33Z</time>
      </trkpt>
      <trkpt lat="42.74953" lon="0.64662">
        <ele>1666.58</ele>
        <time>2012-03-09T10:44:46Z</time>
      </trkpt>
      <trkpt lat="42.74955" lon="0.6467">
        <ele>1669.95</ele>
        <time>2012-03-09T10:44:58Z</time>
      </trkpt>
      <trkpt lat="42.74953" lon="0.64683">
        <ele>1673.79</ele>
        <time>2012-03-09T10:45:11Z</time>
      </trkpt>
      <trkpt lat="42.74953" lon="0.64689">
        <ele>1677.16</ele>
        <time>2012-03-09T10:45:25Z</time>
      </trkpt>
      <trkpt lat="42.74961" lon="0.64689">
        <ele>1678.6</ele>
        <time>2012-03-09T10:45:38Z</time>
      </trkpt>
      <trkpt lat="42.74961" lon="0.64691">
        <ele>1679.08</ele>
        <time>2012-03-09T10:45:55Z</time>
      </trkpt>
      <trkpt lat="42.74954" lon="0.64703">
        <ele>1682.93</ele>
        <time>2012-03-09T10:46:07Z</time>
      </trkpt>
      <trkpt lat="42.74955" lon="0.64705">
        <ele>1683.41</ele>
        <time>2012-03-09T10:46:20Z</time>
      </trkpt>
      <trkpt lat="42.74961" lon="0.64705">
        <ele>1682.93</ele>
        <time>2012-03-09T10:46:27Z</time>
      </trkpt>
      <trkpt lat="42.74968" lon="0.64704">
        <ele>1683.41</ele>
        <time>2012-03-09T10:46:37Z</time>
      </trkpt>
      <trkpt lat="42.74968" lon="0.6471">
        <ele>1688.21</ele>
        <time>2012-03-09T10:46:50Z</time>
      </trkpt>
      <trkpt lat="42.74964" lon="0.6472">
        <ele>1693.98</ele>
        <time>2012-03-09T10:47:03Z</time>
      </trkpt>
      <trkpt lat="42.74958" lon="0.64727">
        <ele>1698.31</ele>
        <time>2012-03-09T10:47:16Z</time>
      </trkpt>
      <trkpt lat="42.7495" lon="0.64735">
        <ele>1700.71</ele>
        <time>2012-03-09T10:47:30Z</time>
      </trkpt>
      <trkpt lat="42.74946" lon="0.64743">
        <ele>1700.71</ele>
        <time>2012-03-09T10:47:39Z</time>
      </trkpt>
      <trkpt lat="42.74942" lon="0.64758">
        <ele>1701.19</ele>
        <time>2012-03-09T10:47:54Z</time>
      </trkpt>
      <trkpt lat="42.74941" lon="0.64766">
        <ele>1701.19</ele>
        <time>2012-03-09T10:48:06Z</time>
      </trkpt>
      <trkpt lat="42.74937" lon="0.64778">
        <ele>1701.19</ele>
        <time>2012-03-09T10:49:14Z</time>
      </trkpt>
      <trkpt lat="42.74934" lon="0.64789">
        <ele>1702.15</ele>
        <time>2012-03-09T10:49:27Z</time>
      </trkpt>
      <trkpt lat="42.74931" lon="0.64801">
        <ele>1703.11</ele>
        <time>2012-03-09T10:49:39Z</time>
      </trkpt>
      <trkpt lat="42.74929" lon="0.64803">
        <ele>1703.59</ele>
        <time>2012-03-09T10:49:42Z</time>
      </trkpt>
      <trkpt lat="42.74925" lon="0.64815">
        <ele>1706</ele>
        <time>2012-03-09T10:49:54Z</time>
      </trkpt>
      <trkpt lat="42.74921" lon="0.64829">
        <ele>1708.4</ele>
        <time>2012-03-09T10:50:07Z</time>
      </trkpt>
      <trkpt lat="42.7492" lon="0.64836">
        <ele>1709.84</ele>
        <time>2012-03-09T10:50:25Z</time>
      </trkpt>
      <trkpt lat="42.74918" lon="0.64851">
        <ele>1710.8</ele>
        <time>2012-03-09T10:50:38Z</time>
      </trkpt>
      <trkpt lat="42.74919" lon="0.64864">
        <ele>1710.32</ele>
        <time>2012-03-09T10:50:51Z</time>
      </trkpt>
      <trkpt lat="42.74917" lon="0.64873">
        <ele>1711.28</ele>
        <time>2012-03-09T10:50:59Z</time>
      </trkpt>
      <trkpt lat="42.74915" lon="0.64885">
        <ele>1714.65</ele>
        <time>2012-03-09T10:51:12Z</time>
      </trkpt>
      <trkpt lat="42.74914" lon="0.64899">
        <ele>1718.49</ele>
        <time>2012-03-09T10:51:26Z</time>
      </trkpt>
      <trkpt lat="42.74912" lon="0.64912">
        <ele>1721.86</ele>
        <time>2012-03-09T10:51:39Z</time>
      </trkpt>
      <trkpt lat="42.74911" lon="0.64918">
        <ele>1723.3</ele>
        <time>2012-03-09T10:51:48Z</time>
      </trkpt>
      <trkpt lat="42.74905" lon="0.64931">
        <ele>1726.18</ele>
        <time>2012-03-09T10:52:01Z</time>
      </trkpt>
      <trkpt lat="42.74902" lon="0.64944">
        <ele>1727.63</ele>
        <time>2012-03-09T10:52:14Z</time>
      </trkpt>
      <trkpt lat="42.74902" lon="0.64952">
        <ele>1727.63</ele>
        <time>2012-03-09T10:52:27Z</time>
      </trkpt>
      <trkpt lat="42.74901" lon="0.64961">
        <ele>1726.18</ele>
        <time>2012-03-09T10:55:19Z</time>
      </trkpt>
      <trkpt lat="42.749" lon="0.64979">
        <ele>1726.67</ele>
        <time>2012-03-09T10:55:34Z</time>
      </trkpt>
      <trkpt lat="42.74898" lon="0.6499">
        <ele>1728.59</ele>
        <time>2012-03-09T10:55:46Z</time>
      </trkpt>
      <trkpt lat="42.74894" lon="0.65001">
        <ele>1730.03</ele>
        <time>2012-03-09T10:55:59Z</time>
      </trkpt>
      <trkpt lat="42.74893" lon="0.65003">
        <ele>1730.03</ele>
        <time>2012-03-09T10:56:01Z</time>
      </trkpt>
      <trkpt lat="42.74887" lon="0.65015">
        <ele>1731.47</ele>
        <time>2012-03-09T10:56:14Z</time>
      </trkpt>
      <trkpt lat="42.74881" lon="0.65026">
        <ele>1734.36</ele>
        <time>2012-03-09T10:56:26Z</time>
      </trkpt>
      <trkpt lat="42.74875" lon="0.65038">
        <ele>1738.2</ele>
        <time>2012-03-09T10:56:39Z</time>
      </trkpt>
      <trkpt lat="42.7487" lon="0.65049">
        <ele>1739.64</ele>
        <time>2012-03-09T10:56:53Z</time>
      </trkpt>
      <trkpt lat="42.74872" lon="0.65054">
        <ele>1741.08</ele>
        <time>2012-03-09T10:57:04Z</time>
      </trkpt>
      <trkpt lat="42.74879" lon="0.6506">
        <ele>1743.01</ele>
        <time>2012-03-09T10:57:18Z</time>
      </trkpt>
      <trkpt lat="42.74884" lon="0.65068">
        <ele>1747.81</ele>
        <time>2012-03-09T10:57:31Z</time>
      </trkpt>
      <trkpt lat="42.74889" lon="0.65073">
        <ele>1750.7</ele>
        <time>2012-03-09T10:57:44Z</time>
      </trkpt>
      <trkpt lat="42.74888" lon="0.65086">
        <ele>1754.54</ele>
        <time>2012-03-09T10:57:57Z</time>
      </trkpt>
      <trkpt lat="42.74886" lon="0.65097">
        <ele>1755.99</ele>
        <time>2012-03-09T10:58:10Z</time>
      </trkpt>
      <trkpt lat="42.74882" lon="0.65105">
        <ele>1756.47</ele>
        <time>2012-03-09T10:58:22Z</time>
      </trkpt>
      <trkpt lat="42.74878" lon="0.65113">
        <ele>1757.43</ele>
        <time>2012-03-09T10:58:31Z</time>
      </trkpt>
      <trkpt lat="42.74873" lon="0.65123">
        <ele>1757.91</ele>
        <time>2012-03-09T10:58:43Z</time>
      </trkpt>
      <trkpt lat="42.74868" lon="0.65133">
        <ele>1759.35</ele>
        <time>2012-03-09T10:58:55Z</time>
      </trkpt>
      <trkpt lat="42.74863" lon="0.65141">
        <ele>1760.79</ele>
        <time>2012-03-09T10:59:07Z</time>
      </trkpt>
      <trkpt lat="42.74859" lon="0.65152">
        <ele>1762.23</ele>
        <time>2012-03-09T10:59:19Z</time>
      </trkpt>
      <trkpt lat="42.74857" lon="0.65156">
        <ele>1763.2</ele>
        <time>2012-03-09T10:59:31Z</time>
      </trkpt>
      <trkpt lat="42.74857" lon="0.65156">
        <ele>1763.2</ele>
        <time>2012-03-09T10:59:37Z</time>
      </trkpt>
      <trkpt lat="42.74866" lon="0.65162">
        <ele>1766.56</ele>
        <time>2012-03-09T10:59:51Z</time>
      </trkpt>
      <trkpt lat="42.74881" lon="0.65168">
        <ele>1768.96</ele>
        <time>2012-03-09T11:00:08Z</time>
      </trkpt>
      <trkpt lat="42.74885" lon="0.65171">
        <ele>1770.89</ele>
        <time>2012-03-09T11:00:22Z</time>
      </trkpt>
      <trkpt lat="42.74884" lon="0.65178">
        <ele>1770.41</ele>
        <time>2012-03-09T11:00:27Z</time>
      </trkpt>
      <trkpt lat="42.74879" lon="0.65191">
        <ele>1771.37</ele>
        <time>2012-03-09T11:00:39Z</time>
      </trkpt>
      <trkpt lat="42.74878" lon="0.65196">
        <ele>1771.85</ele>
        <time>2012-03-09T11:00:43Z</time>
      </trkpt>
      <trkpt lat="42.74876" lon="0.652">
        <ele>1772.33</ele>
        <time>2012-03-09T11:00:48Z</time>
      </trkpt>
      <trkpt lat="42.74872" lon="0.65214">
        <ele>1773.29</ele>
        <time>2012-03-09T11:01:00Z</time>
      </trkpt>
      <trkpt lat="42.7487" lon="0.65227">
        <ele>1774.73</ele>
        <time>2012-03-09T11:01:13Z</time>
      </trkpt>
      <trkpt lat="42.74869" lon="0.65238">
        <ele>1777.61</ele>
        <time>2012-03-09T11:01:23Z</time>
      </trkpt>
      <trkpt lat="42.74867" lon="0.65254">
        <ele>1778.58</ele>
        <time>2012-03-09T11:01:37Z</time>
      </trkpt>
      <trkpt lat="42.74866" lon="0.65266">
        <ele>1778.58</ele>
        <time>2012-03-09T11:01:48Z</time>
      </trkpt>
      <trkpt lat="42.74864" lon="0.65271">
        <ele>1779.06</ele>
        <time>2012-03-09T11:01:52Z</time>
      </trkpt>
      <trkpt lat="42.74862" lon="0.65286">
        <ele>1780.98</ele>
        <time>2012-03-09T11:02:05Z</time>
      </trkpt>
      <trkpt lat="42.74859" lon="0.65298">
        <ele>1785.31</ele>
        <time>2012-03-09T11:02:17Z</time>
      </trkpt>
      <trkpt lat="42.74855" lon="0.65308">
        <ele>1788.67</ele>
        <time>2012-03-09T11:02:28Z</time>
      </trkpt>
      <trkpt lat="42.74854" lon="0.65313">
        <ele>1790.59</ele>
        <time>2012-03-09T11:02:42Z</time>
      </trkpt>
      <trkpt lat="42.7486" lon="0.65317">
        <ele>1791.55</ele>
        <time>2012-03-09T11:04:41Z</time>
      </trkpt>
      <trkpt lat="42.74867" lon="0.65325">
        <ele>1793.96</ele>
        <time>2012-03-09T11:04:53Z</time>
      </trkpt>
      <trkpt lat="42.7487" lon="0.65329">
        <ele>1795.4</ele>
        <time>2012-03-09T11:04:57Z</time>
      </trkpt>
      <trkpt lat="42.74872" lon="0.65339">
        <ele>1798.76</ele>
        <time>2012-03-09T11:05:14Z</time>
      </trkpt>
      <trkpt lat="42.74871" lon="0.65348">
        <ele>1799.73</ele>
        <time>2012-03-09T11:05:21Z</time>
      </trkpt>
      <trkpt lat="42.74869" lon="0.65366">
        <ele>1803.09</ele>
        <time>2012-03-09T11:05:35Z</time>
      </trkpt>
      <trkpt lat="42.74866" lon="0.65376">
        <ele>1805.01</ele>
        <time>2012-03-09T11:05:48Z</time>
      </trkpt>
      <trkpt lat="42.7486" lon="0.65388">
        <ele>1808.38</ele>
        <time>2012-03-09T11:06:01Z</time>
      </trkpt>
      <trkpt lat="42.74855" lon="0.65399">
        <ele>1811.26</ele>
        <time>2012-03-09T11:06:14Z</time>
      </trkpt>
      <trkpt lat="42.74849" lon="0.6541">
        <ele>1813.18</ele>
        <time>2012-03-09T11:06:27Z</time>
      </trkpt>
      <trkpt lat="42.74846" lon="0.65419">
        <ele>1814.63</ele>
        <time>2012-03-09T11:06:38Z</time>
      </trkpt>
      <trkpt lat="42.74846" lon="0.65432">
        <ele>1816.55</ele>
        <time>2012-03-09T11:06:50Z</time>
      </trkpt>
      <trkpt lat="42.7485" lon="0.65443">
        <ele>1818.47</ele>
        <time>2012-03-09T11:07:02Z</time>
      </trkpt>
      <trkpt lat="42.74853" lon="0.65449">
        <ele>1819.43</ele>
        <time>2012-03-09T11:07:10Z</time>
      </trkpt>
      <trkpt lat="42.74857" lon="0.6546">
        <ele>1822.32</ele>
        <time>2012-03-09T11:07:23Z</time>
      </trkpt>
      <trkpt lat="42.74856" lon="0.6547">
        <ele>1824.24</ele>
        <time>2012-03-09T11:07:33Z</time>
      </trkpt>
      <trkpt lat="42.74853" lon="0.65484">
        <ele>1825.68</ele>
        <time>2012-03-09T11:07:45Z</time>
      </trkpt>
      <trkpt lat="42.74849" lon="0.65494">
        <ele>1827.12</ele>
        <time>2012-03-09T11:07:57Z</time>
      </trkpt>
      <trkpt lat="42.74847" lon="0.65506">
        <ele>1828.08</ele>
        <time>2012-03-09T11:08:08Z</time>
      </trkpt>
      <trkpt lat="42.74844" lon="0.65522">
        <ele>1830.49</ele>
        <time>2012-03-09T11:08:21Z</time>
      </trkpt>
      <trkpt lat="42.74844" lon="0.65523">
        <ele>1830.49</ele>
        <time>2012-03-09T11:08:22Z</time>
      </trkpt>
      <trkpt lat="42.74844" lon="0.65537">
        <ele>1833.37</ele>
        <time>2012-03-09T11:08:36Z</time>
      </trkpt>
      <trkpt lat="42.74843" lon="0.65553">
        <ele>1834.81</ele>
        <time>2012-03-09T11:08:48Z</time>
      </trkpt>
      <trkpt lat="42.74843" lon="0.65555">
        <ele>1834.81</ele>
        <time>2012-03-09T11:08:51Z</time>
      </trkpt>
      <trkpt lat="42.74841" lon="0.65568">
        <ele>1838.18</ele>
        <time>2012-03-09T11:09:04Z</time>
      </trkpt>
      <trkpt lat="42.74839" lon="0.65581">
        <ele>1840.58</ele>
        <time>2012-03-09T11:09:16Z</time>
      </trkpt>
      <trkpt lat="42.74837" lon="0.65593">
        <ele>1841.06</ele>
        <time>2012-03-09T11:09:28Z</time>
      </trkpt>
      <trkpt lat="42.74829" lon="0.65605">
        <ele>1841.06</ele>
        <time>2012-03-09T11:09:43Z</time>
      </trkpt>
      <trkpt lat="42.74825" lon="0.65615">
        <ele>1842.98</ele>
        <time>2012-03-09T11:09:55Z</time>
      </trkpt>
      <trkpt lat="42.74822" lon="0.65625">
        <ele>1845.39</ele>
        <time>2012-03-09T11:10:06Z</time>
      </trkpt>
      <trkpt lat="42.74814" lon="0.65629">
        <ele>1850.68</ele>
        <time>2012-03-09T11:10:18Z</time>
      </trkpt>
      <trkpt lat="42.74809" lon="0.65646">
        <ele>1854.52</ele>
        <time>2012-03-09T11:10:31Z</time>
      </trkpt>
      <trkpt lat="42.74805" lon="0.65658">
        <ele>1856.92</ele>
        <time>2012-03-09T11:10:44Z</time>
      </trkpt>
      <trkpt lat="42.748" lon="0.65668">
        <ele>1859.81</ele>
        <time>2012-03-09T11:10:57Z</time>
      </trkpt>
      <trkpt lat="42.74797" lon="0.65677">
        <ele>1859.33</ele>
        <time>2012-03-09T11:11:08Z</time>
      </trkpt>
      <trkpt lat="42.74796" lon="0.65684">
        <ele>1860.77</ele>
        <time>2012-03-09T11:11:21Z</time>
      </trkpt>
      <trkpt lat="42.74795" lon="0.65684">
        <ele>1861.25</ele>
        <time>2012-03-09T11:13:02Z</time>
      </trkpt>
      <trkpt lat="42.74793" lon="0.65686">
        <ele>1859.81</ele>
        <time>2012-03-09T11:13:55Z</time>
      </trkpt>
      <trkpt lat="42.74794" lon="0.65687">
        <ele>1859.33</ele>
        <time>2012-03-09T11:16:34Z</time>
      </trkpt>
      <trkpt lat="42.74801" lon="0.65691">
        <ele>1859.81</ele>
        <time>2012-03-09T11:17:09Z</time>
      </trkpt>
      <trkpt lat="42.74803" lon="0.65692">
        <ele>1860.29</ele>
        <time>2012-03-09T11:17:25Z</time>
      </trkpt>
      <trkpt lat="42.74807" lon="0.65694">
        <ele>1860.77</ele>
        <time>2012-03-09T11:17:45Z</time>
      </trkpt>
      <trkpt lat="42.74807" lon="0.65694">
        <ele>1860.77</ele>
        <time>2012-03-09T11:18:13Z</time>
      </trkpt>
      <trkpt lat="42.74813" lon="0.65696">
        <ele>1861.25</ele>
        <time>2012-03-09T11:18:18Z</time>
      </trkpt>
      <trkpt lat="42.74823" lon="0.657">
        <ele>1863.17</ele>
        <time>2012-03-09T11:18:30Z</time>
      </trkpt>
      <trkpt lat="42.74815" lon="0.65707">
        <ele>1863.17</ele>
        <time>2012-03-09T11:18:42Z</time>
      </trkpt>
      <trkpt lat="42.74809" lon="0.6572">
        <ele>1865.09</ele>
        <time>2012-03-09T11:18:54Z</time>
      </trkpt>
      <trkpt lat="42.74806" lon="0.65726">
        <ele>1867.02</ele>
        <time>2012-03-09T11:19:01Z</time>
      </trkpt>
      <trkpt lat="42.74813" lon="0.65731">
        <ele>1869.42</ele>
        <time>2012-03-09T11:19:14Z</time>
      </trkpt>
      <trkpt lat="42.74822" lon="0.65734">
        <ele>1869.9</ele>
        <time>2012-03-09T11:19:26Z</time>
      </trkpt>
      <trkpt lat="42.74825" lon="0.65736">
        <ele>1871.34</ele>
        <time>2012-03-09T11:19:31Z</time>
      </trkpt>
      <trkpt lat="42.74833" lon="0.6574">
        <ele>1873.75</ele>
        <time>2012-03-09T11:19:45Z</time>
      </trkpt>
      <trkpt lat="42.74831" lon="0.65746">
        <ele>1875.19</ele>
        <time>2012-03-09T11:19:52Z</time>
      </trkpt>
      <trkpt lat="42.74828" lon="0.65758">
        <ele>1876.63</ele>
        <time>2012-03-09T11:20:04Z</time>
      </trkpt>
      <trkpt lat="42.74824" lon="0.65766">
        <ele>1878.07</ele>
        <time>2012-03-09T11:20:16Z</time>
      </trkpt>
      <trkpt lat="42.74824" lon="0.65771">
        <ele>1879.51</ele>
        <time>2012-03-09T11:20:29Z</time>
      </trkpt>
      <trkpt lat="42.74826" lon="0.65772">
        <ele>1880</ele>
        <time>2012-03-09T11:20:31Z</time>
      </trkpt>
      <trkpt lat="42.74839" lon="0.65774">
        <ele>1884.32</ele>
        <time>2012-03-09T11:20:45Z</time>
      </trkpt>
      <trkpt lat="42.74846" lon="0.65773">
        <ele>1887.21</ele>
        <time>2012-03-09T11:20:58Z</time>
      </trkpt>
      <trkpt lat="42.74846" lon="0.65775">
        <ele>1890.57</ele>
        <time>2012-03-09T11:21:08Z</time>
      </trkpt>
      <trkpt lat="42.74842" lon="0.65791">
        <ele>1893.45</ele>
        <time>2012-03-09T11:21:19Z</time>
      </trkpt>
      <trkpt lat="42.74839" lon="0.65805">
        <ele>1896.34</ele>
        <time>2012-03-09T11:21:31Z</time>
      </trkpt>
      <trkpt lat="42.74836" lon="0.65815">
        <ele>1897.78</ele>
        <time>2012-03-09T11:21:43Z</time>
      </trkpt>
      <trkpt lat="42.74842" lon="0.65818">
        <ele>1899.22</ele>
        <time>2012-03-09T11:21:54Z</time>
      </trkpt>
      <trkpt lat="42.7485" lon="0.6582">
        <ele>1900.18</ele>
        <time>2012-03-09T11:22:05Z</time>
      </trkpt>
      <trkpt lat="42.74859" lon="0.65823">
        <ele>1902.11</ele>
        <time>2012-03-09T11:22:17Z</time>
      </trkpt>
      <trkpt lat="42.7486" lon="0.65826">
        <ele>1902.59</ele>
        <time>2012-03-09T11:22:32Z</time>
      </trkpt>
      <trkpt lat="42.74853" lon="0.65838">
        <ele>1903.55</ele>
        <time>2012-03-09T11:23:08Z</time>
      </trkpt>
      <trkpt lat="42.7485" lon="0.65851">
        <ele>1903.55</ele>
        <time>2012-03-09T11:23:20Z</time>
      </trkpt>
      <trkpt lat="42.74846" lon="0.65867">
        <ele>1903.55</ele>
        <time>2012-03-09T11:23:34Z</time>
      </trkpt>
      <trkpt lat="42.7484" lon="0.65877">
        <ele>1905.95</ele>
        <time>2012-03-09T11:23:46Z</time>
      </trkpt>
      <trkpt lat="42.74837" lon="0.65884">
        <ele>1908.35</ele>
        <time>2012-03-09T11:23:55Z</time>
      </trkpt>
      <trkpt lat="42.74843" lon="0.65887">
        <ele>1911.24</ele>
        <time>2012-03-09T11:24:09Z</time>
      </trkpt>
      <trkpt lat="42.74844" lon="0.65887">
        <ele>1911.24</ele>
        <time>2012-03-09T11:24:11Z</time>
      </trkpt>
      <trkpt lat="42.74854" lon="0.6589">
        <ele>1914.6</ele>
        <time>2012-03-09T11:24:24Z</time>
      </trkpt>
      <trkpt lat="42.74864" lon="0.65892">
        <ele>1917.01</ele>
        <time>2012-03-09T11:24:37Z</time>
      </trkpt>
      <trkpt lat="42.74864" lon="0.65893">
        <ele>1917.97</ele>
        <time>2012-03-09T11:24:42Z</time>
      </trkpt>
      <trkpt lat="42.74856" lon="0.65904">
        <ele>1919.89</ele>
        <time>2012-03-09T11:24:54Z</time>
      </trkpt>
      <trkpt lat="42.74852" lon="0.65917">
        <ele>1920.37</ele>
        <time>2012-03-09T11:25:07Z</time>
      </trkpt>
      <trkpt lat="42.74846" lon="0.65925">
        <ele>1922.29</ele>
        <time>2012-03-09T11:25:18Z</time>
      </trkpt>
      <trkpt lat="42.74844" lon="0.65939">
        <ele>1925.18</ele>
        <time>2012-03-09T11:25:30Z</time>
      </trkpt>
      <trkpt lat="42.74849" lon="0.65938">
        <ele>1927.58</ele>
        <time>2012-03-09T11:25:36Z</time>
      </trkpt>
      <trkpt lat="42.74857" lon="0.65937">
        <ele>1929.98</ele>
        <time>2012-03-09T11:25:48Z</time>
      </trkpt>
      <trkpt lat="42.74865" lon="0.65938">
        <ele>1931.43</ele>
        <time>2012-03-09T11:26:00Z</time>
      </trkpt>
      <trkpt lat="42.74871" lon="0.65937">
        <ele>1934.79</ele>
        <time>2012-03-09T11:26:11Z</time>
      </trkpt>
      <trkpt lat="42.74871" lon="0.65938">
        <ele>1934.79</ele>
        <time>2012-03-09T11:26:15Z</time>
      </trkpt>
      <trkpt lat="42.74871" lon="0.65941">
        <ele>1934.79</ele>
        <time>2012-03-09T11:26:17Z</time>
      </trkpt>
      <trkpt lat="42.74867" lon="0.65955">
        <ele>1935.75</ele>
        <time>2012-03-09T11:26:30Z</time>
      </trkpt>
      <trkpt lat="42.74866" lon="0.65971">
        <ele>1937.19</ele>
        <time>2012-03-09T11:26:44Z</time>
      </trkpt>
      <trkpt lat="42.74866" lon="0.65979">
        <ele>1937.19</ele>
        <time>2012-03-09T11:26:56Z</time>
      </trkpt>
      <trkpt lat="42.74873" lon="0.65977">
        <ele>1938.64</ele>
        <time>2012-03-09T11:27:06Z</time>
      </trkpt>
      <trkpt lat="42.74878" lon="0.65974">
        <ele>1940.08</ele>
        <time>2012-03-09T11:27:17Z</time>
      </trkpt>
      <trkpt lat="42.74879" lon="0.65988">
        <ele>1942</ele>
        <time>2012-03-09T11:27:30Z</time>
      </trkpt>
      <trkpt lat="42.74877" lon="0.66003">
        <ele>1943.92</ele>
        <time>2012-03-09T11:27:44Z</time>
      </trkpt>
      <trkpt lat="42.74876" lon="0.66008">
        <ele>1943.92</ele>
        <time>2012-03-09T11:27:57Z</time>
      </trkpt>
      <trkpt lat="42.74873" lon="0.66019">
        <ele>1944.4</ele>
        <time>2012-03-09T11:28:12Z</time>
      </trkpt>
      <trkpt lat="42.74876" lon="0.66023">
        <ele>1945.36</ele>
        <time>2012-03-09T11:28:21Z</time>
      </trkpt>
      <trkpt lat="42.74883" lon="0.66025">
        <ele>1948.25</ele>
        <time>2012-03-09T11:28:34Z</time>
      </trkpt>
      <trkpt lat="42.74889" lon="0.66021">
        <ele>1951.61</ele>
        <time>2012-03-09T11:28:45Z</time>
      </trkpt>
      <trkpt lat="42.74896" lon="0.66016">
        <ele>1955.46</ele>
        <time>2012-03-09T11:28:57Z</time>
      </trkpt>
      <trkpt lat="42.74897" lon="0.66018">
        <ele>1955.94</ele>
        <time>2012-03-09T11:29:01Z</time>
      </trkpt>
      <trkpt lat="42.74896" lon="0.66023">
        <ele>1957.86</ele>
        <time>2012-03-09T11:29:17Z</time>
      </trkpt>
      <trkpt lat="42.74896" lon="0.66031">
        <ele>1957.86</ele>
        <time>2012-03-09T11:29:25Z</time>
      </trkpt>
      <trkpt lat="42.74896" lon="0.66044">
        <ele>1958.82</ele>
        <time>2012-03-09T11:29:38Z</time>
      </trkpt>
      <trkpt lat="42.74897" lon="0.66048">
        <ele>1959.78</ele>
        <time>2012-03-09T11:29:50Z</time>
      </trkpt>
      <trkpt lat="42.74903" lon="0.66045">
        <ele>1963.15</ele>
        <time>2012-03-09T11:30:02Z</time>
      </trkpt>
      <trkpt lat="42.7491" lon="0.66043">
        <ele>1966.51</ele>
        <time>2012-03-09T11:30:15Z</time>
      </trkpt>
      <trkpt lat="42.74909" lon="0.66046">
        <ele>1966.99</ele>
        <time>2012-03-09T11:30:19Z</time>
      </trkpt>
      <trkpt lat="42.74907" lon="0.66057">
        <ele>1968.92</ele>
        <time>2012-03-09T11:30:31Z</time>
      </trkpt>
      <trkpt lat="42.74911" lon="0.66056">
        <ele>1971.8</ele>
        <time>2012-03-09T11:30:45Z</time>
      </trkpt>
      <trkpt lat="42.74918" lon="0.66049">
        <ele>1974.2</ele>
        <time>2012-03-09T11:30:59Z</time>
      </trkpt>
      <trkpt lat="42.74918" lon="0.66049">
        <ele>1974.2</ele>
        <time>2012-03-09T11:31:00Z</time>
      </trkpt>
      <trkpt lat="42.74926" lon="0.66041">
        <ele>1976.61</ele>
        <time>2012-03-09T11:31:14Z</time>
      </trkpt>
      <trkpt lat="42.74926" lon="0.66053">
        <ele>1977.09</ele>
        <time>2012-03-09T11:31:25Z</time>
      </trkpt>
      <trkpt lat="42.74923" lon="0.66064">
        <ele>1979.01</ele>
        <time>2012-03-09T11:31:38Z</time>
      </trkpt>
      <trkpt lat="42.74923" lon="0.66071">
        <ele>1979.49</ele>
        <time>2012-03-09T11:31:46Z</time>
      </trkpt>
      <trkpt lat="42.74924" lon="0.6608">
        <ele>1980.45</ele>
        <time>2012-03-09T11:31:59Z</time>
      </trkpt>
      <trkpt lat="42.74931" lon="0.6607">
        <ele>1982.86</ele>
        <time>2012-03-09T11:32:12Z</time>
      </trkpt>
      <trkpt lat="42.74938" lon="0.66064">
        <ele>1987.66</ele>
        <time>2012-03-09T11:32:27Z</time>
      </trkpt>
      <trkpt lat="42.7494" lon="0.66069">
        <ele>1990.55</ele>
        <time>2012-03-09T11:32:40Z</time>
      </trkpt>
      <trkpt lat="42.74938" lon="0.66081">
        <ele>1991.51</ele>
        <time>2012-03-09T11:32:52Z</time>
      </trkpt>
      <trkpt lat="42.74938" lon="0.66092">
        <ele>1991.51</ele>
        <time>2012-03-09T11:33:04Z</time>
      </trkpt>
      <trkpt lat="42.74938" lon="0.66096">
        <ele>1993.91</ele>
        <time>2012-03-09T11:33:17Z</time>
      </trkpt>
      <trkpt lat="42.7494" lon="0.66093">
        <ele>1995.83</ele>
        <time>2012-03-09T11:33:22Z</time>
      </trkpt>
      <trkpt lat="42.74947" lon="0.66085">
        <ele>1999.68</ele>
        <time>2012-03-09T11:33:35Z</time>
      </trkpt>
      <trkpt lat="42.74953" lon="0.66081">
        <ele>2001.6</ele>
        <time>2012-03-09T11:33:47Z</time>
      </trkpt>
      <trkpt lat="42.74955" lon="0.66091">
        <ele>2003.04</ele>
        <time>2012-03-09T11:34:02Z</time>
      </trkpt>
      <trkpt lat="42.74955" lon="0.66094">
        <ele>2003.52</ele>
        <time>2012-03-09T11:34:05Z</time>
      </trkpt>
      <trkpt lat="42.74956" lon="0.66106">
        <ele>2004.49</ele>
        <time>2012-03-09T11:34:19Z</time>
      </trkpt>
      <trkpt lat="42.74954" lon="0.66118">
        <ele>2004.97</ele>
        <time>2012-03-09T11:34:31Z</time>
      </trkpt>
      <trkpt lat="42.74956" lon="0.6612">
        <ele>2006.89</ele>
        <time>2012-03-09T11:34:43Z</time>
      </trkpt>
      <trkpt lat="42.74966" lon="0.66113">
        <ele>2011.22</ele>
        <time>2012-03-09T11:34:59Z</time>
      </trkpt>
      <trkpt lat="42.74971" lon="0.66104">
        <ele>2013.62</ele>
        <time>2012-03-09T11:35:12Z</time>
      </trkpt>
      <trkpt lat="42.74971" lon="0.6611">
        <ele>2015.06</ele>
        <time>2012-03-09T11:35:24Z</time>
      </trkpt>
      <trkpt lat="42.74969" lon="0.66118">
        <ele>2015.54</ele>
        <time>2012-03-09T11:35:57Z</time>
      </trkpt>
      <trkpt lat="42.74968" lon="0.66121">
        <ele>2015.54</ele>
        <time>2012-03-09T11:35:59Z</time>
      </trkpt>
      <trkpt lat="42.74968" lon="0.66138">
        <ele>2016.02</ele>
        <time>2012-03-09T11:36:13Z</time>
      </trkpt>
      <trkpt lat="42.74966" lon="0.6615">
        <ele>2016.98</ele>
        <time>2012-03-09T11:36:26Z</time>
      </trkpt>
      <trkpt lat="42.74961" lon="0.66163">
        <ele>2018.43</ele>
        <time>2012-03-09T11:36:38Z</time>
      </trkpt>
      <trkpt lat="42.74958" lon="0.66174">
        <ele>2021.31</ele>
        <time>2012-03-09T11:36:51Z</time>
      </trkpt>
      <trkpt lat="42.74952" lon="0.66184">
        <ele>2024.19</ele>
        <time>2012-03-09T11:37:03Z</time>
      </trkpt>
      <trkpt lat="42.74947" lon="0.66195">
        <ele>2026.12</ele>
        <time>2012-03-09T11:37:15Z</time>
      </trkpt>
      <trkpt lat="42.74942" lon="0.66203">
        <ele>2028.52</ele>
        <time>2012-03-09T11:37:26Z</time>
      </trkpt>
      <trkpt lat="42.74936" lon="0.66212">
        <ele>2031.4</ele>
        <time>2012-03-09T11:37:37Z</time>
      </trkpt>
      <trkpt lat="42.74929" lon="0.66223">
        <ele>2033.81</ele>
        <time>2012-03-09T11:37:50Z</time>
      </trkpt>
      <trkpt lat="42.74924" lon="0.66231">
        <ele>2036.21</ele>
        <time>2012-03-09T11:38:02Z</time>
      </trkpt>
      <trkpt lat="42.7492" lon="0.66237">
        <ele>2036.69</ele>
        <time>2012-03-09T11:38:11Z</time>
      </trkpt>
      <trkpt lat="42.74914" lon="0.66247">
        <ele>2036.21</ele>
        <time>2012-03-09T11:38:23Z</time>
      </trkpt>
      <trkpt lat="42.74907" lon="0.66256">
        <ele>2036.21</ele>
        <time>2012-03-09T11:38:53Z</time>
      </trkpt>
      <trkpt lat="42.74905" lon="0.66258">
        <ele>2036.69</ele>
        <time>2012-03-09T11:39:03Z</time>
      </trkpt>
      <trkpt lat="42.74896" lon="0.66267">
        <ele>2038.13</ele>
        <time>2012-03-09T11:39:14Z</time>
      </trkpt>
      <trkpt lat="42.74894" lon="0.66268">
        <ele>2039.09</ele>
        <time>2012-03-09T11:39:34Z</time>
      </trkpt>
      <trkpt lat="42.74886" lon="0.66275">
        <ele>2038.61</ele>
        <time>2012-03-09T11:40:25Z</time>
      </trkpt>
      <trkpt lat="42.74876" lon="0.66281">
        <ele>2040.54</ele>
        <time>2012-03-09T11:40:38Z</time>
      </trkpt>
      <trkpt lat="42.74868" lon="0.66286">
        <ele>2041.5</ele>
        <time>2012-03-09T11:41:44Z</time>
      </trkpt>
      <trkpt lat="42.74862" lon="0.66289">
        <ele>2042.46</ele>
        <time>2012-03-09T11:41:55Z</time>
      </trkpt>
      <trkpt lat="42.74857" lon="0.66293">
        <ele>2043.42</ele>
        <time>2012-03-09T11:42:07Z</time>
      </trkpt>
      <trkpt lat="42.74846" lon="0.66298">
        <ele>2044.86</ele>
        <time>2012-03-09T11:42:19Z</time>
      </trkpt>
      <trkpt lat="42.74839" lon="0.66303">
        <ele>2047.75</ele>
        <time>2012-03-09T11:42:30Z</time>
      </trkpt>
      <trkpt lat="42.74829" lon="0.66311">
        <ele>2050.63</ele>
        <time>2012-03-09T11:42:44Z</time>
      </trkpt>
      <trkpt lat="42.74821" lon="0.66317">
        <ele>2052.55</ele>
        <time>2012-03-09T11:42:55Z</time>
      </trkpt>
      <trkpt lat="42.74812" lon="0.66322">
        <ele>2054.47</ele>
        <time>2012-03-09T11:43:06Z</time>
      </trkpt>
      <trkpt lat="42.74801" lon="0.66326">
        <ele>2056.88</ele>
        <time>2012-03-09T11:43:19Z</time>
      </trkpt>
      <trkpt lat="42.74794" lon="0.66332">
        <ele>2058.8</ele>
        <time>2012-03-09T11:43:31Z</time>
      </trkpt>
      <trkpt lat="42.74794" lon="0.66332">
        <ele>2058.8</ele>
        <time>2012-03-09T11:43:51Z</time>
      </trkpt>
      <trkpt lat="42.74794" lon="0.66331">
        <ele>2058.32</ele>
        <time>2012-03-09T11:45:44Z</time>
      </trkpt>
      <trkpt lat="42.74795" lon="0.66331">
        <ele>2058.32</ele>
        <time>2012-03-09T11:47:48Z</time>
      </trkpt>
      <trkpt lat="42.74781" lon="0.66331">
        <ele>2056.88</ele>
        <time>2012-03-09T11:48:02Z</time>
      </trkpt>
      <trkpt lat="42.74768" lon="0.66329">
        <ele>2055.92</ele>
        <time>2012-03-09T11:48:15Z</time>
      </trkpt>
      <trkpt lat="42.74765" lon="0.66328">
        <ele>2056.88</ele>
        <time>2012-03-09T11:48:19Z</time>
      </trkpt>
      <trkpt lat="42.74752" lon="0.66322">
        <ele>2059.28</ele>
        <time>2012-03-09T11:48:35Z</time>
      </trkpt>
      <trkpt lat="42.74744" lon="0.66318">
        <ele>2061.68</ele>
        <time>2012-03-09T11:48:48Z</time>
      </trkpt>
      <trkpt lat="42.74732" lon="0.6631">
        <ele>2062.65</ele>
        <time>2012-03-09T11:49:25Z</time>
      </trkpt>
      <trkpt lat="42.74725" lon="0.66306">
        <ele>2063.13</ele>
        <time>2012-03-09T11:49:41Z</time>
      </trkpt>
      <trkpt lat="42.74711" lon="0.66298">
        <ele>2063.13</ele>
        <time>2012-03-09T11:49:55Z</time>
      </trkpt>
      <trkpt lat="42.74705" lon="0.66292">
        <ele>2063.13</ele>
        <time>2012-03-09T11:50:09Z</time>
      </trkpt>
      <trkpt lat="42.74694" lon="0.66282">
        <ele>2062.65</ele>
        <time>2012-03-09T11:50:29Z</time>
      </trkpt>
      <trkpt lat="42.7468" lon="0.66263">
        <ele>2058.32</ele>
        <time>2012-03-09T11:50:45Z</time>
      </trkpt>
      <trkpt lat="42.74678" lon="0.66262">
        <ele>2057.36</ele>
        <time>2012-03-09T11:51:03Z</time>
      </trkpt>
      <trkpt lat="42.74673" lon="0.6626">
        <ele>2057.84</ele>
        <time>2012-03-09T11:51:16Z</time>
      </trkpt>
      <trkpt lat="42.74672" lon="0.66259">
        <ele>2057.84</ele>
        <time>2012-03-09T11:51:22Z</time>
      </trkpt>
      <trkpt lat="42.74663" lon="0.66254">
        <ele>2057.84</ele>
        <time>2012-03-09T11:51:35Z</time>
      </trkpt>
      <trkpt lat="42.74656" lon="0.6625">
        <ele>2057.84</ele>
        <time>2012-03-09T11:51:52Z</time>
      </trkpt>
      <trkpt lat="42.7466" lon="0.66256">
        <ele>2060.24</ele>
        <time>2012-03-09T11:52:37Z</time>
      </trkpt>
      <trkpt lat="42.74662" lon="0.66258">
        <ele>2061.2</ele>
        <time>2012-03-09T11:52:40Z</time>
      </trkpt>
      <trkpt lat="42.74666" lon="0.66272">
        <ele>2066.01</ele>
        <time>2012-03-09T11:52:55Z</time>
      </trkpt>
      <trkpt lat="42.74671" lon="0.66283">
        <ele>2066.97</ele>
        <time>2012-03-09T11:53:09Z</time>
      </trkpt>
      <trkpt lat="42.74671" lon="0.66284">
        <ele>2066.49</ele>
        <time>2012-03-09T11:53:38Z</time>
      </trkpt>
      <trkpt lat="42.74671" lon="0.66288">
        <ele>2066.97</ele>
        <time>2012-03-09T11:53:41Z</time>
      </trkpt>
      <trkpt lat="42.74667" lon="0.66299">
        <ele>2067.45</ele>
        <time>2012-03-09T11:53:55Z</time>
      </trkpt>
      <trkpt lat="42.74662" lon="0.66296">
        <ele>2068.41</ele>
        <time>2012-03-09T11:54:41Z</time>
      </trkpt>
      <trkpt lat="42.74662" lon="0.66297">
        <ele>2068.41</ele>
        <time>2012-03-09T11:55:22Z</time>
      </trkpt>
      <trkpt lat="42.74661" lon="0.66298">
        <ele>2068.41</ele>
        <time>2012-03-09T11:57:30Z</time>
      </trkpt>
      <trkpt lat="42.74659" lon="0.66289">
        <ele>2068.89</ele>
        <time>2012-03-09T11:57:42Z</time>
      </trkpt>
      <trkpt lat="42.74657" lon="0.66286">
        <ele>2068.89</ele>
        <time>2012-03-09T11:58:37Z</time>
      </trkpt>
      <trkpt lat="42.74656" lon="0.66285">
        <ele>2070.34</ele>
        <time>2012-03-09T11:59:36Z</time>
      </trkpt>
      <trkpt lat="42.74654" lon="0.66288">
        <ele>2072.26</ele>
        <time>2012-03-09T11:59:48Z</time>
      </trkpt>
      <trkpt lat="42.74648" lon="0.66283">
        <ele>2073.7</ele>
        <time>2012-03-09T12:00:06Z</time>
      </trkpt>
      <trkpt lat="42.74646" lon="0.66291">
        <ele>2077.07</ele>
        <time>2012-03-09T12:00:18Z</time>
      </trkpt>
      <trkpt lat="42.74646" lon="0.66292">
        <ele>2077.55</ele>
        <time>2012-03-09T12:00:37Z</time>
      </trkpt>
      <trkpt lat="42.74642" lon="0.66285">
        <ele>2077.07</ele>
        <time>2012-03-09T12:01:29Z</time>
      </trkpt>
      <trkpt lat="42.74639" lon="0.66283">
        <ele>2077.55</ele>
        <time>2012-03-09T12:01:45Z</time>
      </trkpt>
      <trkpt lat="42.74634" lon="0.66283">
        <ele>2077.55</ele>
        <time>2012-03-09T12:02:29Z</time>
      </trkpt>
      <trkpt lat="42.74632" lon="0.66286">
        <ele>2079.47</ele>
        <time>2012-03-09T12:02:40Z</time>
      </trkpt>
      <trkpt lat="42.74626" lon="0.6628">
        <ele>2081.87</ele>
        <time>2012-03-09T12:02:53Z</time>
      </trkpt>
      <trkpt lat="42.74615" lon="0.66272">
        <ele>2083.79</ele>
        <time>2012-03-09T12:03:06Z</time>
      </trkpt>
      <trkpt lat="42.74608" lon="0.66267">
        <ele>2086.68</ele>
        <time>2012-03-09T12:03:20Z</time>
      </trkpt>
      <trkpt lat="42.74608" lon="0.66266">
        <ele>2086.68</ele>
        <time>2012-03-09T12:03:43Z</time>
      </trkpt>
      <trkpt lat="42.74608" lon="0.66273">
        <ele>2088.12</ele>
        <time>2012-03-09T12:04:12Z</time>
      </trkpt>
      <trkpt lat="42.74604" lon="0.66272">
        <ele>2088.6</ele>
        <time>2012-03-09T12:04:21Z</time>
      </trkpt>
      <trkpt lat="42.74592" lon="0.66272">
        <ele>2091</ele>
        <time>2012-03-09T12:04:35Z</time>
      </trkpt>
      <trkpt lat="42.7459" lon="0.66281">
        <ele>2092.93</ele>
        <time>2012-03-09T12:04:47Z</time>
      </trkpt>
      <trkpt lat="42.74586" lon="0.66278">
        <ele>2093.89</ele>
        <time>2012-03-09T12:05:12Z</time>
      </trkpt>
      <trkpt lat="42.74584" lon="0.66271">
        <ele>2095.33</ele>
        <time>2012-03-09T12:05:24Z</time>
      </trkpt>
      <trkpt lat="42.74582" lon="0.66268">
        <ele>2095.33</ele>
        <time>2012-03-09T12:05:27Z</time>
      </trkpt>
      <trkpt lat="42.74576" lon="0.66262">
        <ele>2096.77</ele>
        <time>2012-03-09T12:05:39Z</time>
      </trkpt>
      <trkpt lat="42.74576" lon="0.66265">
        <ele>2097.25</ele>
        <time>2012-03-09T12:05:42Z</time>
      </trkpt>
      <trkpt lat="42.74573" lon="0.66275">
        <ele>2097.73</ele>
        <time>2012-03-09T12:05:54Z</time>
      </trkpt>
      <trkpt lat="42.74572" lon="0.66275">
        <ele>2097.73</ele>
        <time>2012-03-09T12:05:55Z</time>
      </trkpt>
      <trkpt lat="42.74568" lon="0.66277">
        <ele>2098.21</ele>
        <time>2012-03-09T12:06:09Z</time>
      </trkpt>
      <trkpt lat="42.74569" lon="0.66272">
        <ele>2098.21</ele>
        <time>2012-03-09T12:06:25Z</time>
      </trkpt>
      <trkpt lat="42.74564" lon="0.66261">
        <ele>2098.7</ele>
        <time>2012-03-09T12:06:38Z</time>
      </trkpt>
      <trkpt lat="42.74553" lon="0.66254">
        <ele>2098.7</ele>
        <time>2012-03-09T12:06:55Z</time>
      </trkpt>
      <trkpt lat="42.74549" lon="0.66253">
        <ele>2099.66</ele>
        <time>2012-03-09T12:07:00Z</time>
      </trkpt>
      <trkpt lat="42.74538" lon="0.66247">
        <ele>2103.02</ele>
        <time>2012-03-09T12:07:16Z</time>
      </trkpt>
      <trkpt lat="42.7453" lon="0.66245">
        <ele>2104.94</ele>
        <time>2012-03-09T12:07:30Z</time>
      </trkpt>
      <trkpt lat="42.74529" lon="0.66251">
        <ele>2106.87</ele>
        <time>2012-03-09T12:07:42Z</time>
      </trkpt>
      <trkpt lat="42.74533" lon="0.66262">
        <ele>2106.39</ele>
        <time>2012-03-09T12:07:55Z</time>
      </trkpt>
      <trkpt lat="42.74534" lon="0.66264">
        <ele>2106.39</ele>
        <time>2012-03-09T12:07:57Z</time>
      </trkpt>
      <trkpt lat="42.74536" lon="0.66272">
        <ele>2108.31</ele>
        <time>2012-03-09T12:08:09Z</time>
      </trkpt>
      <trkpt lat="42.74535" lon="0.6627">
        <ele>2109.75</ele>
        <time>2012-03-09T12:08:26Z</time>
      </trkpt>
      <trkpt lat="42.74528" lon="0.66265">
        <ele>2111.67</ele>
        <time>2012-03-09T12:09:06Z</time>
      </trkpt>
      <trkpt lat="42.7452" lon="0.66261">
        <ele>2114.56</ele>
        <time>2012-03-09T12:09:17Z</time>
      </trkpt>
      <trkpt lat="42.74508" lon="0.66261">
        <ele>2120.81</ele>
        <time>2012-03-09T12:09:32Z</time>
      </trkpt>
      <trkpt lat="42.74498" lon="0.66264">
        <ele>2127.05</ele>
        <time>2012-03-09T12:09:48Z</time>
      </trkpt>
      <trkpt lat="42.74492" lon="0.66265">
        <ele>2130.42</ele>
        <time>2012-03-09T12:10:02Z</time>
      </trkpt>
      <trkpt lat="42.74499" lon="0.66271">
        <ele>2129.46</ele>
        <time>2012-03-09T12:10:14Z</time>
      </trkpt>
      <trkpt lat="42.74501" lon="0.6628">
        <ele>2129.94</ele>
        <time>2012-03-09T12:10:27Z</time>
      </trkpt>
      <trkpt lat="42.74492" lon="0.66277">
        <ele>2133.3</ele>
        <time>2012-03-09T12:10:40Z</time>
      </trkpt>
      <trkpt lat="42.7448" lon="0.66277">
        <ele>2134.74</ele>
        <time>2012-03-09T12:10:54Z</time>
      </trkpt>
      <trkpt lat="42.74471" lon="0.66279">
        <ele>2137.15</ele>
        <time>2012-03-09T12:11:10Z</time>
      </trkpt>
      <trkpt lat="42.74461" lon="0.66282">
        <ele>2137.15</ele>
        <time>2012-03-09T12:11:21Z</time>
      </trkpt>
      <trkpt lat="42.74453" lon="0.66286">
        <ele>2138.59</ele>
        <time>2012-03-09T12:11:34Z</time>
      </trkpt>
      <trkpt lat="42.74443" lon="0.66288">
        <ele>2140.99</ele>
        <time>2012-03-09T12:11:48Z</time>
      </trkpt>
      <trkpt lat="42.74436" lon="0.66289">
        <ele>2142.92</ele>
        <time>2012-03-09T12:11:59Z</time>
      </trkpt>
      <trkpt lat="42.7444" lon="0.66302">
        <ele>2143.88</ele>
        <time>2012-03-09T12:12:12Z</time>
      </trkpt>
      <trkpt lat="42.74438" lon="0.66309">
        <ele>2144.84</ele>
        <time>2012-03-09T12:12:23Z</time>
      </trkpt>
      <trkpt lat="42.74432" lon="0.66306">
        <ele>2146.28</ele>
        <time>2012-03-09T12:12:31Z</time>
      </trkpt>
      <trkpt lat="42.74423" lon="0.66303">
        <ele>2150.13</ele>
        <time>2012-03-09T12:12:45Z</time>
      </trkpt>
      <trkpt lat="42.74422" lon="0.66303">
        <ele>2150.61</ele>
        <time>2012-03-09T12:12:46Z</time>
      </trkpt>
      <trkpt lat="42.7441" lon="0.66305">
        <ele>2152.05</ele>
        <time>2012-03-09T12:13:01Z</time>
      </trkpt>
      <trkpt lat="42.744" lon="0.66308">
        <ele>2153.49</ele>
        <time>2012-03-09T12:13:14Z</time>
      </trkpt>
      <trkpt lat="42.74391" lon="0.66312">
        <ele>2154.45</ele>
        <time>2012-03-09T12:13:26Z</time>
      </trkpt>
      <trkpt lat="42.7438" lon="0.66321">
        <ele>2155.41</ele>
        <time>2012-03-09T12:13:40Z</time>
      </trkpt>
      <trkpt lat="42.74375" lon="0.6633">
        <ele>2156.86</ele>
        <time>2012-03-09T12:13:51Z</time>
      </trkpt>
      <trkpt lat="42.74374" lon="0.66332">
        <ele>2157.82</ele>
        <time>2012-03-09T12:14:06Z</time>
      </trkpt>
      <trkpt lat="42.74375" lon="0.66333">
        <ele>2158.78</ele>
        <time>2012-03-09T12:16:50Z</time>
      </trkpt>
      <trkpt lat="42.74376" lon="0.66333">
        <ele>2158.78</ele>
        <time>2012-03-09T12:17:11Z</time>
      </trkpt>
      <trkpt lat="42.74375" lon="0.66333">
        <ele>2158.78</ele>
        <time>2012-03-09T12:19:06Z</time>
      </trkpt>
      <trkpt lat="42.74376" lon="0.66334">
        <ele>2158.3</ele>
        <time>2012-03-09T12:19:31Z</time>
      </trkpt>
      <trkpt lat="42.74375" lon="0.66334">
        <ele>2158.3</ele>
        <time>2012-03-09T12:24:22Z</time>
      </trkpt>
      <trkpt lat="42.74375" lon="0.66334">
        <ele>2158.3</ele>
        <time>2012-03-09T12:25:33Z</time>
      </trkpt>
      <trkpt lat="42.74375" lon="0.66333">
        <ele>2158.3</ele>
        <time>2012-03-09T12:25:39Z</time>
      </trkpt>
      <trkpt lat="42.74381" lon="0.66321">
        <ele>2158.3</ele>
        <time>2012-03-09T12:25:45Z</time>
      </trkpt>
      <trkpt lat="42.7441" lon="0.66301">
        <ele>2155.41</ele>
        <time>2012-03-09T12:25:55Z</time>
      </trkpt>
      <trkpt lat="42.74428" lon="0.66298">
        <ele>2153.97</ele>
        <time>2012-03-09T12:25:59Z</time>
      </trkpt>
      <trkpt lat="42.74449" lon="0.66292">
        <ele>2152.53</ele>
        <time>2012-03-09T12:26:04Z</time>
      </trkpt>
      <trkpt lat="42.74474" lon="0.66275">
        <ele>2148.68</ele>
        <time>2012-03-09T12:26:11Z</time>
      </trkpt>
      <trkpt lat="42.74484" lon="0.66281">
        <ele>2146.28</ele>
        <time>2012-03-09T12:26:19Z</time>
      </trkpt>
      <trkpt lat="42.74484" lon="0.6628">
        <ele>2145.8</ele>
        <time>2012-03-09T12:26:27Z</time>
      </trkpt>
      <trkpt lat="42.74489" lon="0.66268">
        <ele>2141.95</ele>
        <time>2012-03-09T12:26:34Z</time>
      </trkpt>
      <trkpt lat="42.74504" lon="0.66267">
        <ele>2138.59</ele>
        <time>2012-03-09T12:26:39Z</time>
      </trkpt>
      <trkpt lat="42.74523" lon="0.66255">
        <ele>2132.34</ele>
        <time>2012-03-09T12:26:47Z</time>
      </trkpt>
      <trkpt lat="42.74537" lon="0.66263">
        <ele>2127.05</ele>
        <time>2012-03-09T12:26:54Z</time>
      </trkpt>
      <trkpt lat="42.74537" lon="0.66263">
        <ele>2126.09</ele>
        <time>2012-03-09T12:26:57Z</time>
      </trkpt>
      <trkpt lat="42.74551" lon="0.66248">
        <ele>2120.32</ele>
        <time>2012-03-09T12:27:04Z</time>
      </trkpt>
      <trkpt lat="42.74558" lon="0.66228">
        <ele>2113.6</ele>
        <time>2012-03-09T12:27:09Z</time>
      </trkpt>
      <trkpt lat="42.74565" lon="0.66232">
        <ele>2110.23</ele>
        <time>2012-03-09T12:27:12Z</time>
      </trkpt>
      <trkpt lat="42.74566" lon="0.66236">
        <ele>2107.83</ele>
        <time>2012-03-09T12:27:15Z</time>
      </trkpt>
      <trkpt lat="42.7457" lon="0.66241">
        <ele>2103.02</ele>
        <time>2012-03-09T12:27:27Z</time>
      </trkpt>
      <trkpt lat="42.7458" lon="0.66255">
        <ele>2097.73</ele>
        <time>2012-03-09T12:27:39Z</time>
      </trkpt>
      <trkpt lat="42.74592" lon="0.66281">
        <ele>2091.49</ele>
        <time>2012-03-09T12:27:50Z</time>
      </trkpt>
      <trkpt lat="42.74592" lon="0.66283">
        <ele>2089.08</ele>
        <time>2012-03-09T12:28:05Z</time>
      </trkpt>
      <trkpt lat="42.74592" lon="0.66283">
        <ele>2088.6</ele>
        <time>2012-03-09T12:28:44Z</time>
      </trkpt>
      <trkpt lat="42.74594" lon="0.66283">
        <ele>2088.6</ele>
        <time>2012-03-09T12:29:00Z</time>
      </trkpt>
      <trkpt lat="42.74603" lon="0.66285">
        <ele>2087.16</ele>
        <time>2012-03-09T12:29:10Z</time>
      </trkpt>
      <trkpt lat="42.74609" lon="0.66291">
        <ele>2086.2</ele>
        <time>2012-03-09T12:29:14Z</time>
      </trkpt>
      <trkpt lat="42.74639" lon="0.66351">
        <ele>2082.83</ele>
        <time>2012-03-09T12:29:28Z</time>
      </trkpt>
      <trkpt lat="42.74652" lon="0.66453">
        <ele>2074.18</ele>
        <time>2012-03-09T12:29:39Z</time>
      </trkpt>
      <trkpt lat="42.74652" lon="0.66483">
        <ele>2068.89</ele>
        <time>2012-03-09T12:29:41Z</time>
      </trkpt>
      <trkpt lat="42.74636" lon="0.66528">
        <ele>2059.28</ele>
        <time>2012-03-09T12:29:46Z</time>
      </trkpt>
      <trkpt lat="42.7463" lon="0.66531">
        <ele>2050.63</ele>
        <time>2012-03-09T12:29:50Z</time>
      </trkpt>
      <trkpt lat="42.74618" lon="0.66533">
        <ele>2031.88</ele>
        <time>2012-03-09T12:30:04Z</time>
      </trkpt>
      <trkpt lat="42.74617" lon="0.66532">
        <ele>2030.92</ele>
        <time>2012-03-09T12:30:06Z</time>
      </trkpt>
      <trkpt lat="42.74616" lon="0.66529">
        <ele>2027.08</ele>
        <time>2012-03-09T12:30:19Z</time>
      </trkpt>
      <trkpt lat="42.74617" lon="0.66525">
        <ele>2025.64</ele>
        <time>2012-03-09T12:30:42Z</time>
      </trkpt>
      <trkpt lat="42.74617" lon="0.66523">
        <ele>2025.15</ele>
        <time>2012-03-09T12:31:40Z</time>
      </trkpt>
      <trkpt lat="42.74617" lon="0.66521">
        <ele>2022.27</ele>
        <time>2012-03-09T12:33:11Z</time>
      </trkpt>
      <trkpt lat="42.74616" lon="0.6652">
        <ele>2021.79</ele>
        <time>2012-03-09T12:34:07Z</time>
      </trkpt>
      <trkpt lat="42.74617" lon="0.66518">
        <ele>2020.35</ele>
        <time>2012-03-09T12:35:06Z</time>
      </trkpt>
      <trkpt lat="42.74616" lon="0.66517">
        <ele>2018.91</ele>
        <time>2012-03-09T12:36:45Z</time>
      </trkpt>
      <trkpt lat="42.74616" lon="0.66517">
        <ele>2017.46</ele>
        <time>2012-03-09T12:37:49Z</time>
      </trkpt>
      <trkpt lat="42.74616" lon="0.66516">
        <ele>2012.66</ele>
        <time>2012-03-09T12:40:59Z</time>
      </trkpt>
      <trkpt lat="42.74615" lon="0.66515">
        <ele>2009.77</ele>
        <time>2012-03-09T12:43:09Z</time>
      </trkpt>
      <trkpt lat="42.74615" lon="0.66514">
        <ele>2008.81</ele>
        <time>2012-03-09T12:44:41Z</time>
      </trkpt>
      <trkpt lat="42.74615" lon="0.66513">
        <ele>2007.85</ele>
        <time>2012-03-09T12:46:29Z</time>
      </trkpt>
      <trkpt lat="42.74616" lon="0.66508">
        <ele>2007.37</ele>
        <time>2012-03-09T12:47:23Z</time>
      </trkpt>
      <trkpt lat="42.74616" lon="0.66508">
        <ele>2007.37</ele>
        <time>2012-03-09T12:47:24Z</time>
      </trkpt>
      <trkpt lat="42.74621" lon="0.66492">
        <ele>2004.97</ele>
        <time>2012-03-09T12:47:36Z</time>
      </trkpt>
      <trkpt lat="42.74626" lon="0.66484">
        <ele>2004.97</ele>
        <time>2012-03-09T12:47:46Z</time>
      </trkpt>
      <trkpt lat="42.7463" lon="0.66476">
        <ele>2004.97</ele>
        <time>2012-03-09T12:48:05Z</time>
      </trkpt>
      <trkpt lat="42.74636" lon="0.66466">
        <ele>2003.04</ele>
        <time>2012-03-09T12:48:14Z</time>
      </trkpt>
      <trkpt lat="42.74638" lon="0.66462">
        <ele>2000.64</ele>
        <time>2012-03-09T12:48:34Z</time>
      </trkpt>
      <trkpt lat="42.74644" lon="0.66456">
        <ele>1998.72</ele>
        <time>2012-03-09T12:49:45Z</time>
      </trkpt>
      <trkpt lat="42.74657" lon="0.66448">
        <ele>1998.72</ele>
        <time>2012-03-09T12:49:58Z</time>
      </trkpt>
      <trkpt lat="42.74662" lon="0.66445">
        <ele>1998.72</ele>
        <time>2012-03-09T12:50:11Z</time>
      </trkpt>
      <trkpt lat="42.74671" lon="0.66439">
        <ele>1999.68</ele>
        <time>2012-03-09T12:50:23Z</time>
      </trkpt>
      <trkpt lat="42.74678" lon="0.66438">
        <ele>2000.64</ele>
        <time>2012-03-09T12:50:31Z</time>
      </trkpt>
      <trkpt lat="42.74692" lon="0.66443">
        <ele>2002.56</ele>
        <time>2012-03-09T12:50:46Z</time>
      </trkpt>
      <trkpt lat="42.74699" lon="0.66447">
        <ele>2003.52</ele>
        <time>2012-03-09T12:50:58Z</time>
      </trkpt>
      <trkpt lat="42.74706" lon="0.66452">
        <ele>2005.45</ele>
        <time>2012-03-09T12:51:11Z</time>
      </trkpt>
      <trkpt lat="42.74714" lon="0.66458">
        <ele>2008.33</ele>
        <time>2012-03-09T12:51:23Z</time>
      </trkpt>
      <trkpt lat="42.74718" lon="0.66465">
        <ele>2011.7</ele>
        <time>2012-03-09T12:51:31Z</time>
      </trkpt>
      <trkpt lat="42.74724" lon="0.66474">
        <ele>2014.1</ele>
        <time>2012-03-09T12:51:43Z</time>
      </trkpt>
      <trkpt lat="42.74727" lon="0.66469">
        <ele>2016.02</ele>
        <time>2012-03-09T12:51:56Z</time>
      </trkpt>
      <trkpt lat="42.74727" lon="0.66468">
        <ele>2016.02</ele>
        <time>2012-03-09T12:51:57Z</time>
      </trkpt>
      <trkpt lat="42.74727" lon="0.66459">
        <ele>2016.98</ele>
        <time>2012-03-09T12:52:06Z</time>
      </trkpt>
      <trkpt lat="42.74734" lon="0.66447">
        <ele>2018.91</ele>
        <time>2012-03-09T12:52:19Z</time>
      </trkpt>
      <trkpt lat="42.7473" lon="0.66436">
        <ele>2020.83</ele>
        <time>2012-03-09T12:52:33Z</time>
      </trkpt>
      <trkpt lat="42.74731" lon="0.66439">
        <ele>2021.79</ele>
        <time>2012-03-09T12:52:36Z</time>
      </trkpt>
      <trkpt lat="42.74735" lon="0.6645">
        <ele>2024.19</ele>
        <time>2012-03-09T12:52:49Z</time>
      </trkpt>
      <trkpt lat="42.7474" lon="0.66458">
        <ele>2025.64</ele>
        <time>2012-03-09T12:53:00Z</time>
      </trkpt>
      <trkpt lat="42.74744" lon="0.66469">
        <ele>2028.52</ele>
        <time>2012-03-09T12:53:14Z</time>
      </trkpt>
      <trkpt lat="42.74746" lon="0.6648">
        <ele>2029.48</ele>
        <time>2012-03-09T12:53:27Z</time>
      </trkpt>
      <trkpt lat="42.74748" lon="0.66483">
        <ele>2030.44</ele>
        <time>2012-03-09T12:53:40Z</time>
      </trkpt>
      <trkpt lat="42.74751" lon="0.66475">
        <ele>2030.92</ele>
        <time>2012-03-09T12:53:50Z</time>
      </trkpt>
      <trkpt lat="42.74758" lon="0.66461">
        <ele>2032.36</ele>
        <time>2012-03-09T12:54:03Z</time>
      </trkpt>
      <trkpt lat="42.74758" lon="0.66451">
        <ele>2033.33</ele>
        <time>2012-03-09T12:54:13Z</time>
      </trkpt>
      <trkpt lat="42.74757" lon="0.66446">
        <ele>2034.77</ele>
        <time>2012-03-09T12:54:18Z</time>
      </trkpt>
      <trkpt lat="42.74759" lon="0.66434">
        <ele>2037.65</ele>
        <time>2012-03-09T12:54:31Z</time>
      </trkpt>
      <trkpt lat="42.74758" lon="0.66433">
        <ele>2038.13</ele>
        <time>2012-03-09T12:54:33Z</time>
      </trkpt>
      <trkpt lat="42.74757" lon="0.66436">
        <ele>2039.57</ele>
        <time>2012-03-09T12:54:51Z</time>
      </trkpt>
      <trkpt lat="42.74756" lon="0.66439">
        <ele>2040.54</ele>
        <time>2012-03-09T12:54:57Z</time>
      </trkpt>
      <trkpt lat="42.74757" lon="0.66427">
        <ele>2041.98</ele>
        <time>2012-03-09T12:55:10Z</time>
      </trkpt>
      <trkpt lat="42.74761" lon="0.66434">
        <ele>2044.86</ele>
        <time>2012-03-09T12:55:25Z</time>
      </trkpt>
      <trkpt lat="42.74768" lon="0.66445">
        <ele>2046.3</ele>
        <time>2012-03-09T12:55:40Z</time>
      </trkpt>
      <trkpt lat="42.74775" lon="0.66451">
        <ele>2044.86</ele>
        <time>2012-03-09T12:55:51Z</time>
      </trkpt>
      <trkpt lat="42.74775" lon="0.66446">
        <ele>2046.3</ele>
        <time>2012-03-09T12:56:03Z</time>
      </trkpt>
      <trkpt lat="42.74773" lon="0.66434">
        <ele>2047.26</ele>
        <time>2012-03-09T12:56:15Z</time>
      </trkpt>
      <trkpt lat="42.74781" lon="0.66441">
        <ele>2050.63</ele>
        <time>2012-03-09T12:56:29Z</time>
      </trkpt>
      <trkpt lat="42.7478" lon="0.66433">
        <ele>2053.51</ele>
        <time>2012-03-09T12:56:42Z</time>
      </trkpt>
      <trkpt lat="42.74778" lon="0.66431">
        <ele>2053.99</ele>
        <time>2012-03-09T12:56:57Z</time>
      </trkpt>
      <trkpt lat="42.74778" lon="0.66422">
        <ele>2054.96</ele>
        <time>2012-03-09T12:57:42Z</time>
      </trkpt>
      <trkpt lat="42.74785" lon="0.66414">
        <ele>2057.36</ele>
        <time>2012-03-09T12:57:55Z</time>
      </trkpt>
      <trkpt lat="42.74785" lon="0.66414">
        <ele>2058.32</ele>
        <time>2012-03-09T12:59:53Z</time>
      </trkpt>
      <trkpt lat="42.74784" lon="0.66413">
        <ele>2059.28</ele>
        <time>2012-03-09T13:03:44Z</time>
      </trkpt>
      <trkpt lat="42.74785" lon="0.66413">
        <ele>2059.28</ele>
        <time>2012-03-09T13:04:39Z</time>
      </trkpt>
      <trkpt lat="42.74786" lon="0.66414">
        <ele>2059.76</ele>
        <time>2012-03-09T13:06:14Z</time>
      </trkpt>
      <trkpt lat="42.74786" lon="0.66413">
        <ele>2059.76</ele>
        <time>2012-03-09T13:06:46Z</time>
      </trkpt>
      <trkpt lat="42.74787" lon="0.66413">
        <ele>2059.76</ele>
        <time>2012-03-09T13:06:49Z</time>
      </trkpt>
      <trkpt lat="42.74809" lon="0.66376">
        <ele>2057.84</ele>
        <time>2012-03-09T13:07:07Z</time>
      </trkpt>
      <trkpt lat="42.74847" lon="0.66334">
        <ele>2052.55</ele>
        <time>2012-03-09T13:07:21Z</time>
      </trkpt>
      <trkpt lat="42.74867" lon="0.66318">
        <ele>2049.67</ele>
        <time>2012-03-09T13:07:26Z</time>
      </trkpt>
      <trkpt lat="42.74888" lon="0.66304">
        <ele>2046.78</ele>
        <time>2012-03-09T13:07:31Z</time>
      </trkpt>
      <trkpt lat="42.74898" lon="0.66262">
        <ele>2041.98</ele>
        <time>2012-03-09T13:07:38Z</time>
      </trkpt>
      <trkpt lat="42.74895" lon="0.66213">
        <ele>2032.84</ele>
        <time>2012-03-09T13:07:44Z</time>
      </trkpt>
      <trkpt lat="42.74895" lon="0.66146">
        <ele>2019.39</ele>
        <time>2012-03-09T13:07:52Z</time>
      </trkpt>
      <trkpt lat="42.74883" lon="0.66084">
        <ele>2002.56</ele>
        <time>2012-03-09T13:07:59Z</time>
      </trkpt>
      <trkpt lat="42.74877" lon="0.66044">
        <ele>1991.99</ele>
        <time>2012-03-09T13:08:03Z</time>
      </trkpt>
      <trkpt lat="42.74872" lon="0.65981">
        <ele>1975.17</ele>
        <time>2012-03-09T13:08:09Z</time>
      </trkpt>
      <trkpt lat="42.74852" lon="0.65911">
        <ele>1952.57</ele>
        <time>2012-03-09T13:08:16Z</time>
      </trkpt>
      <trkpt lat="42.74836" lon="0.65877">
        <ele>1942</ele>
        <time>2012-03-09T13:08:20Z</time>
      </trkpt>
      <trkpt lat="42.74822" lon="0.65853">
        <ele>1932.87</ele>
        <time>2012-03-09T13:08:23Z</time>
      </trkpt>
      <trkpt lat="42.74811" lon="0.65828">
        <ele>1924.22</ele>
        <time>2012-03-09T13:08:26Z</time>
      </trkpt>
      <trkpt lat="42.74792" lon="0.65822">
        <ele>1905.95</ele>
        <time>2012-03-09T13:08:32Z</time>
      </trkpt>
      <trkpt lat="42.74778" lon="0.65847">
        <ele>1873.75</ele>
        <time>2012-03-09T13:08:46Z</time>
      </trkpt>
      <trkpt lat="42.7478" lon="0.65849">
        <ele>1870.38</ele>
        <time>2012-03-09T13:09:01Z</time>
      </trkpt>
      <trkpt lat="42.74779" lon="0.65851">
        <ele>1868.94</ele>
        <time>2012-03-09T13:09:32Z</time>
      </trkpt>
      <trkpt lat="42.74779" lon="0.65852">
        <ele>1868.46</ele>
        <time>2012-03-09T13:09:51Z</time>
      </trkpt>
      <trkpt lat="42.74779" lon="0.65854">
        <ele>1868.46</ele>
        <time>2012-03-09T13:10:52Z</time>
      </trkpt>
      <trkpt lat="42.74775" lon="0.65834">
        <ele>1870.38</ele>
        <time>2012-03-09T13:10:57Z</time>
      </trkpt>
      <trkpt lat="42.74768" lon="0.65769">
        <ele>1862.21</ele>
        <time>2012-03-09T13:11:04Z</time>
      </trkpt>
      <trkpt lat="42.74756" lon="0.65691">
        <ele>1849.23</ele>
        <time>2012-03-09T13:11:12Z</time>
      </trkpt>
      <trkpt lat="42.74751" lon="0.65663">
        <ele>1843.47</ele>
        <time>2012-03-09T13:11:15Z</time>
      </trkpt>
      <trkpt lat="42.74744" lon="0.65642">
        <ele>1839.62</ele>
        <time>2012-03-09T13:11:17Z</time>
      </trkpt>
      <trkpt lat="42.74739" lon="0.65571">
        <ele>1824.72</ele>
        <time>2012-03-09T13:11:23Z</time>
      </trkpt>
      <trkpt lat="42.74738" lon="0.65539">
        <ele>1817.51</ele>
        <time>2012-03-09T13:11:26Z</time>
      </trkpt>
      <trkpt lat="42.74734" lon="0.65493">
        <ele>1806.45</ele>
        <time>2012-03-09T13:11:31Z</time>
      </trkpt>
      <trkpt lat="42.74731" lon="0.65477">
        <ele>1802.61</ele>
        <time>2012-03-09T13:11:33Z</time>
      </trkpt>
      <trkpt lat="42.74731" lon="0.65433">
        <ele>1793.48</ele>
        <time>2012-03-09T13:11:40Z</time>
      </trkpt>
      <trkpt lat="42.74726" lon="0.65415">
        <ele>1791.55</ele>
        <time>2012-03-09T13:11:43Z</time>
      </trkpt>
      <trkpt lat="42.74727" lon="0.65384">
        <ele>1790.11</ele>
        <time>2012-03-09T13:11:48Z</time>
      </trkpt>
      <trkpt lat="42.74729" lon="0.65366">
        <ele>1789.15</ele>
        <time>2012-03-09T13:11:51Z</time>
      </trkpt>
      <trkpt lat="42.74727" lon="0.65347">
        <ele>1788.19</ele>
        <time>2012-03-09T13:11:54Z</time>
      </trkpt>
      <trkpt lat="42.74729" lon="0.65324">
        <ele>1786.27</ele>
        <time>2012-03-09T13:11:57Z</time>
      </trkpt>
      <trkpt lat="42.74736" lon="0.65289">
        <ele>1781.94</ele>
        <time>2012-03-09T13:12:02Z</time>
      </trkpt>
      <trkpt lat="42.74737" lon="0.65246">
        <ele>1777.13</ele>
        <time>2012-03-09T13:12:08Z</time>
      </trkpt>
      <trkpt lat="42.74732" lon="0.65214">
        <ele>1773.77</ele>
        <time>2012-03-09T13:12:13Z</time>
      </trkpt>
      <trkpt lat="42.74727" lon="0.65201">
        <ele>1772.81</ele>
        <time>2012-03-09T13:12:15Z</time>
      </trkpt>
      <trkpt lat="42.74726" lon="0.65184">
        <ele>1771.37</ele>
        <time>2012-03-09T13:12:17Z</time>
      </trkpt>
      <trkpt lat="42.74734" lon="0.65126">
        <ele>1765.12</ele>
        <time>2012-03-09T13:12:23Z</time>
      </trkpt>
      <trkpt lat="42.74737" lon="0.65115">
        <ele>1763.68</ele>
        <time>2012-03-09T13:12:24Z</time>
      </trkpt>
      <trkpt lat="42.74748" lon="0.65079">
        <ele>1757.43</ele>
        <time>2012-03-09T13:12:28Z</time>
      </trkpt>
      <trkpt lat="42.74753" lon="0.65024">
        <ele>1745.89</ele>
        <time>2012-03-09T13:12:37Z</time>
      </trkpt>
      <trkpt lat="42.74752" lon="0.65029">
        <ele>1743.49</ele>
        <time>2012-03-09T13:12:51Z</time>
      </trkpt>
      <trkpt lat="42.74756" lon="0.65032">
        <ele>1743.49</ele>
        <time>2012-03-09T13:13:07Z</time>
      </trkpt>
      <trkpt lat="42.74758" lon="0.65036">
        <ele>1743.49</ele>
        <time>2012-03-09T13:14:14Z</time>
      </trkpt>
      <trkpt lat="42.74765" lon="0.65025">
        <ele>1743.49</ele>
        <time>2012-03-09T13:14:20Z</time>
      </trkpt>
      <trkpt lat="42.74766" lon="0.65035">
        <ele>1740.6</ele>
        <time>2012-03-09T13:14:28Z</time>
      </trkpt>
      <trkpt lat="42.74769" lon="0.65034">
        <ele>1741.08</ele>
        <time>2012-03-09T13:14:42Z</time>
      </trkpt>
      <trkpt lat="42.74784" lon="0.65023">
        <ele>1742.53</ele>
        <time>2012-03-09T13:14:50Z</time>
      </trkpt>
      <trkpt lat="42.74801" lon="0.65007">
        <ele>1742.53</ele>
        <time>2012-03-09T13:14:54Z</time>
      </trkpt>
      <trkpt lat="42.74828" lon="0.6494">
        <ele>1736.76</ele>
        <time>2012-03-09T13:15:02Z</time>
      </trkpt>
      <trkpt lat="42.74833" lon="0.64919">
        <ele>1733.39</ele>
        <time>2012-03-09T13:15:04Z</time>
      </trkpt>
      <trkpt lat="42.74837" lon="0.64911">
        <ele>1731.47</ele>
        <time>2012-03-09T13:15:05Z</time>
      </trkpt>
      <trkpt lat="42.74841" lon="0.64905">
        <ele>1729.55</ele>
        <time>2012-03-09T13:15:06Z</time>
      </trkpt>
      <trkpt lat="42.74846" lon="0.64899">
        <ele>1727.63</ele>
        <time>2012-03-09T13:15:07Z</time>
      </trkpt>
      <trkpt lat="42.74854" lon="0.6489">
        <ele>1727.15</ele>
        <time>2012-03-09T13:15:09Z</time>
      </trkpt>
      <trkpt lat="42.74867" lon="0.64878">
        <ele>1726.18</ele>
        <time>2012-03-09T13:15:12Z</time>
      </trkpt>
      <trkpt lat="42.74871" lon="0.64871">
        <ele>1726.18</ele>
        <time>2012-03-09T13:15:13Z</time>
      </trkpt>
      <trkpt lat="42.74873" lon="0.64862">
        <ele>1726.18</ele>
        <time>2012-03-09T13:15:14Z</time>
      </trkpt>
      <trkpt lat="42.74876" lon="0.64841">
        <ele>1724.74</ele>
        <time>2012-03-09T13:15:16Z</time>
      </trkpt>
      <trkpt lat="42.74875" lon="0.64829">
        <ele>1724.26</ele>
        <time>2012-03-09T13:15:17Z</time>
      </trkpt>
      <trkpt lat="42.74874" lon="0.64821">
        <ele>1723.78</ele>
        <time>2012-03-09T13:15:18Z</time>
      </trkpt>
      <trkpt lat="42.74875" lon="0.64816">
        <ele>1723.78</ele>
        <time>2012-03-09T13:15:19Z</time>
      </trkpt>
      <trkpt lat="42.74874" lon="0.64823">
        <ele>1720.9</ele>
        <time>2012-03-09T13:15:27Z</time>
      </trkpt>
      <trkpt lat="42.74875" lon="0.64828">
        <ele>1719.46</ele>
        <time>2012-03-09T13:16:08Z</time>
      </trkpt>
      <trkpt lat="42.74875" lon="0.64828">
        <ele>1718.01</ele>
        <time>2012-03-09T13:16:27Z</time>
      </trkpt>
      <trkpt lat="42.74877" lon="0.64797">
        <ele>1708.4</ele>
        <time>2012-03-09T13:16:38Z</time>
      </trkpt>
      <trkpt lat="42.74878" lon="0.64795">
        <ele>1707.92</ele>
        <time>2012-03-09T13:16:39Z</time>
      </trkpt>
      <trkpt lat="42.7488" lon="0.64785">
        <ele>1705.04</ele>
        <time>2012-03-09T13:16:44Z</time>
      </trkpt>
      <trkpt lat="42.74881" lon="0.64771">
        <ele>1702.15</ele>
        <time>2012-03-09T13:16:49Z</time>
      </trkpt>
      <trkpt lat="42.74881" lon="0.64755">
        <ele>1699.75</ele>
        <time>2012-03-09T13:16:53Z</time>
      </trkpt>
      <trkpt lat="42.74884" lon="0.64753">
        <ele>1696.86</ele>
        <time>2012-03-09T13:17:09Z</time>
      </trkpt>
      <trkpt lat="42.74884" lon="0.64754">
        <ele>1696.38</ele>
        <time>2012-03-09T13:18:27Z</time>
      </trkpt>
      <trkpt lat="42.74884" lon="0.64754">
        <ele>1696.38</ele>
        <time>2012-03-09T13:18:45Z</time>
      </trkpt>
      <trkpt lat="42.74885" lon="0.64757">
        <ele>1696.38</ele>
        <time>2012-03-09T13:20:19Z</time>
      </trkpt>
      <trkpt lat="42.74885" lon="0.64757">
        <ele>1696.38</ele>
        <time>2012-03-09T13:20:29Z</time>
      </trkpt>
      <trkpt lat="42.74886" lon="0.64757">
        <ele>1696.86</ele>
        <time>2012-03-09T13:21:28Z</time>
      </trkpt>
      <trkpt lat="42.74885" lon="0.64756">
        <ele>1695.9</ele>
        <time>2012-03-09T13:22:08Z</time>
      </trkpt>
      <trkpt lat="42.74885" lon="0.64757">
        <ele>1694.94</ele>
        <time>2012-03-09T13:22:25Z</time>
      </trkpt>
      <trkpt lat="42.74885" lon="0.64756">
        <ele>1694.94</ele>
        <time>2012-03-09T13:22:43Z</time>
      </trkpt>
      <trkpt lat="42.74887" lon="0.64757">
        <ele>1694.46</ele>
        <time>2012-03-09T13:25:01Z</time>
      </trkpt>
      <trkpt lat="42.74887" lon="0.64759">
        <ele>1694.94</ele>
        <time>2012-03-09T13:27:27Z</time>
      </trkpt>
      <trkpt lat="42.74887" lon="0.6476">
        <ele>1694.46</ele>
        <time>2012-03-09T13:27:49Z</time>
      </trkpt>
      <trkpt lat="42.74887" lon="0.64761">
        <ele>1694.46</ele>
        <time>2012-03-09T13:28:39Z</time>
      </trkpt>
      <trkpt lat="42.74887" lon="0.64762">
        <ele>1694.46</ele>
        <time>2012-03-09T13:29:15Z</time>
      </trkpt>
      <trkpt lat="42.74887" lon="0.64763">
        <ele>1693.98</ele>
        <time>2012-03-09T13:31:34Z</time>
      </trkpt>
      <trkpt lat="42.74888" lon="0.64761">
        <ele>1694.46</ele>
        <time>2012-03-09T13:32:55Z</time>
      </trkpt>
      <trkpt lat="42.74888" lon="0.64762">
        <ele>1694.46</ele>
        <time>2012-03-09T13:33:31Z</time>
      </trkpt>
      <trkpt lat="42.74895" lon="0.64759">
        <ele>1694.46</ele>
        <time>2012-03-09T13:33:47Z</time>
      </trkpt>
      <trkpt lat="42.74909" lon="0.6476">
        <ele>1698.79</ele>
        <time>2012-03-09T13:34:03Z</time>
      </trkpt>
      <trkpt lat="42.74913" lon="0.64758">
        <ele>1699.27</ele>
        <time>2012-03-09T13:34:08Z</time>
      </trkpt>
      <trkpt lat="42.74927" lon="0.64752">
        <ele>1698.31</ele>
        <time>2012-03-09T13:34:20Z</time>
      </trkpt>
      <trkpt lat="42.74939" lon="0.64745">
        <ele>1701.67</ele>
        <time>2012-03-09T13:34:34Z</time>
      </trkpt>
      <trkpt lat="42.74946" lon="0.64741">
        <ele>1702.15</ele>
        <time>2012-03-09T13:34:47Z</time>
      </trkpt>
      <trkpt lat="42.74953" lon="0.64739">
        <ele>1701.67</ele>
        <time>2012-03-09T13:35:00Z</time>
      </trkpt>
      <trkpt lat="42.74958" lon="0.64738">
        <ele>1701.19</ele>
        <time>2012-03-09T13:35:04Z</time>
      </trkpt>
      <trkpt lat="42.7497" lon="0.64737">
        <ele>1701.19</ele>
        <time>2012-03-09T13:35:19Z</time>
      </trkpt>
      <trkpt lat="42.74978" lon="0.64735">
        <ele>1702.15</ele>
        <time>2012-03-09T13:35:32Z</time>
      </trkpt>
      <trkpt lat="42.74992" lon="0.64734">
        <ele>1703.59</ele>
        <time>2012-03-09T13:35:47Z</time>
      </trkpt>
      <trkpt lat="42.75004" lon="0.6473">
        <ele>1702.15</ele>
        <time>2012-03-09T13:36:01Z</time>
      </trkpt>
      <trkpt lat="42.75014" lon="0.64728">
        <ele>1703.11</ele>
        <time>2012-03-09T13:36:13Z</time>
      </trkpt>
      <trkpt lat="42.75025" lon="0.64721">
        <ele>1708.88</ele>
        <time>2012-03-09T13:36:27Z</time>
      </trkpt>
      <trkpt lat="42.75035" lon="0.64717">
        <ele>1709.84</ele>
        <time>2012-03-09T13:36:40Z</time>
      </trkpt>
      <trkpt lat="42.75044" lon="0.64714">
        <ele>1710.8</ele>
        <time>2012-03-09T13:36:53Z</time>
      </trkpt>
      <trkpt lat="42.75054" lon="0.6471">
        <ele>1715.61</ele>
        <time>2012-03-09T13:37:06Z</time>
      </trkpt>
      <trkpt lat="42.75063" lon="0.64704">
        <ele>1720.9</ele>
        <time>2012-03-09T13:37:19Z</time>
      </trkpt>
      <trkpt lat="42.75071" lon="0.64699">
        <ele>1723.3</ele>
        <time>2012-03-09T13:37:30Z</time>
      </trkpt>
      <trkpt lat="42.75079" lon="0.64694">
        <ele>1726.18</ele>
        <time>2012-03-09T13:37:44Z</time>
      </trkpt>
      <trkpt lat="42.7508" lon="0.64694">
        <ele>1726.18</ele>
        <time>2012-03-09T13:37:49Z</time>
      </trkpt>
      <trkpt lat="42.75083" lon="0.64701">
        <ele>1726.18</ele>
        <time>2012-03-09T13:37:54Z</time>
      </trkpt>
      <trkpt lat="42.75082" lon="0.64717">
        <ele>1725.22</ele>
        <time>2012-03-09T13:38:09Z</time>
      </trkpt>
      <trkpt lat="42.75081" lon="0.64723">
        <ele>1724.74</ele>
        <time>2012-03-09T13:38:16Z</time>
      </trkpt>
      <trkpt lat="42.75078" lon="0.64732">
        <ele>1725.7</ele>
        <time>2012-03-09T13:38:29Z</time>
      </trkpt>
      <trkpt lat="42.75081" lon="0.64731">
        <ele>1727.15</ele>
        <time>2012-03-09T13:38:37Z</time>
      </trkpt>
      <trkpt lat="42.75095" lon="0.64729">
        <ele>1733.39</ele>
        <time>2012-03-09T13:38:50Z</time>
      </trkpt>
      <trkpt lat="42.75106" lon="0.64726">
        <ele>1734.36</ele>
        <time>2012-03-09T13:38:59Z</time>
      </trkpt>
      <trkpt lat="42.75116" lon="0.64725">
        <ele>1736.76</ele>
        <time>2012-03-09T13:39:13Z</time>
      </trkpt>
      <trkpt lat="42.75117" lon="0.6473">
        <ele>1737.24</ele>
        <time>2012-03-09T13:39:20Z</time>
      </trkpt>
      <trkpt lat="42.75118" lon="0.64748">
        <ele>1740.12</ele>
        <time>2012-03-09T13:39:35Z</time>
      </trkpt>
      <trkpt lat="42.75121" lon="0.64763">
        <ele>1743.49</ele>
        <time>2012-03-09T13:39:49Z</time>
      </trkpt>
      <trkpt lat="42.75124" lon="0.6477">
        <ele>1744.93</ele>
        <time>2012-03-09T13:40:03Z</time>
      </trkpt>
      <trkpt lat="42.75133" lon="0.64771">
        <ele>1745.41</ele>
        <time>2012-03-09T13:40:16Z</time>
      </trkpt>
      <trkpt lat="42.75144" lon="0.64779">
        <ele>1746.85</ele>
        <time>2012-03-09T13:40:47Z</time>
      </trkpt>
      <trkpt lat="42.75155" lon="0.64793">
        <ele>1748.78</ele>
        <time>2012-03-09T13:41:00Z</time>
      </trkpt>
      <trkpt lat="42.75162" lon="0.64803">
        <ele>1751.18</ele>
        <time>2012-03-09T13:41:12Z</time>
      </trkpt>
      <trkpt lat="42.75169" lon="0.64812">
        <ele>1752.14</ele>
        <time>2012-03-09T13:41:23Z</time>
      </trkpt>
      <trkpt lat="42.75169" lon="0.64813">
        <ele>1752.14</ele>
        <time>2012-03-09T13:42:02Z</time>
      </trkpt>
      <trkpt lat="42.75177" lon="0.64829">
        <ele>1753.58</ele>
        <time>2012-03-09T13:42:14Z</time>
      </trkpt>
      <trkpt lat="42.75182" lon="0.64844">
        <ele>1753.58</ele>
        <time>2012-03-09T13:42:26Z</time>
      </trkpt>
      <trkpt lat="42.75182" lon="0.64849">
        <ele>1753.1</ele>
        <time>2012-03-09T13:42:30Z</time>
      </trkpt>
      <trkpt lat="42.7518" lon="0.64876">
        <ele>1748.78</ele>
        <time>2012-03-09T13:42:44Z</time>
      </trkpt>
      <trkpt lat="42.7519" lon="0.64886">
        <ele>1751.66</ele>
        <time>2012-03-09T13:42:55Z</time>
      </trkpt>
      <trkpt lat="42.75196" lon="0.64906">
        <ele>1751.18</ele>
        <time>2012-03-09T13:43:08Z</time>
      </trkpt>
      <trkpt lat="42.75211" lon="0.64912">
        <ele>1751.18</ele>
        <time>2012-03-09T13:43:19Z</time>
      </trkpt>
      <trkpt lat="42.75208" lon="0.64924">
        <ele>1745.41</ele>
        <time>2012-03-09T13:43:31Z</time>
      </trkpt>
      <trkpt lat="42.75208" lon="0.64924">
        <ele>1745.41</ele>
        <time>2012-03-09T13:43:44Z</time>
      </trkpt>
      <trkpt lat="42.75213" lon="0.64925">
        <ele>1746.37</ele>
        <time>2012-03-09T13:44:03Z</time>
      </trkpt>
      <trkpt lat="42.75217" lon="0.64918">
        <ele>1747.81</ele>
        <time>2012-03-09T13:44:22Z</time>
      </trkpt>
      <trkpt lat="42.75218" lon="0.64921">
        <ele>1748.29</ele>
        <time>2012-03-09T13:44:51Z</time>
      </trkpt>
      <trkpt lat="42.75218" lon="0.64917">
        <ele>1747.81</ele>
        <time>2012-03-09T13:45:14Z</time>
      </trkpt>
      <trkpt lat="42.7522" lon="0.64917">
        <ele>1748.78</ele>
        <time>2012-03-09T13:45:51Z</time>
      </trkpt>
      <trkpt lat="42.75221" lon="0.64916">
        <ele>1748.78</ele>
        <time>2012-03-09T13:46:09Z</time>
      </trkpt>
      <trkpt lat="42.75222" lon="0.64916">
        <ele>1750.22</ele>
        <time>2012-03-09T13:47:11Z</time>
      </trkpt>
      <trkpt lat="42.75224" lon="0.64919">
        <ele>1750.22</ele>
        <time>2012-03-09T13:47:26Z</time>
      </trkpt>
      <trkpt lat="42.75223" lon="0.64918">
        <ele>1750.7</ele>
        <time>2012-03-09T13:48:12Z</time>
      </trkpt>
      <trkpt lat="42.75223" lon="0.64918">
        <ele>1751.18</ele>
        <time>2012-03-09T13:49:05Z</time>
      </trkpt>
      <trkpt lat="42.75222" lon="0.64917">
        <ele>1751.66</ele>
        <time>2012-03-09T13:52:16Z</time>
      </trkpt>
      <trkpt lat="42.75222" lon="0.64919">
        <ele>1751.18</ele>
        <time>2012-03-09T13:57:46Z</time>
      </trkpt>
      <trkpt lat="42.75222" lon="0.6492">
        <ele>1750.7</ele>
        <time>2012-03-09T13:59:55Z</time>
      </trkpt>
      <trkpt lat="42.75224" lon="0.64917">
        <ele>1752.14</ele>
        <time>2012-03-09T14:00:58Z</time>
      </trkpt>
      <trkpt lat="42.75224" lon="0.64917">
        <ele>1752.14</ele>
        <time>2012-03-09T14:02:46Z</time>
      </trkpt>
      <trkpt lat="42.75224" lon="0.64916">
        <ele>1752.62</ele>
        <time>2012-03-09T14:03:42Z</time>
      </trkpt>
      <trkpt lat="42.75224" lon="0.64918">
        <ele>1752.14</ele>
        <time>2012-03-09T14:07:22Z</time>
      </trkpt>
      <trkpt lat="42.75223" lon="0.64918">
        <ele>1752.14</ele>
        <time>2012-03-09T14:11:04Z</time>
      </trkpt>
      <trkpt lat="42.75224" lon="0.64917">
        <ele>1752.14</ele>
        <time>2012-03-09T14:14:44Z</time>
      </trkpt>
      <trkpt lat="42.75223" lon="0.64919">
        <ele>1751.66</ele>
        <time>2012-03-09T14:15:36Z</time>
      </trkpt>
      <trkpt lat="42.75223" lon="0.64918">
        <ele>1752.14</ele>
        <time>2012-03-09T14:17:19Z</time>
      </trkpt>
      <trkpt lat="42.75224" lon="0.64915">
        <ele>1751.66</ele>
        <time>2012-03-09T14:18:06Z</time>
      </trkpt>
      <trkpt lat="42.75224" lon="0.64917">
        <ele>1751.18</ele>
        <time>2012-03-09T14:18:21Z</time>
      </trkpt>
      <trkpt lat="42.75225" lon="0.64921">
        <ele>1753.58</ele>
        <time>2012-03-09T14:19:01Z</time>
      </trkpt>
      <trkpt lat="42.75223" lon="0.64916">
        <ele>1755.02</ele>
        <time>2012-03-09T14:22:04Z</time>
      </trkpt>
      <trkpt lat="42.75222" lon="0.64918">
        <ele>1755.99</ele>
        <time>2012-03-09T14:22:58Z</time>
      </trkpt>
      <trkpt lat="42.75222" lon="0.64917">
        <ele>1756.95</ele>
        <time>2012-03-09T14:24:25Z</time>
      </trkpt>
      <trkpt lat="42.75229" lon="0.64916">
        <ele>1757.43</ele>
        <time>2012-03-09T14:24:29Z</time>
      </trkpt>
      <trkpt lat="42.75265" lon="0.64905">
        <ele>1757.91</ele>
        <time>2012-03-09T14:24:45Z</time>
      </trkpt>
      <trkpt lat="42.75297" lon="0.64907">
        <ele>1755.99</ele>
        <time>2012-03-09T14:24:59Z</time>
      </trkpt>
      <trkpt lat="42.75325" lon="0.64914">
        <ele>1755.99</ele>
        <time>2012-03-09T14:25:14Z</time>
      </trkpt>
      <trkpt lat="42.75355" lon="0.64939">
        <ele>1757.43</ele>
        <time>2012-03-09T14:25:28Z</time>
      </trkpt>
      <trkpt lat="42.7538" lon="0.64973">
        <ele>1755.99</ele>
        <time>2012-03-09T14:25:36Z</time>
      </trkpt>
      <trkpt lat="42.7539" lon="0.6499">
        <ele>1755.5</ele>
        <time>2012-03-09T14:25:39Z</time>
      </trkpt>
      <trkpt lat="42.75399" lon="0.65004">
        <ele>1754.06</ele>
        <time>2012-03-09T14:25:42Z</time>
      </trkpt>
      <trkpt lat="42.75412" lon="0.65036">
        <ele>1751.66</ele>
        <time>2012-03-09T14:25:53Z</time>
      </trkpt>
      <trkpt lat="42.75416" lon="0.65069">
        <ele>1751.18</ele>
        <time>2012-03-09T14:26:11Z</time>
      </trkpt>
      <trkpt lat="42.7542" lon="0.65106">
        <ele>1750.7</ele>
        <time>2012-03-09T14:26:16Z</time>
      </trkpt>
      <trkpt lat="42.75439" lon="0.65119">
        <ele>1748.78</ele>
        <time>2012-03-09T14:26:21Z</time>
      </trkpt>
      <trkpt lat="42.75457" lon="0.65137">
        <ele>1746.85</ele>
        <time>2012-03-09T14:26:25Z</time>
      </trkpt>
      <trkpt lat="42.75486" lon="0.65168">
        <ele>1742.53</ele>
        <time>2012-03-09T14:26:32Z</time>
      </trkpt>
      <trkpt lat="42.75493" lon="0.65189">
        <ele>1739.64</ele>
        <time>2012-03-09T14:26:36Z</time>
      </trkpt>
      <trkpt lat="42.75496" lon="0.65198">
        <ele>1738.68</ele>
        <time>2012-03-09T14:26:38Z</time>
      </trkpt>
      <trkpt lat="42.75505" lon="0.65199">
        <ele>1737.24</ele>
        <time>2012-03-09T14:26:40Z</time>
      </trkpt>
      <trkpt lat="42.75526" lon="0.65189">
        <ele>1732.91</ele>
        <time>2012-03-09T14:26:44Z</time>
      </trkpt>
      <trkpt lat="42.75558" lon="0.65179">
        <ele>1728.11</ele>
        <time>2012-03-09T14:26:51Z</time>
      </trkpt>
      <trkpt lat="42.75566" lon="0.65171">
        <ele>1726.67</ele>
        <time>2012-03-09T14:26:53Z</time>
      </trkpt>
      <trkpt lat="42.75574" lon="0.65154">
        <ele>1723.3</ele>
        <time>2012-03-09T14:26:56Z</time>
      </trkpt>
      <trkpt lat="42.75578" lon="0.65163">
        <ele>1710.8</ele>
        <time>2012-03-09T14:27:09Z</time>
      </trkpt>
      <trkpt lat="42.75578" lon="0.65163">
        <ele>1710.8</ele>
        <time>2012-03-09T14:27:21Z</time>
      </trkpt>
      <trkpt lat="42.75597" lon="0.65183">
        <ele>1703.11</ele>
        <time>2012-03-09T14:27:32Z</time>
      </trkpt>
      <trkpt lat="42.7561" lon="0.65188">
        <ele>1700.23</ele>
        <time>2012-03-09T14:27:37Z</time>
      </trkpt>
      <trkpt lat="42.75626" lon="0.65182">
        <ele>1694.94</ele>
        <time>2012-03-09T14:27:43Z</time>
      </trkpt>
      <trkpt lat="42.75639" lon="0.65198">
        <ele>1686.77</ele>
        <time>2012-03-09T14:27:51Z</time>
      </trkpt>
      <trkpt lat="42.7564" lon="0.65198">
        <ele>1683.89</ele>
        <time>2012-03-09T14:28:19Z</time>
      </trkpt>
      <trkpt lat="42.75643" lon="0.65205">
        <ele>1681.96</ele>
        <time>2012-03-09T14:28:38Z</time>
      </trkpt>
      <trkpt lat="42.75649" lon="0.65199">
        <ele>1680.04</ele>
        <time>2012-03-09T14:28:42Z</time>
      </trkpt>
      <trkpt lat="42.7565" lon="0.65194">
        <ele>1678.12</ele>
        <time>2012-03-09T14:29:01Z</time>
      </trkpt>
      <trkpt lat="42.75664" lon="0.65186">
        <ele>1673.79</ele>
        <time>2012-03-09T14:29:08Z</time>
      </trkpt>
      <trkpt lat="42.75674" lon="0.6515">
        <ele>1654.57</ele>
        <time>2012-03-09T14:29:23Z</time>
      </trkpt>
      <trkpt lat="42.75686" lon="0.65156">
        <ele>1647.84</ele>
        <time>2012-03-09T14:29:41Z</time>
      </trkpt>
      <trkpt lat="42.75706" lon="0.65159">
        <ele>1638.22</ele>
        <time>2012-03-09T14:29:54Z</time>
      </trkpt>
      <trkpt lat="42.75745" lon="0.65145">
        <ele>1627.65</ele>
        <time>2012-03-09T14:30:09Z</time>
      </trkpt>
      <trkpt lat="42.75754" lon="0.65152">
        <ele>1625.73</ele>
        <time>2012-03-09T14:30:22Z</time>
      </trkpt>
      <trkpt lat="42.75761" lon="0.65156">
        <ele>1623.8</ele>
        <time>2012-03-09T14:30:29Z</time>
      </trkpt>
      <trkpt lat="42.75772" lon="0.65185">
        <ele>1618.52</ele>
        <time>2012-03-09T14:30:34Z</time>
      </trkpt>
      <trkpt lat="42.75788" lon="0.65284">
        <ele>1603.14</ele>
        <time>2012-03-09T14:30:50Z</time>
      </trkpt>
      <trkpt lat="42.75814" lon="0.65349">
        <ele>1595.93</ele>
        <time>2012-03-09T14:31:05Z</time>
      </trkpt>
      <trkpt lat="42.75818" lon="0.65363">
        <ele>1595.93</ele>
        <time>2012-03-09T14:31:19Z</time>
      </trkpt>
      <trkpt lat="42.75834" lon="0.65405">
        <ele>1593.04</ele>
        <time>2012-03-09T14:31:36Z</time>
      </trkpt>
      <trkpt lat="42.75867" lon="0.65461">
        <ele>1585.83</ele>
        <time>2012-03-09T14:31:53Z</time>
      </trkpt>
      <trkpt lat="42.75891" lon="0.65528">
        <ele>1580.54</ele>
        <time>2012-03-09T14:32:09Z</time>
      </trkpt>
      <trkpt lat="42.75903" lon="0.65604">
        <ele>1571.89</ele>
        <time>2012-03-09T14:32:24Z</time>
      </trkpt>
      <trkpt lat="42.75909" lon="0.65679">
        <ele>1565.64</ele>
        <time>2012-03-09T14:32:39Z</time>
      </trkpt>
      <trkpt lat="42.75913" lon="0.65776">
        <ele>1558.92</ele>
        <time>2012-03-09T14:32:55Z</time>
      </trkpt>
      <trkpt lat="42.75914" lon="0.6579">
        <ele>1558.43</ele>
        <time>2012-03-09T14:32:57Z</time>
      </trkpt>
      <trkpt lat="42.75909" lon="0.65857">
        <ele>1557.47</ele>
        <time>2012-03-09T14:33:11Z</time>
      </trkpt>
      <trkpt lat="42.75916" lon="0.65907">
        <ele>1554.59</ele>
        <time>2012-03-09T14:33:25Z</time>
      </trkpt>
      <trkpt lat="42.75929" lon="0.65947">
        <ele>1552.19</ele>
        <time>2012-03-09T14:33:38Z</time>
      </trkpt>
      <trkpt lat="42.75944" lon="0.66011">
        <ele>1545.46</ele>
        <time>2012-03-09T14:33:53Z</time>
      </trkpt>
      <trkpt lat="42.75929" lon="0.66089">
        <ele>1540.65</ele>
        <time>2012-03-09T14:34:09Z</time>
      </trkpt>
      <trkpt lat="42.75889" lon="0.66137">
        <ele>1534.88</ele>
        <time>2012-03-09T14:34:24Z</time>
      </trkpt>
      <trkpt lat="42.75874" lon="0.66199">
        <ele>1535.84</ele>
        <time>2012-03-09T14:34:39Z</time>
      </trkpt>
      <trkpt lat="42.75852" lon="0.66247">
        <ele>1537.29</ele>
        <time>2012-03-09T14:34:54Z</time>
      </trkpt>
      <trkpt lat="42.75856" lon="0.66296">
        <ele>1540.65</ele>
        <time>2012-03-09T14:35:09Z</time>
      </trkpt>
      <trkpt lat="42.75845" lon="0.66336">
        <ele>1542.57</ele>
        <time>2012-03-09T14:35:23Z</time>
      </trkpt>
      <trkpt lat="42.75845" lon="0.66379">
        <ele>1542.57</ele>
        <time>2012-03-09T14:35:38Z</time>
      </trkpt>
      <trkpt lat="42.75846" lon="0.66464">
        <ele>1536.32</ele>
        <time>2012-03-09T14:35:55Z</time>
      </trkpt>
      <trkpt lat="42.75829" lon="0.66563">
        <ele>1529.11</ele>
        <time>2012-03-09T14:36:13Z</time>
      </trkpt>
      <trkpt lat="42.75815" lon="0.66645">
        <ele>1530.08</ele>
        <time>2012-03-09T14:36:29Z</time>
      </trkpt>
      <trkpt lat="42.75814" lon="0.66716">
        <ele>1531.04</ele>
        <time>2012-03-09T14:36:44Z</time>
      </trkpt>
      <trkpt lat="42.75813" lon="0.66794">
        <ele>1526.71</ele>
        <time>2012-03-09T14:37:00Z</time>
      </trkpt>
      <trkpt lat="42.75808" lon="0.6683">
        <ele>1525.27</ele>
        <time>2012-03-09T14:37:12Z</time>
      </trkpt>
      <trkpt lat="42.75806" lon="0.66842">
        <ele>1523.35</ele>
        <time>2012-03-09T14:37:19Z</time>
      </trkpt>
      <trkpt lat="42.75805" lon="0.66844">
        <ele>1523.83</ele>
        <time>2012-03-09T14:37:23Z</time>
      </trkpt>
      <trkpt lat="42.75803" lon="0.66896">
        <ele>1523.35</ele>
        <time>2012-03-09T14:37:37Z</time>
      </trkpt>
      <trkpt lat="42.75799" lon="0.66924">
        <ele>1522.87</ele>
        <time>2012-03-09T14:37:42Z</time>
      </trkpt>
      <trkpt lat="42.7578" lon="0.67033">
        <ele>1516.62</ele>
        <time>2012-03-09T14:38:00Z</time>
      </trkpt>
      <trkpt lat="42.75769" lon="0.67096">
        <ele>1514.69</ele>
        <time>2012-03-09T14:38:15Z</time>
      </trkpt>
      <trkpt lat="42.75771" lon="0.67125">
        <ele>1513.73</ele>
        <time>2012-03-09T14:38:30Z</time>
      </trkpt>
      <trkpt lat="42.7577" lon="0.67109">
        <ele>1514.21</ele>
        <time>2012-03-09T14:38:53Z</time>
      </trkpt>
      <trkpt lat="42.75785" lon="0.67029">
        <ele>1511.33</ele>
        <time>2012-03-09T14:39:09Z</time>
      </trkpt>
      <trkpt lat="42.75815" lon="0.66973">
        <ele>1509.89</ele>
        <time>2012-03-09T14:39:27Z</time>
      </trkpt>
      <trkpt lat="42.75852" lon="0.66912">
        <ele>1507.48</ele>
        <time>2012-03-09T14:39:43Z</time>
      </trkpt>
      <trkpt lat="42.75895" lon="0.66821">
        <ele>1502.2</ele>
        <time>2012-03-09T14:39:58Z</time>
      </trkpt>
      <trkpt lat="42.75923" lon="0.66701">
        <ele>1495.95</ele>
        <time>2012-03-09T14:40:14Z</time>
      </trkpt>
      <trkpt lat="42.75931" lon="0.66648">
        <ele>1494.99</ele>
        <time>2012-03-09T14:40:22Z</time>
      </trkpt>
      <trkpt lat="42.75933" lon="0.66604">
        <ele>1494.51</ele>
        <time>2012-03-09T14:40:29Z</time>
      </trkpt>
      <trkpt lat="42.75959" lon="0.6651">
        <ele>1493.55</ele>
        <time>2012-03-09T14:40:43Z</time>
      </trkpt>
      <trkpt lat="42.76003" lon="0.66408">
        <ele>1491.14</ele>
        <time>2012-03-09T14:40:57Z</time>
      </trkpt>
      <trkpt lat="42.76016" lon="0.66376">
        <ele>1491.14</ele>
        <time>2012-03-09T14:41:02Z</time>
      </trkpt>
      <trkpt lat="42.76031" lon="0.66312">
        <ele>1489.7</ele>
        <time>2012-03-09T14:41:15Z</time>
      </trkpt>
      <trkpt lat="42.76036" lon="0.66299">
        <ele>1489.22</ele>
        <time>2012-03-09T14:41:18Z</time>
      </trkpt>
      <trkpt lat="42.76085" lon="0.66226">
        <ele>1487.3</ele>
        <time>2012-03-09T14:41:36Z</time>
      </trkpt>
      <trkpt lat="42.76115" lon="0.66171">
        <ele>1485.85</ele>
        <time>2012-03-09T14:41:50Z</time>
      </trkpt>
      <trkpt lat="42.76133" lon="0.6611">
        <ele>1481.53</ele>
        <time>2012-03-09T14:42:04Z</time>
      </trkpt>
      <trkpt lat="42.76134" lon="0.66071">
        <ele>1470.47</ele>
        <time>2012-03-09T14:42:22Z</time>
      </trkpt>
      <trkpt lat="42.7613" lon="0.66061">
        <ele>1467.11</ele>
        <time>2012-03-09T14:42:28Z</time>
      </trkpt>
      <trkpt lat="42.76146" lon="0.66003">
        <ele>1456.05</ele>
        <time>2012-03-09T14:42:44Z</time>
      </trkpt>
      <trkpt lat="42.76155" lon="0.65889">
        <ele>1450.29</ele>
        <time>2012-03-09T14:43:02Z</time>
      </trkpt>
      <trkpt lat="42.76152" lon="0.65843">
        <ele>1446.92</ele>
        <time>2012-03-09T14:43:17Z</time>
      </trkpt>
      <trkpt lat="42.76143" lon="0.65813">
        <ele>1442.6</ele>
        <time>2012-03-09T14:43:32Z</time>
      </trkpt>
      <trkpt lat="42.76136" lon="0.6573">
        <ele>1440.67</ele>
        <time>2012-03-09T14:43:51Z</time>
      </trkpt>
      <trkpt lat="42.76116" lon="0.65613">
        <ele>1440.19</ele>
        <time>2012-03-09T14:44:08Z</time>
      </trkpt>
      <trkpt lat="42.76098" lon="0.65548">
        <ele>1440.19</ele>
        <time>2012-03-09T14:44:24Z</time>
      </trkpt>
      <trkpt lat="42.76167" lon="0.657">
        <ele>1429.14</ele>
        <time>2012-03-09T14:44:31Z</time>
      </trkpt>
      <trkpt lat="42.76191" lon="0.65729">
        <ele>1420</ele>
        <time>2012-03-09T14:44:39Z</time>
      </trkpt>
      <trkpt lat="42.76241" lon="0.65808">
        <ele>1407.51</ele>
        <time>2012-03-09T14:44:54Z</time>
      </trkpt>
      <trkpt lat="42.76245" lon="0.65822">
        <ele>1403.66</ele>
        <time>2012-03-09T14:44:56Z</time>
      </trkpt>
      <trkpt lat="42.76249" lon="0.65873">
        <ele>1396.93</ele>
        <time>2012-03-09T14:45:05Z</time>
      </trkpt>
      <trkpt lat="42.76246" lon="0.65873">
        <ele>1396.45</ele>
        <time>2012-03-09T14:45:06Z</time>
      </trkpt>
      <trkpt lat="42.76243" lon="0.65801">
        <ele>1386.84</ele>
        <time>2012-03-09T14:45:18Z</time>
      </trkpt>
      <trkpt lat="42.76243" lon="0.65713">
        <ele>1370.5</ele>
        <time>2012-03-09T14:45:31Z</time>
      </trkpt>
      <trkpt lat="42.76218" lon="0.65666">
        <ele>1370.02</ele>
        <time>2012-03-09T14:45:43Z</time>
      </trkpt>
      <trkpt lat="42.76206" lon="0.65651">
        <ele>1369.54</ele>
        <time>2012-03-09T14:45:47Z</time>
      </trkpt>
      <trkpt lat="42.76196" lon="0.65628">
        <ele>1369.05</ele>
        <time>2012-03-09T14:45:51Z</time>
      </trkpt>
      <trkpt lat="42.76191" lon="0.65602">
        <ele>1368.09</ele>
        <time>2012-03-09T14:45:55Z</time>
      </trkpt>
      <trkpt lat="42.76186" lon="0.65614">
        <ele>1366.65</ele>
        <time>2012-03-09T14:46:08Z</time>
      </trkpt>
      <trkpt lat="42.76286" lon="0.65677">
        <ele>1354.15</ele>
        <time>2012-03-09T14:46:21Z</time>
      </trkpt>
      <trkpt lat="42.76312" lon="0.65721">
        <ele>1344.54</ele>
        <time>2012-03-09T14:46:36Z</time>
      </trkpt>
      <trkpt lat="42.76324" lon="0.65797">
        <ele>1325.31</ele>
        <time>2012-03-09T14:46:49Z</time>
      </trkpt>
      <trkpt lat="42.76329" lon="0.65841">
        <ele>1325.8</ele>
        <time>2012-03-09T14:47:01Z</time>
      </trkpt>
      <trkpt lat="42.76356" lon="0.65697">
        <ele>1318.59</ele>
        <time>2012-03-09T14:47:10Z</time>
      </trkpt>
      <trkpt lat="42.76365" lon="0.65678">
        <ele>1322.43</ele>
        <time>2012-03-09T14:47:18Z</time>
      </trkpt>
      <trkpt lat="42.76366" lon="0.65678">
        <ele>1322.43</ele>
        <time>2012-03-09T14:47:19Z</time>
      </trkpt>
      <trkpt lat="42.764" lon="0.6569">
        <ele>1322.43</ele>
        <time>2012-03-09T14:47:34Z</time>
      </trkpt>
      <trkpt lat="42.76443" lon="0.6572">
        <ele>1317.14</ele>
        <time>2012-03-09T14:47:46Z</time>
      </trkpt>
      <trkpt lat="42.76469" lon="0.65748">
        <ele>1310.9</ele>
        <time>2012-03-09T14:47:50Z</time>
      </trkpt>
      <trkpt lat="42.76516" lon="0.65804">
        <ele>1304.65</ele>
        <time>2012-03-09T14:48:00Z</time>
      </trkpt>
      <trkpt lat="42.76538" lon="0.65853">
        <ele>1293.59</ele>
        <time>2012-03-09T14:48:10Z</time>
      </trkpt>
      <trkpt lat="42.7654" lon="0.65861">
        <ele>1289.75</ele>
        <time>2012-03-09T14:48:27Z</time>
      </trkpt>
      <trkpt lat="42.76541" lon="0.65861">
        <ele>1289.75</ele>
        <time>2012-03-09T14:48:50Z</time>
      </trkpt>
      <trkpt lat="42.76542" lon="0.65865">
        <ele>1289.75</ele>
        <time>2012-03-09T14:50:11Z</time>
      </trkpt>
      <trkpt lat="42.76542" lon="0.65868">
        <ele>1289.75</ele>
        <time>2012-03-09T14:50:14Z</time>
      </trkpt>
      <trkpt lat="42.76549" lon="0.65884">
        <ele>1288.78</ele>
        <time>2012-03-09T14:50:28Z</time>
      </trkpt>
      <trkpt lat="42.76553" lon="0.6589">
        <ele>1287.82</ele>
        <time>2012-03-09T14:50:35Z</time>
      </trkpt>
      <trkpt lat="42.76558" lon="0.65893">
        <ele>1287.82</ele>
        <time>2012-03-09T14:50:40Z</time>
      </trkpt>
      <trkpt lat="42.76569" lon="0.65903">
        <ele>1286.86</ele>
        <time>2012-03-09T14:50:51Z</time>
      </trkpt>
      <trkpt lat="42.76584" lon="0.65925">
        <ele>1283.02</ele>
        <time>2012-03-09T14:51:06Z</time>
      </trkpt>
      <trkpt lat="42.76594" lon="0.65939">
        <ele>1280.13</ele>
        <time>2012-03-09T14:51:19Z</time>
      </trkpt>
      <trkpt lat="42.7661" lon="0.65955">
        <ele>1278.21</ele>
        <time>2012-03-09T14:51:36Z</time>
      </trkpt>
      <trkpt lat="42.76626" lon="0.65969">
        <ele>1276.29</ele>
        <time>2012-03-09T14:51:52Z</time>
      </trkpt>
      <trkpt lat="42.76638" lon="0.65991">
        <ele>1276.29</ele>
        <time>2012-03-09T14:52:07Z</time>
      </trkpt>
      <trkpt lat="42.76645" lon="0.66005">
        <ele>1275.33</ele>
        <time>2012-03-09T14:52:17Z</time>
      </trkpt>
      <trkpt lat="42.76646" lon="0.66008">
        <ele>1275.33</ele>
        <time>2012-03-09T14:52:19Z</time>
      </trkpt>
      <trkpt lat="42.7665" lon="0.6601">
        <ele>1274.85</ele>
        <time>2012-03-09T14:52:23Z</time>
      </trkpt>
      <trkpt lat="42.76659" lon="0.65989">
        <ele>1276.29</ele>
        <time>2012-03-09T14:52:37Z</time>
      </trkpt>
      <trkpt lat="42.76668" lon="0.65978">
        <ele>1273.88</ele>
        <time>2012-03-09T14:52:51Z</time>
      </trkpt>
      <trkpt lat="42.76669" lon="0.65977">
        <ele>1273.4</ele>
        <time>2012-03-09T14:52:53Z</time>
      </trkpt>
      <trkpt lat="42.76674" lon="0.65977">
        <ele>1271.96</ele>
        <time>2012-03-09T14:52:58Z</time>
      </trkpt>
      <trkpt lat="42.76679" lon="0.65977">
        <ele>1271</ele>
        <time>2012-03-09T14:53:06Z</time>
      </trkpt>
      <trkpt lat="42.7669" lon="0.65969">
        <ele>1271.48</ele>
        <time>2012-03-09T14:53:16Z</time>
      </trkpt>
      <trkpt lat="42.76699" lon="0.65954">
        <ele>1274.36</ele>
        <time>2012-03-09T14:53:31Z</time>
      </trkpt>
      <trkpt lat="42.76714" lon="0.65938">
        <ele>1277.25</ele>
        <time>2012-03-09T14:53:48Z</time>
      </trkpt>
      <trkpt lat="42.76723" lon="0.65932">
        <ele>1277.25</ele>
        <time>2012-03-09T14:53:57Z</time>
      </trkpt>
      <trkpt lat="42.76733" lon="0.65925">
        <ele>1276.29</ele>
        <time>2012-03-09T14:54:05Z</time>
      </trkpt>
      <trkpt lat="42.76741" lon="0.65915">
        <ele>1274.85</ele>
        <time>2012-03-09T14:54:15Z</time>
      </trkpt>
      <trkpt lat="42.76761" lon="0.65912">
        <ele>1273.4</ele>
        <time>2012-03-09T14:54:31Z</time>
      </trkpt>
      <trkpt lat="42.76763" lon="0.65912">
        <ele>1273.88</ele>
        <time>2012-03-09T14:54:32Z</time>
      </trkpt>
      <trkpt lat="42.76778" lon="0.65921">
        <ele>1272.44</ele>
        <time>2012-03-09T14:54:42Z</time>
      </trkpt>
      <trkpt lat="42.76785" lon="0.6593">
        <ele>1272.44</ele>
        <time>2012-03-09T14:54:58Z</time>
      </trkpt>
    </trkseg>
  </trk>
</gpx>